Provisional Data: Blockhouse Creek near English Center, PA


Please select a monitoring station.
Please select start date.
Please select start date.

Toggle Unit: C/F Toggle Unit: C/F
Sample Time Temperature (C) Temperature (F) Specific Conductivity (mS/cm) pH   Turbidity (NTU+) DO (mg/L)
6/3/2022 12:00:00 AM 18.16 64.688 0.117 7.18 2.19 8.23
6/3/2022 12:15:00 AM 18.08 64.544 0.117 7.2 2.07 8.26
6/3/2022 12:30:00 AM 17.99 64.382 0.117 7.19 2.01 8.28
6/3/2022 12:45:00 AM 17.9 64.22 0.117 7.18 2.2 8.3
6/3/2022 1:00:00 AM 17.82 64.076 0.117 7.18 2.05 8.33
6/3/2022 1:15:00 AM 17.74 63.932 0.117 7.19 2.12 8.36
6/3/2022 1:30:00 AM 17.67 63.806 0.116 7.19 6.82 8.38
6/3/2022 1:45:00 AM 17.59 63.662 0.116 7.18 2.22 8.4
6/3/2022 2:00:00 AM 17.5 63.5 0.116 7.19 2.18 8.43
6/3/2022 2:15:00 AM 17.42 63.356 0.115 7.2 2.2 8.46
6/3/2022 2:30:00 AM 17.33 63.194 0.114 7.18 2.26 8.49
6/3/2022 2:45:00 AM 17.25 63.05 0.113 7.23 2.53 8.52
6/3/2022 3:00:00 AM 17.16 62.888 0.113 7.17 2.56 8.55
6/3/2022 3:15:00 AM 17.07 62.726 0.112 7.19 2.64 8.57
6/3/2022 3:30:00 AM 16.99 62.582 0.111 7.17 2.4 8.59
6/3/2022 3:45:00 AM 16.92 62.456 0.111 7.18 2.5 8.61
6/3/2022 4:00:00 AM 16.85 62.33 0.111 7.17 2.31 8.62
6/3/2022 4:15:00 AM 16.77 62.186 0.112 7.17 2.27 8.64
6/3/2022 4:30:00 AM 16.7 62.06 0.113 7.18 2.59 8.65
6/3/2022 4:45:00 AM 16.62 61.916 0.113 7.18 2.74 8.66
6/3/2022 5:00:00 AM 16.55 61.79 0.114 7.18 3.03 8.67
6/3/2022 5:15:00 AM 16.47 61.646 0.114 7.19 2.89 8.69
6/3/2022 5:30:00 AM 16.4 61.52 0.115 7.19 2.72 8.7
6/3/2022 5:45:00 AM 16.34 61.412 0.115 7.19 2.57 8.73
6/3/2022 6:00:00 AM 16.27 61.286 0.115 7.2 7.2 8.77
6/3/2022 6:15:00 AM 16.18 61.124 0.116 7.21 2.35 8.85
6/3/2022 6:30:00 AM 16.11 60.998 0.116 7.24 2.31 8.93
6/3/2022 6:45:00 AM 16.04 60.872 0.116 7.27 2.26 9.02
6/3/2022 7:00:00 AM 15.99 60.782 0.116 7.29 7.08 9.12
6/3/2022 7:15:00 AM 15.94 60.692 0.117 7.31 6.81 9.2
6/3/2022 7:30:00 AM 15.9 60.62 0.117 7.35 1.96 9.31
6/3/2022 7:45:00 AM 15.89 60.602 0.116 7.38 1.89 9.42
6/3/2022 8:00:00 AM 15.88 60.584 0.116 7.42 2 9.49
6/3/2022 8:15:00 AM 15.88 60.584 0.116 7.47 1.88 9.56
6/3/2022 8:30:00 AM 15.91 60.638 0.116 7.47 1.84 9.6
6/3/2022 8:45:00 AM 15.94 60.692 0.116 7.51 1.92 9.66
6/3/2022 9:00:00 AM 16 60.8 0.116 7.52 1.78 9.71
6/3/2022 9:15:00 AM 16.07 60.926 0.115 7.55 1.84 9.75
6/3/2022 9:30:00 AM 16.16 61.088 0.115 7.58 6.48 9.79
6/3/2022 9:45:00 AM 16.28 61.304 0.115 7.62 1.81 9.82
6/3/2022 10:00:00 AM 16.43 61.574 0.115 7.63 1.86 9.85
6/3/2022 10:15:00 AM 16.61 61.898 0.115 7.68 1.82 9.87
6/3/2022 10:30:00 AM 16.81 62.258 0.114 7.72 1.8 9.87
6/3/2022 10:45:00 AM 17.05 62.69 0.115 7.76 1.8 9.88
6/3/2022 11:00:00 AM 17.31 63.158 0.115 7.79 1.78 9.87
6/3/2022 11:15:00 AM 17.59 63.662 0.115 7.84 1.79 9.86
6/3/2022 11:30:00 AM 17.87 64.166 0.115 7.87 1.75 9.84
6/3/2022 11:45:00 AM 18.18 64.724 0.115 7.92 1.81 9.83
6/3/2022 12:00:00 PM 18.47 65.246 0.115 7.98 1.79 9.81
6/3/2022 12:15:00 PM 18.8 65.84 0.116 8.02 1.75 9.79
6/3/2022 12:30:00 PM 19.14 66.452 0.116 8.08 1.76 9.76
6/3/2022 12:45:00 PM 19.48 67.064 0.116 8.13 1.8 9.73
6/3/2022 1:00:00 PM 19.78 67.604 0.116 8.2 1.71 9.69
6/3/2022 1:15:00 PM 20.02 68.036 0.117 8.22 1.79 9.67
6/3/2022 1:30:00 PM 20.31 68.558 0.117 8.29 1.87 9.61
6/3/2022 1:45:00 PM 20.44 68.792 0.117 8.27 6.57 9.52
6/3/2022 2:00:00 PM 20.56 69.008 0.117 8.33 1.79 9.46
6/3/2022 2:15:00 PM 20.61 69.098 0.118 8.31 6.76 9.46
6/3/2022 2:30:00 PM 20.65 69.17 0.118 8.35 1.69 9.46
6/3/2022 2:45:00 PM 20.53 68.954 0.118 8.28 1.8 9.38
6/3/2022 3:00:00 PM 20.7 69.26 0.118 8.33 1.72 9.39
6/3/2022 3:15:00 PM 20.84 69.512 0.118 8.34 1.87 9.39
6/3/2022 3:30:00 PM 21 69.8 0.118 8.38 1.86 9.42
6/3/2022 3:45:00 PM 21.06 69.908 0.119 8.38 1.84 9.3
6/3/2022 4:00:00 PM 21.2 70.16 0.119 8.34 1.79 9.28
6/3/2022 4:15:00 PM 21.14 70.052 0.119 8.31 1.93 9.22
6/3/2022 4:30:00 PM 21.27 70.286 0.119 8.35 1.93 9.3
6/3/2022 4:45:00 PM 21.3 70.34 0.119 8.38 1.83 9.26
6/3/2022 5:00:00 PM 21.29 70.32201 0.119 8.27 1.86 9.14
6/3/2022 5:15:00 PM 21.11 69.998 0.12 8.15 1.86 8.99
6/3/2022 5:30:00 PM 20.94 69.692 0.12 8.05 1.83 8.98
6/3/2022 5:45:00 PM 20.79 69.422 0.12 7.97 1.81 8.94
6/3/2022 6:00:00 PM 20.64 69.152 0.12 7.9 1.69 8.9
6/3/2022 6:15:00 PM 20.47 68.846 0.121 7.83 1.62 8.85
6/3/2022 6:30:00 PM 20.31 68.558 0.12 7.78 1.75 8.85
6/3/2022 6:45:00 PM 20.19 68.342 0.121 7.7 1.65 8.75
6/3/2022 7:00:00 PM 20.07 68.126 0.121 7.63 1.64 8.64
6/3/2022 7:15:00 PM 19.9 67.82 0.121 7.56 1.69 8.56
6/3/2022 7:30:00 PM 19.63 67.334 0.121 7.48 1.72 8.44
6/3/2022 7:45:00 PM 19.41 66.938 0.122 7.42 1.9 8.39
6/3/2022 8:00:00 PM 19.21 66.578 0.122 7.39 1.67 8.37
6/3/2022 8:15:00 PM 19.03 66.254 0.122 7.36 1.64 8.35
6/3/2022 8:30:00 PM 18.85 65.93 0.122 7.33 1.68 8.32
6/3/2022 8:45:00 PM 18.68 65.624 0.122 7.3 6.19 8.28
6/3/2022 9:00:00 PM 18.52 65.336 0.122 7.29 1.74 8.26
6/3/2022 9:15:00 PM 18.38 65.084 0.122 7.25 1.94 8.25
6/3/2022 9:30:00 PM 18.24 64.832 0.122 7.24 1.74 8.26
6/3/2022 9:45:00 PM 18.1 64.58 0.122 7.24 1.81 8.28
6/3/2022 10:00:00 PM 17.97 64.346 0.122 7.23 1.79 8.3
6/3/2022 10:15:00 PM 17.83 64.094 0.122 7.22 6.69 8.32
6/3/2022 10:30:00 PM 17.7 63.86 0.122 7.23 1.69 8.35
6/3/2022 10:45:00 PM 17.56 63.608 0.122 7.22 1.78 8.37
6/3/2022 11:00:00 PM 17.42 63.356 0.122 7.23 1.97 8.41
6/3/2022 11:15:00 PM 17.29 63.122 0.122 7.21 1.77 8.44
6/3/2022 11:30:00 PM 17.16 62.888 0.122 7.21 1.66 8.47
6/3/2022 11:45:00 PM 17.03 62.654 0.122 7.2 1.69 8.5
6/4/2022 12:00:00 AM 16.91 62.438 0.122 7.21 1.68 8.52
6/4/2022 12:15:00 AM 16.79 62.222 0.122 7.21 1.65 8.54
6/4/2022 12:30:00 AM 16.68 62.024 0.122 7.2 6.58 8.57
6/4/2022 12:45:00 AM 16.56 61.808 0.122 7.21 1.74 8.59
6/4/2022 1:00:00 AM 16.45 61.61 0.121 7.21 1.74 8.62
6/4/2022 1:15:00 AM 16.34 61.412 0.121 7.21 1.66 8.64
6/4/2022 1:30:00 AM 16.24 61.232 0.121 7.21 1.94 8.67
6/4/2022 1:45:00 AM 16.13 61.034 0.121 7.19 1.7 8.69
6/4/2022 2:00:00 AM 16.03 60.854 0.121 7.21 1.71 8.71
6/4/2022 2:15:00 AM 15.92 60.656 0.121 7.2 1.87 8.73
6/4/2022 2:30:00 AM 15.82 60.476 0.121 7.2 6.33 8.76
6/4/2022 2:45:00 AM 15.72 60.296 0.121 7.19 1.64 8.78
6/4/2022 3:00:00 AM 15.62 60.116 0.121 7.2 1.75 8.81
6/4/2022 3:15:00 AM 15.52 59.936 0.121 7.2 1.72 8.83
6/4/2022 3:30:00 AM 15.42 59.756 0.121 7.2 1.72 8.85
6/4/2022 3:45:00 AM 15.32 59.576 0.121 7.2 1.62 8.87
6/4/2022 4:00:00 AM 15.22 59.396 0.121 7.2 1.74 8.89
6/4/2022 4:15:00 AM 15.12 59.216 0.121 7.2 1.68 8.92
6/4/2022 4:30:00 AM 15.02 59.036 0.121 7.2 1.73 8.95
6/4/2022 4:45:00 AM 14.91 58.838 0.121 7.2 1.73 8.97
6/4/2022 5:00:00 AM 14.8 58.64 0.121 7.2 1.66 9
6/4/2022 5:15:00 AM 14.7 58.46 0.121 7.2 1.68 9.02
6/4/2022 5:30:00 AM 14.58 58.244 0.121 7.2 1.72 9.05
6/4/2022 5:45:00 AM 14.47 58.046 0.122 7.22 1.68 9.1
6/4/2022 6:00:00 AM 14.36 57.848 0.122 7.21 1.68 9.17
6/4/2022 6:15:00 AM 14.25 57.65 0.122 7.23 1.59 9.25
6/4/2022 6:30:00 AM 14.14 57.452 0.122 7.25 1.68 9.34
6/4/2022 6:45:00 AM 14.05 57.29 0.122 7.26 1.57 9.44
6/4/2022 7:00:00 AM 14 57.2 0.122 7.29 1.61 9.54
6/4/2022 7:15:00 AM 13.98 57.164 0.122 7.33 1.71 9.66
6/4/2022 7:30:00 AM 13.99 57.182 0.122 7.36 1.49 9.78
6/4/2022 7:45:00 AM 14.04 57.272 0.122 7.39 1.63 9.9
6/4/2022 8:00:00 AM 14.09 57.362 0.122 7.43 1.52 9.97
6/4/2022 8:15:00 AM 14.15 57.47 0.122 7.46 1.55 10.03
6/4/2022 8:30:00 AM 14.22 57.596 0.122 7.49 1.47 10.07
6/4/2022 8:45:00 AM 14.32 57.776 0.122 7.52 1.58 10.11
6/4/2022 9:00:00 AM 14.44 57.992 0.122 7.55 1.48 10.14
6/4/2022 9:15:00 AM 14.58 58.244 0.122 7.57 1.58 10.17
6/4/2022 9:30:00 AM 14.75 58.55 0.121 7.6 1.51 10.18
6/4/2022 9:45:00 AM 14.93 58.874 0.121 7.62 6.06 10.18
6/4/2022 10:00:00 AM 15.14 59.252 0.121 7.67 1.6 10.18
6/4/2022 10:15:00 AM 15.38 59.684 0.121 7.68 1.54 10.17
6/4/2022 10:30:00 AM 15.65 60.17 0.121 7.73 1.6 10.15
6/4/2022 10:45:00 AM 15.95 60.71 0.121 7.74 1.65 10.13
6/4/2022 11:00:00 AM 16.27 61.286 0.121 7.78 1.57 10.1
6/4/2022 11:15:00 AM 16.61 61.898 0.12 7.82 1.56 10.07
6/4/2022 11:30:00 AM 16.95 62.51 0.12 7.84 1.63 10.02
6/4/2022 11:45:00 AM 17.29 63.122 0.12 7.88 1.65 9.99
6/4/2022 12:00:00 PM 17.64 63.752 0.12 7.92 1.62 9.95
6/4/2022 12:15:00 PM 17.99 64.382 0.12 7.96 1.75 9.91
6/4/2022 12:30:00 PM 18.32 64.976 0.12 8 1.72 9.86
6/4/2022 12:45:00 PM 18.65 65.57 0.12 8.05 1.69 9.82
6/4/2022 1:00:00 PM 18.98 66.164 0.12 8.07 1.66 9.77
6/4/2022 1:15:00 PM 19.28 66.704 0.12 8.11 1.75 9.72
6/4/2022 1:30:00 PM 19.61 67.298 0.12 8.15 1.7 9.68
6/4/2022 1:45:00 PM 19.9 67.82 0.12 8.22 1.66 9.63
6/4/2022 2:00:00 PM 20.17 68.306 0.12 8.22 1.68 9.59
6/4/2022 2:15:00 PM 20.47 68.846 0.12 8.26 1.66 9.54
6/4/2022 2:30:00 PM 20.75 69.35 0.12 8.29 1.79 9.49
6/4/2022 2:45:00 PM 20.97 69.746 0.12 8.31 1.71 9.45
6/4/2022 3:00:00 PM 21.17 70.106 0.12 8.34 1.65 9.4
6/4/2022 3:15:00 PM 21.32 70.376 0.12 8.36 1.69 9.38
6/4/2022 3:30:00 PM 21.44 70.592 0.12 8.38 1.7 9.34
6/4/2022 3:45:00 PM 21.53 70.754 0.12 8.38 1.7 9.3
6/4/2022 4:00:00 PM 21.61 70.898 0.12 8.38 1.71 9.26
6/4/2022 4:15:00 PM 21.62 70.916 0.12 8.36 1.7 9.22
6/4/2022 4:30:00 PM 21.64 70.952 0.12 8.34 6.2 9.18
6/4/2022 4:45:00 PM 21.63 70.934 0.12 8.32 1.77 9.15
6/4/2022 5:00:00 PM 21.6 70.88 0.121 8.26 1.69 9.1
6/4/2022 5:15:00 PM 21.48 70.664 0.121 8.2 1.71 9.03
6/4/2022 5:30:00 PM 21.31 70.358 0.121 8.13 1.71 8.99
6/4/2022 5:45:00 PM 21.14 70.052 0.121 8.03 1.7 8.91
6/4/2022 6:00:00 PM 20.91 69.638 0.121 7.94 1.63 8.82
6/4/2022 6:15:00 PM 20.7 69.26 0.121 7.79 1.71 8.73
6/4/2022 6:30:00 PM 20.48 68.864 0.122 7.7 1.68 8.64
6/4/2022 6:45:00 PM 20.26 68.468 0.122 7.61 1.67 8.54
6/4/2022 7:00:00 PM 20.08 68.144 0.122 7.55 1.65 8.48
6/4/2022 7:15:00 PM 19.91 67.838 0.122 7.51 1.64 8.43
6/4/2022 7:30:00 PM 19.65 67.37 0.122 7.45 1.66 8.33
6/4/2022 7:45:00 PM 19.4 66.92 0.122 7.41 1.62 8.29
6/4/2022 8:00:00 PM 19.17 66.506 0.122 7.37 1.7 8.28
6/4/2022 8:15:00 PM 18.95 66.11 0.122 7.35 1.78 8.28
6/4/2022 8:30:00 PM 18.73 65.714 0.122 7.32 1.64 8.27
6/4/2022 8:45:00 PM 18.53 65.354 0.123 7.3 6.55 8.26
6/4/2022 9:00:00 PM 18.32 64.976 0.123 7.28 1.73 8.25
6/4/2022 9:15:00 PM 18.12 64.616 0.123 7.26 7.19 8.26
6/4/2022 9:30:00 PM 17.92 64.256 0.123 7.25 2.16 8.28
6/4/2022 9:45:00 PM 17.74 63.932 0.123 7.24 2.3 8.3
6/4/2022 10:00:00 PM 17.57 63.626 0.122 7.23 2.34 8.34
6/4/2022 10:15:00 PM 17.4 63.32 0.122 7.23 2.28 8.37
6/4/2022 10:30:00 PM 17.24 63.032 0.122 7.22 6.88 8.41
6/4/2022 10:45:00 PM 17.08 62.744 0.122 7.21 2.26 8.44
6/4/2022 11:00:00 PM 16.93 62.474 0.122 7.21 1.97 8.48
6/4/2022 11:15:00 PM 16.78 62.204 0.122 7.21 1.9 8.52
6/4/2022 11:30:00 PM 16.63 61.934 0.122 7.21 1.87 8.55
6/4/2022 11:45:00 PM 16.5 61.7 0.122 7.21 1.95 8.59
6/5/2022 12:00:00 AM 16.37 61.466 0.122 7.2 6.35 8.62
6/5/2022 12:15:00 AM 16.24 61.232 0.122 7.2 6.85 8.65
6/5/2022 12:30:00 AM 16.11 60.998 0.122 7.2 1.78 8.67
6/5/2022 12:45:00 AM 15.99 60.782 0.122 7.24 1.77 8.7
6/5/2022 1:00:00 AM 15.86 60.548 0.122 7.19 1.82 8.73
6/5/2022 1:15:00 AM 15.73 60.314 0.122 7.2 1.72 8.76
6/5/2022 1:30:00 AM 15.61 60.098 0.122 7.2 1.69 8.79
6/5/2022 1:45:00 AM 15.49 59.882 0.122 7.2 1.81 8.82
6/5/2022 2:00:00 AM 15.37 59.666 0.122 7.2 1.81 8.84
6/5/2022 2:15:00 AM 15.24 59.432 0.121 7.2 1.73 8.88
6/5/2022 2:30:00 AM 15.11 59.198 0.121 7.2 1.75 8.91
6/5/2022 2:45:00 AM 14.98 58.964 0.121 7.21 1.72 8.94
6/5/2022 3:00:00 AM 14.85 58.73 0.121 7.19 1.73 8.98
6/5/2022 3:15:00 AM 14.72 58.496 0.121 7.24 2.36 9.01
6/5/2022 3:30:00 AM 14.58 58.244 0.122 7.19 1.93 9.05
6/5/2022 3:45:00 AM 14.45 58.01 0.122 7.2 1.67 9.08
6/5/2022 4:00:00 AM 14.32 57.776 0.122 7.2 1.69 9.12
6/5/2022 4:15:00 AM 14.18 57.524 0.122 7.2 1.77 9.16
6/5/2022 4:30:00 AM 14.03 57.254 0.122 7.2 1.68 9.19
6/5/2022 4:45:00 AM 13.93 57.074 0.122 7.2 1.71 9.22
6/5/2022 5:00:00 AM 13.83 56.894 0.122 7.2 1.69 9.25
6/5/2022 5:15:00 AM 13.73 56.714 0.122 7.2 1.77 9.27
6/5/2022 5:30:00 AM 13.63 56.534 0.122 7.2 1.67 9.3
6/5/2022 5:45:00 AM 13.54 56.372 0.122 7.2 1.65 9.34
6/5/2022 6:00:00 AM 13.45 56.21 0.122 7.22 1.67 9.39
6/5/2022 6:15:00 AM 13.36 56.048 0.122 7.23 1.64 9.46
6/5/2022 6:30:00 AM 13.28 55.904 0.122 7.23 1.77 9.54
6/5/2022 6:45:00 AM 13.2 55.76 0.122 7.25 6.56 9.61
6/5/2022 7:00:00 AM 13.15 55.67 0.122 7.3 1.65 9.72
6/5/2022 7:15:00 AM 13.12 55.616 0.122 7.32 1.72 9.83
6/5/2022 7:30:00 AM 13.14 55.652 0.121 7.35 1.71 9.97
6/5/2022 7:45:00 AM 13.19 55.742 0.121 7.39 1.6 10.09
6/5/2022 8:00:00 AM 13.24 55.832 0.121 7.43 1.64 10.18
6/5/2022 8:15:00 AM 13.27 55.886 0.121 7.46 1.6 10.24
6/5/2022 8:30:00 AM 13.33 55.994 0.121 7.5 1.71 10.31
6/5/2022 8:45:00 AM 13.39 56.102 0.121 7.54 1.53 10.4
6/5/2022 9:00:00 AM 13.48 56.264 0.121 7.59 1.74 10.47
6/5/2022 9:15:00 AM 13.59 56.462 0.121 7.64 1.6 10.55
6/5/2022 9:30:00 AM 13.71 56.678 0.12 7.7 1.63 10.61
6/5/2022 9:45:00 AM 13.83 56.894 0.12 7.76 1.58 10.64
6/5/2022 10:00:00 AM 14 57.2 0.12 7.8 1.61 10.66
6/5/2022 10:15:00 AM 14.2 57.56 0.12 7.87 1.6 10.67
6/5/2022 10:30:00 AM 14.35 57.83 0.12 7.92 1.58 10.66
6/5/2022 10:45:00 AM 14.6 58.28 0.12 7.99 1.58 10.68
6/5/2022 11:00:00 AM 14.82 58.676 0.12 8.11 1.58 10.7
6/5/2022 11:15:00 AM 15.01 59.018 0.12 8.14 1.62 10.69
6/5/2022 11:30:00 AM 15.28 59.504 0.12 8.21 1.73 10.69
6/5/2022 11:45:00 AM 15.45 59.81 0.12 8.26 1.57 10.65
6/5/2022 12:00:00 PM 15.66 60.188 0.12 8.32 1.55 10.62
6/5/2022 12:15:00 PM 15.92 60.656 0.12 8.33 1.85 10.57
6/5/2022 12:30:00 PM 16.16 61.088 0.12 8.36 1.59 10.52
6/5/2022 12:45:00 PM 16.47 61.646 0.12 8.38 1.64 10.45
6/5/2022 1:00:00 PM 16.73 62.114 0.119 8.38 1.56 10.38
6/5/2022 1:15:00 PM 17.03 62.654 0.119 8.39 1.67 10.31
6/5/2022 1:30:00 PM 17.39 63.302 0.119 8.42 1.68 10.24
6/5/2022 1:45:00 PM 17.72 63.896 0.119 8.4 1.77 10.15
6/5/2022 2:00:00 PM 18.08 64.544 0.119 8.4 1.7 10.05
6/5/2022 2:15:00 PM 18.42 65.156 0.119 8.39 1.54 9.96
6/5/2022 2:30:00 PM 18.75 65.75 0.119 8.38 1.71 9.87
6/5/2022 2:45:00 PM 19.07 66.326 0.119 8.41 1.7 9.79
6/5/2022 3:00:00 PM 19.29 66.722 0.119 8.37 1.71 9.74
6/5/2022 3:15:00 PM 19.55 67.19 0.119 8.38 1.8 9.68
6/5/2022 3:30:00 PM 19.72 67.496 0.12 8.36 1.65 9.61
6/5/2022 3:45:00 PM 19.87 67.766 0.12 8.34 1.66 9.54
6/5/2022 4:00:00 PM 20.05 68.09 0.12 8.33 1.63 9.5
6/5/2022 4:15:00 PM 20.12 68.216 0.12 8.33 1.61 9.44
6/5/2022 4:30:00 PM 20.21 68.378 0.12 8.28 1.66 9.4
6/5/2022 4:45:00 PM 20.22 68.396 0.12 8.24 1.8 9.34
6/5/2022 5:00:00 PM 20.19 68.342 0.12 8.18 1.63 9.29
6/5/2022 5:15:00 PM 20.14 68.252 0.12 8.14 1.77 9.25
6/5/2022 5:30:00 PM 20.05 68.09 0.121 8.06 1.77 9.19
6/5/2022 5:45:00 PM 19.95 67.91 0.121 7.98 6.67 9.13
6/5/2022 6:00:00 PM 19.77 67.586 0.121 7.87 1.81 9.03
6/5/2022 6:15:00 PM 19.58 67.244 0.121 7.77 1.7 8.95
6/5/2022 6:30:00 PM 19.41 66.938 0.121 7.69 1.76 8.85
6/5/2022 6:45:00 PM 19.22 66.596 0.122 7.61 1.74 8.75
6/5/2022 7:00:00 PM 19.07 66.326 0.122 7.54 1.79 8.69
6/5/2022 7:15:00 PM 18.91 66.038 0.122 7.5 1.64 8.65
6/5/2022 7:30:00 PM 18.67 65.606 0.122 7.46 1.66 8.57
6/5/2022 7:45:00 PM 18.43 65.174 0.122 7.41 1.66 8.53
6/5/2022 8:00:00 PM 18.26 64.868 0.122 7.4 1.68 8.54
6/5/2022 8:15:00 PM 18.12 64.616 0.122 7.36 1.64 8.52
6/5/2022 8:30:00 PM 18 64.4 0.122 7.37 1.63 8.48
6/5/2022 8:45:00 PM 17.88 64.184 0.122 7.3 1.78 8.43
6/5/2022 9:00:00 PM 17.76 63.968 0.123 7.28 1.67 8.4
6/5/2022 9:15:00 PM 17.64 63.752 0.123 7.26 1.76 8.38
6/5/2022 9:30:00 PM 17.53 63.554 0.122 7.25 1.77 8.38
6/5/2022 9:45:00 PM 17.41 63.338 0.122 7.24 1.66 8.39
6/5/2022 10:00:00 PM 17.3 63.14 0.122 7.23 1.77 8.42
6/5/2022 10:15:00 PM 17.18 62.924 0.122 7.23 1.68 8.44
6/5/2022 10:30:00 PM 17.07 62.726 0.122 7.22 1.64 8.46
6/5/2022 10:45:00 PM 16.96 62.528 0.122 7.22 1.73 8.49
6/5/2022 11:00:00 PM 16.85 62.33 0.122 7.22 1.6 8.51
6/5/2022 11:15:00 PM 16.75 62.15 0.122 7.21 1.7 8.53
6/5/2022 11:30:00 PM 16.64 61.952 0.122 7.21 2.15 8.55
6/5/2022 11:45:00 PM 16.53 61.754 0.122 7.24 1.63 8.59
6/6/2022 12:00:00 AM 16.42 61.556 0.122 7.19 1.71 8.61
6/6/2022 12:15:00 AM 16.31 61.358 0.122 7.2 2.78 8.63
6/6/2022 12:30:00 AM 16.2 61.16 0.122 7.2 1.65 8.66
6/6/2022 12:45:00 AM 16.09 60.962 0.122 7.21 1.8 8.68
6/6/2022 1:00:00 AM 15.98 60.764 0.122 7.2 1.65 8.7
6/6/2022 1:15:00 AM 15.87 60.566 0.122 7.2 1.85 8.73
6/6/2022 1:30:00 AM 15.76 60.368 0.122 7.2 6.44 8.75
6/6/2022 1:45:00 AM 15.65 60.17 0.122 7.2 1.72 8.77
6/6/2022 2:00:00 AM 15.55 59.99 0.122 7.2 1.75 8.79
6/6/2022 2:15:00 AM 15.45 59.81 0.122 7.19 1.61 8.82
6/6/2022 2:30:00 AM 15.34 59.612 0.122 7.2 1.71 8.84
6/6/2022 2:45:00 AM 15.23 59.414 0.122 7.2 1.73 8.87
6/6/2022 3:00:00 AM 15.12 59.216 0.121 7.2 1.74 8.9
6/6/2022 3:15:00 AM 15.01 59.018 0.121 7.19 6.07 8.92
6/6/2022 3:30:00 AM 14.9 58.82 0.121 7.2 1.89 8.96
6/6/2022 3:45:00 AM 14.79 58.622 0.121 7.19 1.67 8.98
6/6/2022 4:00:00 AM 14.67 58.406 0.121 7.2 1.64 9.02
6/6/2022 4:15:00 AM 14.55 58.19 0.121 7.2 1.85 9.04
6/6/2022 4:30:00 AM 14.44 57.992 0.121 7.2 1.87 9.08
6/6/2022 4:45:00 AM 14.32 57.776 0.121 7.2 1.7 9.11
6/6/2022 5:00:00 AM 14.2 57.56 0.122 7.2 1.7 9.14
6/6/2022 5:15:00 AM 14.08 57.344 0.122 7.19 1.75 9.18
6/6/2022 5:30:00 AM 13.99 57.182 0.122 7.19 1.69 9.2
6/6/2022 5:45:00 AM 13.9 57.02 0.122 7.2 1.73 9.24
6/6/2022 6:00:00 AM 13.83 56.894 0.122 7.22 1.72 9.29
6/6/2022 6:15:00 AM 13.75 56.75 0.121 7.21 1.72 9.36
6/6/2022 6:30:00 AM 13.69 56.642 0.121 7.23 1.69 9.44
6/6/2022 6:45:00 AM 13.63 56.534 0.121 7.25 6.5 9.51
6/6/2022 7:00:00 AM 13.59 56.462 0.121 7.27 2.09 9.61
6/6/2022 7:15:00 AM 13.59 56.462 0.121 7.3 1.83 9.71
6/6/2022 7:30:00 AM 13.61 56.498 0.121 7.33 1.77 9.84
6/6/2022 7:45:00 AM 13.68 56.624 0.121 7.39 1.63 9.94
6/6/2022 8:00:00 AM 13.75 56.75 0.121 7.39 1.66 10.01
6/6/2022 8:15:00 AM 13.84 56.912 0.121 7.42 1.57 10.06
6/6/2022 8:30:00 AM 13.93 57.074 0.121 7.45 1.66 10.11
6/6/2022 8:45:00 AM 14.04 57.272 0.121 7.47 1.64 10.13
6/6/2022 9:00:00 AM 14.17 57.506 0.121 7.5 1.64 10.17
6/6/2022 9:15:00 AM 14.33 57.794 0.121 7.53 1.59 10.19
6/6/2022 9:30:00 AM 14.5 58.1 0.121 7.55 1.65 10.2
6/6/2022 9:45:00 AM 14.72 58.496 0.121 7.58 1.63 10.2
6/6/2022 10:00:00 AM 14.95 58.91 0.121 7.62 1.71 10.19
6/6/2022 10:15:00 AM 15.18 59.324 0.12 7.66 1.64 10.19
6/6/2022 10:30:00 AM 15.45 59.81 0.12 7.68 1.92 10.18
6/6/2022 10:45:00 AM 15.73 60.314 0.12 7.72 1.76 10.16
6/6/2022 11:00:00 AM 16.06 60.908 0.12 7.76 1.74 10.16
6/6/2022 11:15:00 AM 16.46 61.628 0.12 7.84 1.76 10.18
6/6/2022 11:30:00 AM 16.92 62.456 0.12 7.91 1.71 10.19
6/6/2022 11:45:00 AM 17.32 63.176 0.12 7.98 1.68 10.15
6/6/2022 12:00:00 PM 17.63 63.734 0.12 8.02 6.53 10.06
6/6/2022 12:15:00 PM 18.05 64.49 0.12 8.06 1.75 9.99
6/6/2022 12:30:00 PM 18.15 64.67 0.12 8.03 1.72 9.85
6/6/2022 12:45:00 PM 18.48 65.264 0.12 8.07 1.79 9.81
6/6/2022 1:00:00 PM 18.93 66.074 0.12 8.11 1.83 9.79
6/6/2022 1:15:00 PM 19.08 66.344 0.12 8.13 1.8 9.73
6/6/2022 1:30:00 PM 19.45 67.01 0.12 8.17 1.71 9.69
6/6/2022 1:45:00 PM 19.76 67.568 0.12 8.21 1.86 9.65
6/6/2022 2:00:00 PM 20.04 68.07201 0.12 8.24 6.46 9.61
6/6/2022 2:15:00 PM 20.27 68.486 0.12 8.28 1.92 9.57
6/6/2022 2:30:00 PM 20.37 68.666 0.12 8.29 1.74 9.47
6/6/2022 2:45:00 PM 20.51 68.918 0.12 8.32 2.28 9.44
6/6/2022 3:00:00 PM 20.71 69.278 0.12 8.34 1.82 9.46
6/6/2022 3:15:00 PM 20.72 69.296 0.12 8.36 1.72 9.4
6/6/2022 3:30:00 PM 20.72 69.296 0.12 8.33 1.71 9.33
6/6/2022 3:45:00 PM 20.86 69.548 0.12 8.34 1.94 9.34
6/6/2022 4:00:00 PM 20.95 69.71 0.12 8.35 1.77 9.31
6/6/2022 4:15:00 PM 20.93 69.674 0.12 8.29 1.78 9.2
6/6/2022 4:30:00 PM 21.07 69.926 0.12 8.28 1.85 9.18
6/6/2022 4:45:00 PM 20.98 69.764 0.12 8.23 1.93 9.11
6/6/2022 5:00:00 PM 20.87 69.566 0.121 8.17 1.96 9.08
6/6/2022 5:15:00 PM 20.79 69.422 0.121 8.13 2 9.06
6/6/2022 5:30:00 PM 20.77 69.386 0.121 8.12 1.84 9.07
6/6/2022 5:45:00 PM 20.72 69.296 0.121 8.07 1.81 9.04
6/6/2022 6:00:00 PM 20.67 69.206 0.121 8 6.36 8.95
6/6/2022 6:15:00 PM 20.57 69.026 0.121 7.91 1.69 8.88
6/6/2022 6:30:00 PM 20.45 68.81 0.121 7.81 1.88 8.78
6/6/2022 6:45:00 PM 20.34 68.612 0.121 7.73 6.83 8.68
6/6/2022 7:00:00 PM 20.24 68.432 0.122 7.66 1.91 8.63
6/6/2022 7:15:00 PM 20.11 68.198 0.122 7.61 1.74 8.58
6/6/2022 7:30:00 PM 19.97 67.946 0.122 7.55 1.89 8.51
6/6/2022 7:45:00 PM 19.82 67.676 0.122 7.49 2.16 8.41
6/6/2022 8:00:00 PM 19.66 67.388 0.123 7.43 1.78 8.29
6/6/2022 8:15:00 PM 19.51 67.118 0.123 7.37 1.83 8.2
6/6/2022 8:30:00 PM 19.36 66.848 0.123 7.33 1.89 8.14
6/6/2022 8:45:00 PM 19.22 66.596 0.123 7.3 1.97 8.08
6/6/2022 9:00:00 PM 19.08 66.344 0.123 7.27 2.01 8.07
6/6/2022 9:15:00 PM 18.94 66.092 0.123 7.25 1.95 8.07
6/6/2022 9:30:00 PM 18.83 65.894 0.123 7.23 2.05 8.06
6/6/2022 9:45:00 PM 18.71 65.67799 0.123 7.23 1.97 8.08
6/6/2022 10:00:00 PM 18.6 65.48 0.123 7.21 1.92 8.09
6/6/2022 10:15:00 PM 18.49 65.282 0.123 7.21 1.85 8.11
6/6/2022 10:30:00 PM 18.39 65.102 0.123 7.2 2.07 8.14
6/6/2022 10:45:00 PM 18.3 64.94 0.123 7.2 2.08 8.16
6/6/2022 11:00:00 PM 18.21 64.778 0.123 7.19 2.06 8.18
6/6/2022 11:15:00 PM 18.12 64.616 0.123 7.19 2.08 8.2
6/6/2022 11:30:00 PM 18.03 64.454 0.123 7.19 2 8.21
6/6/2022 11:45:00 PM 17.94 64.292 0.123 7.19 2.04 8.23
6/7/2022 12:00:00 AM 17.85 64.13 0.123 7.19 2 8.26
6/7/2022 12:15:00 AM 17.75 63.95 0.123 7.19 1.99 8.27
6/7/2022 12:30:00 AM 17.66 63.788 0.123 7.19 1.85 8.3
6/7/2022 12:45:00 AM 17.59 63.662 0.123 7.19 1.99 8.31
6/7/2022 1:00:00 AM 17.52 63.536 0.123 7.19 6.59 8.33
6/7/2022 1:15:00 AM 17.45 63.41 0.123 7.19 2.02 8.35
6/7/2022 1:30:00 AM 17.39 63.302 0.123 7.19 2.15 8.36
6/7/2022 1:45:00 AM 17.34 63.212 0.123 7.19 2.06 8.37
6/7/2022 2:00:00 AM 17.28 63.104 0.123 7.19 1.98 8.38
6/7/2022 2:15:00 AM 17.21 62.978 0.123 7.19 1.94 8.41
6/7/2022 2:30:00 AM 17.15 62.87 0.123 7.19 2.03 8.42
6/7/2022 2:45:00 AM 17.08 62.744 0.123 7.19 2.13 8.43
6/7/2022 3:00:00 AM 17.02 62.636 0.123 7.19 2.02 8.43
6/7/2022 3:15:00 AM 16.97 62.546 0.123 7.18 2.04 8.45
6/7/2022 3:30:00 AM 16.91 62.438 0.123 7.19 1.96 8.46
6/7/2022 3:45:00 AM 16.85 62.33 0.123 7.19 2.08 8.48
6/7/2022 4:00:00 AM 16.79 62.222 0.123 7.19 1.98 8.49
6/7/2022 4:15:00 AM 16.73 62.114 0.123 7.19 2.17 8.52
6/7/2022 4:30:00 AM 16.66 61.988 0.123 7.19 2.04 8.52
6/7/2022 4:45:00 AM 16.59 61.862 0.123 7.21 2.07 8.54
6/7/2022 5:00:00 AM 16.51 61.718 0.123 7.19 2.1 8.56
6/7/2022 5:15:00 AM 16.43 61.574 0.123 7.19 2 8.57
6/7/2022 5:30:00 AM 16.37 61.466 0.123 7.2 2.22 8.59
6/7/2022 5:45:00 AM 16.31 61.358 0.123 7.2 2.21 8.62
6/7/2022 6:00:00 AM 16.25 61.25 0.123 7.21 2.01 8.67
6/7/2022 6:15:00 AM 16.2 61.16 0.123 7.22 2.09 8.74
6/7/2022 6:30:00 AM 16.16 61.088 0.122 7.24 2.05 8.81
6/7/2022 6:45:00 AM 16.12 61.016 0.122 7.26 1.95 8.89
6/7/2022 7:00:00 AM 16.1 60.98 0.122 7.28 1.96 8.98
6/7/2022 7:15:00 AM 16.09 60.962 0.122 7.3 2.11 9.04
6/7/2022 7:30:00 AM 16.08 60.944 0.122 7.32 2.24 9.09
6/7/2022 7:45:00 AM 16.09 60.962 0.122 7.34 1.96 9.18
6/7/2022 8:00:00 AM 16.1 60.98 0.122 7.36 1.97 9.25
6/7/2022 8:15:00 AM 16.12 61.016 0.122 7.41 1.9 9.37
6/7/2022 8:30:00 AM 16.17 61.106 0.121 7.44 1.91 9.49
6/7/2022 8:45:00 AM 16.22 61.196 0.121 7.49 2 9.59
6/7/2022 9:00:00 AM 16.26 61.268 0.121 7.51 2.08 9.62
6/7/2022 9:15:00 AM 16.3 61.34 0.121 7.54 1.94 9.63
6/7/2022 9:30:00 AM 16.36 61.448 0.121 7.57 2 9.67
6/7/2022 9:45:00 AM 16.4 61.52 0.121 7.59 1.92 9.69
6/7/2022 10:00:00 AM 16.43 61.574 0.121 7.6 1.97 9.68
6/7/2022 10:15:00 AM 16.46 61.628 0.121 7.6 1.91 9.65
6/7/2022 10:30:00 AM 16.52 61.736 0.121 7.62 6.65 9.66
6/7/2022 10:45:00 AM 16.57 61.826 0.121 7.65 2.32 9.69
6/7/2022 11:00:00 AM 16.61 61.898 0.121 7.65 1.99 9.66
6/7/2022 11:15:00 AM 16.73 62.114 0.121 7.67 1.93 9.71
6/7/2022 11:30:00 AM 16.91 62.438 0.121 7.75 2.04 9.83
6/7/2022 11:45:00 AM 17.03 62.654 0.121 7.83 2.07 9.9
6/7/2022 12:00:00 PM 17.12 62.816 0.121 7.88 1.97 9.92
6/7/2022 12:15:00 PM 17.18 62.924 0.121 7.87 1.93 9.81
6/7/2022 12:30:00 PM 17.19 62.942 0.121 7.79 2 9.63
6/7/2022 12:45:00 PM 17.23 63.014 0.121 7.78 1.96 9.62
6/7/2022 1:00:00 PM 17.22 62.996 0.121 7.73 2.21 9.51
6/7/2022 1:15:00 PM 17.21 62.978 0.121 7.69 2.13 9.43
6/7/2022 1:30:00 PM 17.21 62.978 0.121 7.64 2.29 9.36
6/7/2022 1:45:00 PM 17.24 63.032 0.121 7.63 2.46 9.36
6/7/2022 2:00:00 PM 17.25 63.05 0.121 7.63 2.05 9.39
6/7/2022 2:15:00 PM 17.26 63.068 0.12 7.64 2.38 9.43
6/7/2022 2:30:00 PM 17.26 63.068 0.12 7.64 2.24 9.4
6/7/2022 2:45:00 PM 17.22 62.996 0.12 7.56 2.3 9.21
6/7/2022 3:00:00 PM 17.2 62.96 0.12 7.5 2.29 9.1
6/7/2022 3:15:00 PM 17.18 62.924 0.119 7.47 2.42 9.05
6/7/2022 3:30:00 PM 17.15 62.87 0.119 7.45 2.59 9.07
6/7/2022 3:45:00 PM 17.13 62.834 0.119 7.44 2.33 9.07
6/7/2022 4:00:00 PM 17.12 62.816 0.119 7.42 2.42 9.01
6/7/2022 4:15:00 PM 17.11 62.798 0.119 7.4 2.3 8.94
6/7/2022 4:30:00 PM 17.1 62.78 0.119 7.38 2.43 8.9
6/7/2022 4:45:00 PM 17.1 62.78 0.119 7.38 2.44 8.93
6/7/2022 5:00:00 PM 17.09 62.762 0.118 7.39 2.37 8.97
6/7/2022 5:15:00 PM 17.08 62.744 0.119 7.38 2.6 8.93
6/7/2022 5:30:00 PM 17.07 62.726 0.119 7.36 2.46 8.89
6/7/2022 5:45:00 PM 17.05 62.69 0.119 7.34 2.36 8.86
6/7/2022 6:00:00 PM 17.04 62.672 0.119 7.34 2.38 8.87
6/7/2022 6:15:00 PM 17.02 62.636 0.119 7.34 2.37 8.89
6/7/2022 6:30:00 PM 17.01 62.618 0.119 7.33 2.48 8.88
6/7/2022 6:45:00 PM 17 62.6 0.12 7.36 2.44 8.87
6/7/2022 7:00:00 PM 16.99 62.582 0.12 7.32 2.55 8.86
6/7/2022 7:15:00 PM 16.97 62.546 0.12 7.32 2.46 8.85
6/7/2022 7:30:00 PM 16.95 62.51 0.119 7.3 2.51 8.82
6/7/2022 7:45:00 PM 16.92 62.456 0.119 7.29 2.56 8.78
6/7/2022 8:00:00 PM 16.89 62.402 0.119 7.28 2.45 8.75
6/7/2022 8:15:00 PM 16.86 62.348 0.12 7.26 2.39 8.72
6/7/2022 8:30:00 PM 16.82 62.276 0.119 7.26 2.36 8.71
6/7/2022 8:45:00 PM 16.79 62.222 0.119 7.23 2.53 8.68
6/7/2022 9:00:00 PM 16.75 62.15 0.119 7.22 2.61 8.65
6/7/2022 9:15:00 PM 16.72 62.096 0.119 7.2 2.58 8.63
6/7/2022 9:30:00 PM 16.68 62.024 0.119 7.19 2.61 8.63
6/7/2022 9:45:00 PM 16.65 61.97 0.119 7.19 2.79 8.64
6/7/2022 10:00:00 PM 16.62 61.916 0.119 7.17 2.76 8.64
6/7/2022 10:15:00 PM 16.59 61.862 0.119 7.17 2.51 8.65
6/7/2022 10:30:00 PM 16.57 61.826 0.119 7.17 2.55 8.65
6/7/2022 10:45:00 PM 16.54 61.772 0.119 7.16 2.62 8.65
6/7/2022 11:00:00 PM 16.52 61.736 0.12 7.16 2.52 8.66
6/7/2022 11:15:00 PM 16.5 61.7 0.12 7.15 2.64 8.68
6/7/2022 11:30:00 PM 16.47 61.646 0.12 7.15 2.48 8.68
6/7/2022 11:45:00 PM 16.45 61.61 0.12 7.15 2.46 8.68
6/8/2022 12:00:00 AM 16.44 61.592 0.12 7.14 2.49 8.69
6/8/2022 12:15:00 AM 16.42 61.556 0.12 7.14 2.49 8.69
6/8/2022 12:30:00 AM 16.4 61.52 0.12 7.15 2.56 8.7
6/8/2022 12:45:00 AM 16.38 61.484 0.121 7.15 2.71 8.71
6/8/2022 1:00:00 AM 16.36 61.448 0.121 7.16 2.51 8.72
6/8/2022 1:15:00 AM 16.34 61.412 0.121 7.17 2.42 8.72
6/8/2022 1:30:00 AM 16.31 61.358 0.121 7.15 2.55 8.73
6/8/2022 1:45:00 AM 16.28 61.304 0.121 7.16 2.49 8.74
6/8/2022 2:00:00 AM 16.24 61.232 0.121 7.15 2.76 8.74
6/8/2022 2:15:00 AM 16.21 61.178 0.122 7.15 2.43 8.76
6/8/2022 2:30:00 AM 16.18 61.124 0.122 7.16 2.49 8.76
6/8/2022 2:45:00 AM 16.13 61.034 0.122 7.16 2.67 8.78
6/8/2022 3:00:00 AM 16.08 60.944 0.122 7.17 2.55 8.79
6/8/2022 3:15:00 AM 16.04 60.872 0.122 7.17 2.55 8.8
6/8/2022 3:30:00 AM 16 60.8 0.122 7.18 2.5 8.8
6/8/2022 3:45:00 AM 15.96 60.728 0.123 7.18 2.47 8.82
6/8/2022 4:00:00 AM 15.92 60.656 0.123 7.19 2.52 8.83
6/8/2022 4:15:00 AM 15.87 60.566 0.123 7.2 2.62 8.84
6/8/2022 4:30:00 AM 15.81 60.458 0.123 7.21 2.58 8.85
6/8/2022 4:45:00 AM 15.76 60.368 0.123 7.23 2.58 8.86
6/8/2022 5:00:00 AM 15.7 60.26 0.123 7.22 2.73 8.87
6/8/2022 5:15:00 AM 15.64 60.152 0.123 7.22 2.46 8.88
6/8/2022 5:30:00 AM 15.59 60.062 0.123 7.23 2.66 8.9
6/8/2022 5:45:00 AM 15.53 59.954 0.123 7.23 2.47 8.93
6/8/2022 6:00:00 AM 15.47 59.846 0.123 7.23 2.43 8.97
6/8/2022 6:15:00 AM 15.42 59.756 0.123 7.25 2.37 9.03
6/8/2022 6:30:00 AM 15.35 59.63 0.123 7.26 2.36 9.08
6/8/2022 6:45:00 AM 15.3 59.54 0.123 7.27 2.41 9.14
6/8/2022 7:00:00 AM 15.24 59.432 0.123 7.28 2.32 9.2
6/8/2022 7:15:00 AM 15.21 59.378 0.123 7.3 6.8 9.27
6/8/2022 7:30:00 AM 15.21 59.378 0.123 7.33 2.28 9.35
6/8/2022 7:45:00 AM 15.25 59.45 0.123 7.36 2.29 9.43
6/8/2022 8:00:00 AM 15.31 59.558 0.123 7.38 2.26 9.49
6/8/2022 8:15:00 AM 15.37 59.666 0.123 7.4 2.26 9.51
6/8/2022 8:30:00 AM 15.43 59.774 0.123 7.42 2.26 9.56
6/8/2022 8:45:00 AM 15.53 59.954 0.123 7.44 2.22 9.6
6/8/2022 9:00:00 AM 15.54 59.972 0.123 7.46 2.17 9.62
6/8/2022 9:15:00 AM 15.63 60.134 0.123 7.47 6.58 9.65
6/8/2022 9:30:00 AM 15.76 60.368 0.123 7.49 2.26 9.7
6/8/2022 9:45:00 AM 15.77 60.386 0.123 7.51 2.26 9.7
6/8/2022 10:00:00 AM 15.93 60.674 0.123 7.53 2.21 9.72
6/8/2022 10:15:00 AM 16.16 61.088 0.123 7.56 2.23 9.77
6/8/2022 10:30:00 AM 16.31 61.358 0.123 7.6 2.19 9.76
6/8/2022 10:45:00 AM 16.58 61.844 0.123 7.62 6.81 9.76
6/8/2022 11:00:00 AM 16.8 62.24 0.123 7.64 2.28 9.73
6/8/2022 11:15:00 AM 16.99 62.582 0.123 7.66 2.35 9.7
6/8/2022 11:30:00 AM 17.23 63.014 0.123 7.69 2.35 9.7
6/8/2022 11:45:00 AM 17.6 63.68 0.123 7.72 2.32 9.66
6/8/2022 12:00:00 PM 17.95 64.31 0.123 7.74 2.32 9.62
6/8/2022 12:15:00 PM 18.27 64.886 0.124 7.75 2.29 9.56
6/8/2022 12:30:00 PM 18.42 65.156 0.124 7.75 2.28 9.5
6/8/2022 12:45:00 PM 18.66 65.588 0.124 7.78 2.32 9.49
6/8/2022 1:00:00 PM 19.03 66.254 0.124 7.8 2.21 9.48
6/8/2022 1:15:00 PM 19.15 66.47 0.124 7.82 2.25 9.44
6/8/2022 1:30:00 PM 19.46 67.028 0.124 7.83 2.31 9.4
6/8/2022 1:45:00 PM 19.6 67.28 0.124 7.83 2.23 9.35
6/8/2022 2:00:00 PM 19.91 67.838 0.124 7.83 2.22 9.3
6/8/2022 2:15:00 PM 20.13 68.234 0.124 7.82 6.61 9.21
6/8/2022 2:30:00 PM 20.32 68.576 0.124 7.81 6.68 9.13
6/8/2022 2:45:00 PM 20.61 69.098 0.124 7.81 2.22 9.08
6/8/2022 3:00:00 PM 20.91 69.638 0.124 7.8 2.35 9.01
6/8/2022 3:15:00 PM 21.22 70.196 0.125 7.79 2.38 8.93
6/8/2022 3:30:00 PM 21.47 70.646 0.125 7.78 2.39 8.85
6/8/2022 3:45:00 PM 21.66 70.988 0.125 7.78 2.27 8.8
6/8/2022 4:00:00 PM 21.77 71.186 0.125 7.76 2.43 8.75
6/8/2022 4:15:00 PM 21.84 71.312 0.125 7.74 2.26 8.69
6/8/2022 4:30:00 PM 21.85 71.33 0.125 7.73 2.5 8.66
6/8/2022 4:45:00 PM 21.83 71.294 0.125 7.71 2.3 8.62
6/8/2022 5:00:00 PM 21.8 71.24 0.125 7.69 2.37 8.57
6/8/2022 5:15:00 PM 21.72 71.096 0.126 7.66 2.37 8.55
6/8/2022 5:30:00 PM 21.55 70.79 0.126 7.64 2.39 8.53
6/8/2022 5:45:00 PM 21.4 70.52 0.126 7.61 2.44 8.49
6/8/2022 6:00:00 PM 21.25 70.25 0.126 7.58 2.27 8.43
6/8/2022 6:15:00 PM 21.09 69.962 0.126 7.53 2.37 8.37
6/8/2022 6:30:00 PM 20.91 69.638 0.126 7.49 2.39 8.31
6/8/2022 6:45:00 PM 20.72 69.296 0.126 7.45 2.35 8.25
6/8/2022 7:00:00 PM 20.58 69.044 0.126 7.44 2.36 8.26
6/8/2022 7:15:00 PM 20.42 68.756 0.126 7.43 7.04 8.28
6/8/2022 7:30:00 PM 20.24 68.432 0.126 7.4 2.43 8.23
6/8/2022 7:45:00 PM 20.1 68.18 0.126 7.38 2.5 8.21
6/8/2022 8:00:00 PM 19.96 67.92799 0.126 7.36 2.44 8.17
6/8/2022 8:15:00 PM 19.82 67.676 0.127 7.32 2.51 8.11
6/8/2022 8:30:00 PM 19.68 67.424 0.127 7.3 2.67 8.07
6/8/2022 8:45:00 PM 19.54 67.172 0.127 7.28 2.45 8.04
6/8/2022 9:00:00 PM 19.41 66.938 0.127 7.26 2.4 8.01
6/8/2022 9:15:00 PM 19.29 66.722 0.127 7.24 2.47 8.02
6/8/2022 9:30:00 PM 19.17 66.506 0.127 7.25 2.55 8.01
6/8/2022 9:45:00 PM 19.06 66.308 0.127 7.23 2.84 8.02
6/8/2022 10:00:00 PM 18.95 66.11 0.127 7.22 2.48 8.05
6/8/2022 10:15:00 PM 18.84 65.912 0.127 7.22 2.48 8.07
6/8/2022 10:30:00 PM 18.74 65.732 0.127 7.22 2.52 8.09
6/8/2022 10:45:00 PM 18.63 65.534 0.127 7.22 2.48 8.11
6/8/2022 11:00:00 PM 18.54 65.372 0.127 7.22 2.79 8.13
6/8/2022 11:15:00 PM 18.44 65.192 0.127 7.22 2.59 8.15
6/8/2022 11:30:00 PM 18.35 65.03 0.127 7.21 2.52 8.16
6/8/2022 11:45:00 PM 18.27 64.886 0.127 7.21 2.48 8.17
6/9/2022 12:00:00 AM 18.19 64.742 0.127 7.21 2.81 8.19
6/9/2022 12:15:00 AM 18.11 64.598 0.127 7.21 2.76 8.21
6/9/2022 12:30:00 AM 18.01 64.418 0.126 7.21 2.72 8.23
6/9/2022 12:45:00 AM 17.9 64.22 0.124 7.21 2.88 8.26
6/9/2022 1:00:00 AM 17.79 64.022 0.122 7.19 3.27 8.27
6/9/2022 1:15:00 AM 17.7 63.86 0.121 7.18 7.23 8.27
6/9/2022 1:30:00 AM 17.61 63.698 0.121 7.17 3.65 8.28
6/9/2022 1:45:00 AM 17.52 63.536 0.12 7.17 9.92 8.3
6/9/2022 2:00:00 AM 17.41 63.338 0.118 7.16 5.42 8.34
6/9/2022 2:15:00 AM 17.34 63.212 0.118 7.15 4.97 8.33
6/9/2022 2:30:00 AM 17.28 63.104 0.118 7.16 4.85 8.35
6/9/2022 2:45:00 AM 17.23 63.014 0.119 7.16 5.41 8.37
6/9/2022 3:00:00 AM 17.19 62.942 0.12 7.17 4.64 8.39
6/9/2022 3:15:00 AM 17.14 62.852 0.12 7.17 4.68 8.39
6/9/2022 3:30:00 AM 17.08 62.744 0.119 7.21 4.35 8.41
6/9/2022 3:45:00 AM 17.03 62.654 0.119 7.16 4.18 8.43
6/9/2022 4:00:00 AM 16.99 62.582 0.119 7.17 4.2 8.44
6/9/2022 4:15:00 AM 16.96 62.528 0.119 7.17 4.79 8.46
6/9/2022 4:30:00 AM 16.92 62.456 0.118 7.17 3.91 8.48
6/9/2022 4:45:00 AM 16.88 62.384 0.118 7.18 3.88 8.49
6/9/2022 5:00:00 AM 16.84 62.312 0.118 7.17 3.96 8.51
6/9/2022 5:15:00 AM 16.79 62.222 0.117 7.17 4.01 8.53
6/9/2022 5:30:00 AM 16.74 62.132 0.116 7.17 4.47 8.54
6/9/2022 5:45:00 AM 16.69 62.042 0.116 7.17 4.21 8.56
6/9/2022 6:00:00 AM 16.65 61.97 0.115 7.17 4.2 8.58
6/9/2022 6:15:00 AM 16.6 61.88 0.115 7.17 3.94 8.59
6/9/2022 6:30:00 AM 16.57 61.826 0.115 7.17 3.88 8.62
6/9/2022 6:45:00 AM 16.54 61.772 0.116 7.19 3.75 8.67
6/9/2022 7:00:00 AM 16.52 61.736 0.116 7.2 3.63 8.69
6/9/2022 7:15:00 AM 16.51 61.718 0.117 7.21 3.61 8.76
6/9/2022 7:30:00 AM 16.5 61.7 0.117 7.25 3.62 8.84
6/9/2022 7:45:00 AM 16.56 61.808 0.118 7.29 3.54 8.95
6/9/2022 8:00:00 AM 16.56 61.808 0.118 7.29 3.55 8.98
6/9/2022 8:15:00 AM 16.57 61.826 0.118 7.32 3.09 9.05
6/9/2022 8:30:00 AM 16.62 61.916 0.119 7.35 3.09 9.13
6/9/2022 8:45:00 AM 16.63 61.934 0.119 7.37 3.17 9.12
6/9/2022 9:00:00 AM 16.67 62.006 0.119 7.38 2.99 9.15
6/9/2022 9:15:00 AM 16.81 62.258 0.12 7.41 3.23 9.22
6/9/2022 9:30:00 AM 16.81 62.258 0.12 7.44 3.03 9.24
6/9/2022 9:45:00 AM 16.84 62.312 0.12 7.47 3.16 9.25
6/9/2022 10:00:00 AM 16.91 62.438 0.121 7.48 3.3 9.28
6/9/2022 10:15:00 AM 16.99 62.582 0.121 7.51 3.53 9.33
6/9/2022 10:30:00 AM 17.08 62.744 0.122 7.53 5.12 9.33
6/9/2022 10:45:00 AM 17.21 62.978 0.122 7.53 3.44 9.32
6/9/2022 11:00:00 AM 17.36 63.248 0.123 7.54 3.25 9.35
6/9/2022 11:15:00 AM 17.33 63.194 0.124 7.56 3.19 9.35
6/9/2022 11:30:00 AM 17.47 63.446 0.124 7.57 3.06 9.36
6/9/2022 11:45:00 AM 17.8 64.04 0.124 7.6 2.97 9.39
6/9/2022 12:00:00 PM 17.85 64.13 0.124 7.61 3.05 9.37
6/9/2022 12:15:00 PM 17.91 64.238 0.125 7.63 2.93 9.34
6/9/2022 12:30:00 PM 17.91 64.238 0.125 7.62 3.65 9.29
6/9/2022 12:45:00 PM 18.12 64.616 0.125 7.63 2.85 9.31
6/9/2022 1:00:00 PM 18.16 64.688 0.125 7.63 2.87 9.24
6/9/2022 1:15:00 PM 18.18 64.724 0.126 7.61 2.89 9.18
6/9/2022 1:30:00 PM 18.18 64.724 0.126 7.62 2.73 9.21
6/9/2022 1:45:00 PM 18.16 64.688 0.127 7.6 2.74 9.16
6/9/2022 2:00:00 PM 18.22 64.796 0.127 7.61 2.85 9.18
6/9/2022 2:15:00 PM 18.17 64.706 0.127 7.61 2.87 9.15
6/9/2022 2:30:00 PM 18.15 64.67 0.128 7.59 2.63 9.11
6/9/2022 2:45:00 PM 18.08 64.544 0.128 7.56 2.62 9.04
6/9/2022 3:00:00 PM 18.05 64.49 0.129 7.54 2.7 9.01
6/9/2022 3:15:00 PM 17.95 64.31 0.129 7.51 2.63 8.94
6/9/2022 3:30:00 PM 17.93 64.274 0.13 7.51 2.65 8.97
6/9/2022 3:45:00 PM 17.94 64.292 0.13 7.53 2.7 9.06
6/9/2022 4:00:00 PM 17.9 64.22 0.131 7.53 2.6 9.03
6/9/2022 4:15:00 PM 17.87 64.166 0.131 7.5 2.67 8.95
6/9/2022 4:30:00 PM 17.83 64.094 0.131 7.5 2.67 8.97
6/9/2022 4:45:00 PM 17.85 64.13 0.131 7.52 2.85 9.06
6/9/2022 5:00:00 PM 17.92 64.256 0.131 7.54 6.6 9.13
6/9/2022 5:15:00 PM 17.94 64.292 0.132 7.55 2.52 9.11
6/9/2022 5:30:00 PM 18.01 64.418 0.132 7.56 2.55 9.09
6/9/2022 5:45:00 PM 17.92 64.256 0.132 7.55 2.64 9.08
6/9/2022 6:00:00 PM 17.86 64.148 0.132 7.56 2.52 9.09
6/9/2022 6:15:00 PM 17.78 64.004 0.132 7.53 2.55 9.04
6/9/2022 6:30:00 PM 17.72 63.896 0.132 7.52 2.47 9.01
6/9/2022 6:45:00 PM 17.65 63.77 0.132 7.5 2.61 8.97
6/9/2022 7:00:00 PM 17.59 63.662 0.132 7.48 2.72 8.93
6/9/2022 7:15:00 PM 17.49 63.482 0.132 7.46 2.39 8.89
6/9/2022 7:30:00 PM 17.39 63.302 0.132 7.44 2.44 8.85
6/9/2022 7:45:00 PM 17.32 63.176 0.132 7.43 2.63 8.8
6/9/2022 8:00:00 PM 17.24 63.032 0.132 7.38 2.77 8.78
6/9/2022 8:15:00 PM 17.17 62.906 0.132 7.36 2.7 8.75
6/9/2022 8:30:00 PM 17.1 62.78 0.132 7.37 2.43 8.73
6/9/2022 8:45:00 PM 17.02 62.636 0.132 7.31 2.56 8.69
6/9/2022 9:00:00 PM 16.95 62.51 0.132 7.3 2.65 8.68
6/9/2022 9:15:00 PM 16.86 62.348 0.132 7.3 2.65 8.67
6/9/2022 9:30:00 PM 16.77 62.186 0.132 7.29 2.54 8.68
6/9/2022 9:45:00 PM 16.68 62.024 0.132 7.28 2.7 8.68
6/9/2022 10:00:00 PM 16.59 61.862 0.132 7.28 2.87 8.7
6/9/2022 10:15:00 PM 16.51 61.718 0.132 7.28 2.57 8.72
6/9/2022 10:30:00 PM 16.42 61.556 0.132 7.28 2.72 8.73
6/9/2022 10:45:00 PM 16.33 61.394 0.132 7.27 2.53 8.75
6/9/2022 11:00:00 PM 16.24 61.232 0.132 7.27 2.57 8.77
6/9/2022 11:15:00 PM 16.15 61.07 0.132 7.27 2.47 8.79
6/9/2022 11:30:00 PM 16.07 60.926 0.132 7.27 2.74 8.8
6/9/2022 11:45:00 PM 15.98 60.764 0.132 7.27 2.38 8.82
6/10/2022 12:00:00 AM 15.89 60.602 0.132 7.27 2.38 8.84
6/10/2022 12:15:00 AM 15.8 60.44 0.132 7.26 2.86 8.86
6/10/2022 12:30:00 AM 15.72 60.296 0.132 7.27 2.54 8.87
6/10/2022 12:45:00 AM 15.63 60.134 0.132 7.27 2.51 8.89
6/10/2022 1:00:00 AM 15.55 59.99 0.132 7.26 6.48 8.92
6/10/2022 1:15:00 AM 15.46 59.828 0.132 7.26 2.47 8.93
6/10/2022 1:30:00 AM 15.4 59.72 0.133 7.26 2.39 8.94
6/10/2022 1:45:00 AM 15.34 59.612 0.133 7.26 2.44 8.96
6/10/2022 2:00:00 AM 15.27 59.486 0.133 7.27 2.44 8.97
6/10/2022 2:15:00 AM 15.2 59.36 0.133 7.26 6.99 8.99
6/10/2022 2:30:00 AM 15.13 59.234 0.133 7.26 2.34 9
6/10/2022 2:45:00 AM 15.07 59.126 0.133 7.26 2.81 9.02
6/10/2022 3:00:00 AM 15 59 0.133 7.27 2.44 9.04
6/10/2022 3:15:00 AM 14.93 58.874 0.133 7.27 2.43 9.05
6/10/2022 3:30:00 AM 14.85 58.73 0.133 7.26 2.33 9.07
6/10/2022 3:45:00 AM 14.78 58.604 0.133 7.26 2.36 9.09
6/10/2022 4:00:00 AM 14.72 58.496 0.133 7.26 2.35 9.1
6/10/2022 4:15:00 AM 14.67 58.406 0.133 7.27 2.34 9.12
6/10/2022 4:30:00 AM 14.61 58.298 0.133 7.27 2.4 9.13
6/10/2022 4:45:00 AM 14.54 58.172 0.133 7.26 2.57 9.15
6/10/2022 5:00:00 AM 14.47 58.046 0.133 7.26 2.56 9.16
6/10/2022 5:15:00 AM 14.4 57.92 0.133 7.26 6.88 9.18
6/10/2022 5:30:00 AM 14.31 57.758 0.133 7.26 2.5 9.2
6/10/2022 5:45:00 AM 14.23 57.614 0.133 7.27 2.54 9.23
6/10/2022 6:00:00 AM 14.15 57.47 0.133 7.27 2.37 9.27
6/10/2022 6:15:00 AM 14.09 57.362 0.133 7.27 2.27 9.31
6/10/2022 6:30:00 AM 14.05 57.29 0.133 7.29 2.31 9.37
6/10/2022 6:45:00 AM 14.04 57.272 0.133 7.29 2.31 9.42
6/10/2022 7:00:00 AM 14.04 57.272 0.133 7.31 2.35 9.47
6/10/2022 7:15:00 AM 14.03 57.254 0.133 7.33 2.29 9.52
6/10/2022 7:30:00 AM 14.02 57.236 0.133 7.34 2.24 9.58
6/10/2022 7:45:00 AM 14.04 57.272 0.133 7.36 2.17 9.64
6/10/2022 8:00:00 AM 14.12 57.416 0.133 7.38 2.26 9.69
6/10/2022 8:15:00 AM 14.23 57.614 0.133 7.4 2.16 9.71
6/10/2022 8:30:00 AM 14.31 57.758 0.133 7.4 2.19 9.7
6/10/2022 8:45:00 AM 14.41 57.938 0.133 7.41 2.12 9.72
6/10/2022 9:00:00 AM 14.53 58.154 0.133 7.43 2.25 9.72
6/10/2022 9:15:00 AM 14.67 58.406 0.133 7.44 2.21 9.74
6/10/2022 9:30:00 AM 14.82 58.676 0.133 7.45 2.3 9.73
6/10/2022 9:45:00 AM 15.01 59.018 0.133 7.47 2.26 9.74
6/10/2022 10:00:00 AM 15.14 59.252 0.133 7.47 2.18 9.71
6/10/2022 10:15:00 AM 15.34 59.612 0.132 7.48 2.21 9.69
6/10/2022 10:30:00 AM 15.61 60.098 0.132 7.5 2.22 9.66
6/10/2022 10:45:00 AM 15.81 60.458 0.132 7.51 2.09 9.61
6/10/2022 11:00:00 AM 16.09 60.962 0.132 7.52 2.41 9.6
6/10/2022 11:15:00 AM 16.45 61.61 0.132 7.54 2.39 9.57
6/10/2022 11:30:00 AM 16.68 62.024 0.132 7.55 6.15 9.54
6/10/2022 11:45:00 AM 17.03 62.654 0.132 7.56 2.09 9.51
6/10/2022 12:00:00 PM 17.11 62.798 0.132 7.56 2.24 9.43
6/10/2022 12:15:00 PM 17.46 63.428 0.132 7.56 2.23 9.39
6/10/2022 12:30:00 PM 17.72 63.896 0.132 7.58 2.27 9.38
6/10/2022 12:45:00 PM 17.84 64.112 0.132 7.58 2.6 9.33
6/10/2022 1:00:00 PM 18 64.4 0.132 7.59 2.51 9.29
6/10/2022 1:15:00 PM 18.2 64.76 0.132 7.58 2.24 9.23
6/10/2022 1:30:00 PM 18.36 65.048 0.132 7.61 2.31 9.2
6/10/2022 1:45:00 PM 18.51 65.318 0.132 7.59 2.25 9.18
6/10/2022 2:00:00 PM 18.68 65.624 0.132 7.6 2.5 9.13
6/10/2022 2:15:00 PM 18.87 65.966 0.132 7.6 2.17 9.09
6/10/2022 2:30:00 PM 19 66.2 0.132 7.6 2.18 9.06
6/10/2022 2:45:00 PM 19.17 66.506 0.132 7.61 2.35 9.08
6/10/2022 3:00:00 PM 19.43 66.974 0.132 7.63 2.12 9.06
6/10/2022 3:15:00 PM 19.43 66.974 0.132 7.64 2.22 8.95
6/10/2022 3:30:00 PM 19.48 67.064 0.132 7.59 2.39 8.9
6/10/2022 3:45:00 PM 19.39 66.902 0.132 7.58 2.24 8.86
6/10/2022 4:00:00 PM 19.26 66.668 0.132 7.57 2.27 8.87
6/10/2022 4:15:00 PM 19.43 66.974 0.132 7.59 2.27 8.91
6/10/2022 4:30:00 PM 19.47 67.046 0.132 7.58 2.24 8.89
6/10/2022 4:45:00 PM 19.51 67.118 0.132 7.58 6.26 8.86
6/10/2022 5:00:00 PM 19.45 67.01 0.132 7.56 2.41 8.79
6/10/2022 5:15:00 PM 19.35 66.83 0.132 7.54 2.3 8.77
6/10/2022 5:30:00 PM 19.3 66.74 0.132 7.53 2.25 8.78
6/10/2022 5:45:00 PM 19.2 66.56 0.132 7.51 2.41 8.72
6/10/2022 6:00:00 PM 19.15 66.47 0.132 7.49 2.33 8.7
6/10/2022 6:15:00 PM 19.08 66.344 0.132 7.48 3.5 8.7
6/10/2022 6:30:00 PM 18.95 66.11 0.132 7.47 2.33 8.68
6/10/2022 6:45:00 PM 18.82 65.876 0.132 7.44 2.23 8.65
6/10/2022 7:00:00 PM 18.71 65.67799 0.132 7.43 2.3 8.64
6/10/2022 7:15:00 PM 18.63 65.534 0.132 7.42 2.3 8.62
6/10/2022 7:30:00 PM 18.51 65.318 0.132 7.4 2.32 8.6
6/10/2022 7:45:00 PM 18.37 65.066 0.132 7.38 2.4 8.58
6/10/2022 8:00:00 PM 18.23 64.814 0.132 7.35 2.34 8.55
6/10/2022 8:15:00 PM 18.1 64.58 0.132 7.34 2.35 8.51
6/10/2022 8:30:00 PM 17.96 64.328 0.132 7.32 2.35 8.5
6/10/2022 8:45:00 PM 17.8 64.04 0.132 7.3 2.38 8.48
6/10/2022 9:00:00 PM 17.65 63.77 0.132 7.29 2.34 8.47
6/10/2022 9:15:00 PM 17.49 63.482 0.132 7.28 2.67 8.47
6/10/2022 9:30:00 PM 17.35 63.23 0.132 7.27 2.66 8.49
6/10/2022 9:45:00 PM 17.21 62.978 0.132 7.26 2.62 8.51
6/10/2022 10:00:00 PM 17.09 62.762 0.132 7.26 2.51 8.55
6/10/2022 10:15:00 PM 16.97 62.546 0.132 7.25 6.47 8.57
6/10/2022 10:30:00 PM 16.85 62.33 0.132 7.25 2.58 8.6
6/10/2022 10:45:00 PM 16.72 62.096 0.132 7.25 2.85 8.62
6/10/2022 11:00:00 PM 16.6 61.88 0.132 7.25 2.5 8.64
6/10/2022 11:15:00 PM 16.48 61.664 0.132 7.25 2.43 8.67
6/10/2022 11:30:00 PM 16.35 61.43 0.132 7.25 2.4 8.7
6/10/2022 11:45:00 PM 16.23 61.214 0.132 7.24 2.35 8.73
6/11/2022 12:00:00 AM 16.11 60.998 0.132 7.24 2.54 8.76
6/11/2022 12:15:00 AM 15.99 60.782 0.132 7.24 2.45 8.78
6/11/2022 12:30:00 AM 15.86 60.548 0.132 7.24 2.27 8.82
6/11/2022 12:45:00 AM 15.75 60.35 0.132 7.25 2.41 8.84
6/11/2022 1:00:00 AM 15.63 60.134 0.132 7.24 2.6 8.87
6/11/2022 1:15:00 AM 15.52 59.936 0.132 7.24 2.37 8.91
6/11/2022 1:30:00 AM 15.41 59.738 0.132 7.25 2.46 8.92
6/11/2022 1:45:00 AM 15.3 59.54 0.132 7.24 6.56 8.95
6/11/2022 2:00:00 AM 15.2 59.36 0.132 7.24 2.4 8.97
6/11/2022 2:15:00 AM 15.09 59.162 0.132 7.24 2.56 8.99
6/11/2022 2:30:00 AM 14.99 58.982 0.132 7.24 2.45 9.02
6/11/2022 2:45:00 AM 14.89 58.802 0.132 7.24 2.38 9.04
6/11/2022 3:00:00 AM 14.79 58.622 0.132 7.24 2.42 9.07
6/11/2022 3:15:00 AM 14.71 58.478 0.132 7.24 2.34 9.09
6/11/2022 3:30:00 AM 14.62 58.316 0.132 7.24 2.35 9.12
6/11/2022 3:45:00 AM 14.54 58.172 0.132 7.24 2.31 9.13
6/11/2022 4:00:00 AM 14.47 58.046 0.132 7.24 2.37 9.16
6/11/2022 4:15:00 AM 14.39 57.902 0.132 7.24 2.28 9.18
6/11/2022 4:30:00 AM 14.32 57.776 0.132 7.24 2.28 9.19
6/11/2022 4:45:00 AM 14.25 57.65 0.132 7.24 2.26 9.22
6/11/2022 5:00:00 AM 14.18 57.524 0.132 7.24 2.33 9.23
6/11/2022 5:15:00 AM 14.12 57.416 0.132 7.24 2.48 9.25
6/11/2022 5:30:00 AM 14.06 57.308 0.131 7.24 2.32 9.26
6/11/2022 5:45:00 AM 14 57.2 0.131 7.24 2.3 9.28
6/11/2022 6:00:00 AM 13.95 57.11 0.131 7.24 2.26 9.31
6/11/2022 6:15:00 AM 13.91 57.038 0.131 7.25 2.2 9.35
6/11/2022 6:30:00 AM 13.88 56.984 0.131 7.26 2.31 9.4
6/11/2022 6:45:00 AM 13.85 56.93 0.131 7.26 2.33 9.43
6/11/2022 7:00:00 AM 13.82 56.876 0.131 7.27 2.55 9.47
6/11/2022 7:15:00 AM 13.8 56.84 0.131 7.28 2.31 9.51
6/11/2022 7:30:00 AM 13.79 56.822 0.131 7.28 2.26 9.54
6/11/2022 7:45:00 AM 13.78 56.804 0.131 7.3 2.18 9.59
6/11/2022 8:00:00 AM 13.79 56.822 0.131 7.31 2.21 9.64
6/11/2022 8:15:00 AM 13.85 56.93 0.131 7.34 2.28 9.73
6/11/2022 8:30:00 AM 13.97 57.146 0.131 7.36 2.33 9.82
6/11/2022 8:45:00 AM 14.04 57.272 0.131 7.39 2.24 9.84
6/11/2022 9:00:00 AM 14.1 57.38 0.131 7.41 2.17 9.87
6/11/2022 9:15:00 AM 14.22 57.596 0.131 7.43 2.26 9.89
6/11/2022 9:30:00 AM 14.32 57.776 0.13 7.44 2.73 9.89
6/11/2022 9:45:00 AM 14.43 57.974 0.13 7.46 2.22 9.9
6/11/2022 10:00:00 AM 14.53 58.154 0.13 7.47 2.25 9.89
6/11/2022 10:15:00 AM 14.61 58.298 0.13 7.48 2.28 9.85
6/11/2022 10:30:00 AM 14.75 58.55 0.13 7.49 2.3 9.83
6/11/2022 10:45:00 AM 14.84 58.712 0.13 7.49 2.14 9.81
6/11/2022 11:00:00 AM 14.94 58.892 0.13 7.5 2.13 9.8
6/11/2022 11:15:00 AM 15.08 59.144 0.13 7.52 6.51 9.79
6/11/2022 11:30:00 AM 15.22 59.396 0.13 7.53 2.25 9.78
6/11/2022 11:45:00 AM 15.36 59.648 0.13 7.53 2.43 9.78
6/11/2022 12:00:00 PM 15.57 60.026 0.13 7.55 2.28 9.78
6/11/2022 12:15:00 PM 15.78 60.404 0.13 7.57 2.26 9.77
6/11/2022 12:30:00 PM 15.99 60.782 0.13 7.58 2.3 9.74
6/11/2022 12:45:00 PM 16.16 61.088 0.13 7.59 2.38 9.72
6/11/2022 1:00:00 PM 16.36 61.448 0.13 7.6 2.27 9.66
6/11/2022 1:15:00 PM 16.83 62.294 0.13 7.6 2.16 9.62
6/11/2022 1:30:00 PM 17.17 62.906 0.13 7.6 2.21 9.54
6/11/2022 1:45:00 PM 17.42 63.356 0.13 7.58 2.32 9.42
6/11/2022 2:00:00 PM 17.6 63.68 0.13 7.56 2.16 9.31
6/11/2022 2:15:00 PM 17.75 63.95 0.13 7.55 2.23 9.22
6/11/2022 2:30:00 PM 17.9 64.22 0.13 7.53 2.46 9.12
6/11/2022 2:45:00 PM 18.14 64.652 0.13 7.55 2.19 9.14
6/11/2022 3:00:00 PM 18.3 64.94 0.13 7.56 2.32 9.13
6/11/2022 3:15:00 PM 18.26 64.868 0.13 7.55 2.3 9.08
6/11/2022 3:30:00 PM 18.45 65.21 0.13 7.55 2.45 9.03
6/11/2022 3:45:00 PM 18.63 65.534 0.13 7.54 2.47 8.97
6/11/2022 4:00:00 PM 18.63 65.534 0.13 7.52 2.45 8.88
6/11/2022 4:15:00 PM 18.47 65.246 0.13 7.48 2.64 8.8
6/11/2022 4:30:00 PM 18.28 64.904 0.13 7.44 2.38 8.75
6/11/2022 4:45:00 PM 18.12 64.616 0.13 7.4 2.59 8.67
6/11/2022 5:00:00 PM 18.09 64.562 0.13 7.39 2.46 8.68
6/11/2022 5:15:00 PM 18.16 64.688 0.13 7.41 2.31 8.77
6/11/2022 5:30:00 PM 18.21 64.778 0.13 7.43 2.37 8.85
6/11/2022 5:45:00 PM 18.24 64.832 0.13 7.44 2.35 8.88
6/11/2022 6:00:00 PM 18.31 64.958 0.13 7.45 2.45 8.85
6/11/2022 6:15:00 PM 18.32 64.976 0.13 7.44 2.57 8.79
6/11/2022 6:30:00 PM 18.3 64.94 0.131 7.43 2.56 8.75
6/11/2022 6:45:00 PM 18.23 64.814 0.131 7.4 2.37 8.69
6/11/2022 7:00:00 PM 18.14 64.652 0.131 7.38 2.31 8.66
6/11/2022 7:15:00 PM 18.01 64.418 0.131 7.36 2.42 8.65
6/11/2022 7:30:00 PM 17.86 64.148 0.131 7.35 2.41 8.65
6/11/2022 7:45:00 PM 17.73 63.914 0.131 7.34 2.4 8.6
6/11/2022 8:00:00 PM 17.64 63.752 0.131 7.33 2.47 8.6
6/11/2022 8:15:00 PM 17.55 63.59 0.131 7.31 2.54 8.59
6/11/2022 8:30:00 PM 17.43 63.374 0.131 7.3 2.37 8.56
6/11/2022 8:45:00 PM 17.3 63.14 0.131 7.29 2.45 8.56
6/11/2022 9:00:00 PM 17.15 62.87 0.131 7.28 2.54 8.57
6/11/2022 9:15:00 PM 17 62.6 0.131 7.27 2.73 8.58
6/11/2022 9:30:00 PM 16.85 62.33 0.131 7.26 2.73 8.6
6/11/2022 9:45:00 PM 16.71 62.078 0.131 7.26 2.35 8.62
6/11/2022 10:00:00 PM 16.58 61.844 0.131 7.26 2.56 8.66
6/11/2022 10:15:00 PM 16.46 61.628 0.131 7.25 2.46 8.68
6/11/2022 10:30:00 PM 16.34 61.412 0.131 7.25 2.59 8.7
6/11/2022 10:45:00 PM 16.23 61.214 0.131 7.25 2.4 8.73
6/11/2022 11:00:00 PM 16.13 61.034 0.131 7.25 2.74 8.76
6/11/2022 11:15:00 PM 16.03 60.854 0.131 7.24 2.79 8.77
6/11/2022 11:30:00 PM 15.93 60.674 0.131 7.24 2.4 8.79
6/11/2022 11:45:00 PM 15.84 60.512 0.131 7.24 2.36 8.82
6/12/2022 12:00:00 AM 15.75 60.35 0.131 7.24 2.4 8.85
6/12/2022 12:15:00 AM 15.65 60.17 0.131 7.24 2.48 8.88
6/12/2022 12:30:00 AM 15.56 60.008 0.131 7.24 2.58 8.9
6/12/2022 12:45:00 AM 15.47 59.846 0.131 7.24 2.48 8.92
6/12/2022 1:00:00 AM 15.38 59.684 0.131 7.24 2.54 8.95
6/12/2022 1:15:00 AM 15.3 59.54 0.131 7.24 2.39 8.96
6/12/2022 1:30:00 AM 15.22 59.396 0.131 7.24 2.49 8.98
6/12/2022 1:45:00 AM 15.14 59.252 0.131 7.24 2.45 9
6/12/2022 2:00:00 AM 15.07 59.126 0.131 7.24 2.5 9.02
6/12/2022 2:15:00 AM 15 59 0.131 7.24 2.5 9.03
6/12/2022 2:30:00 AM 14.93 58.874 0.131 7.24 2.49 9.05
6/12/2022 2:45:00 AM 14.87 58.766 0.131 7.24 2.51 9.07
6/12/2022 3:00:00 AM 14.81 58.658 0.131 7.24 2.51 9.08
6/12/2022 3:15:00 AM 14.75 58.55 0.131 7.24 2.39 9.1
6/12/2022 3:30:00 AM 14.7 58.46 0.131 7.24 2.42 9.11
6/12/2022 3:45:00 AM 14.64 58.352 0.131 7.24 2.43 9.13
6/12/2022 4:00:00 AM 14.59 58.262 0.131 7.23 2.56 9.14
6/12/2022 4:15:00 AM 14.53 58.154 0.131 7.24 2.51 9.16
6/12/2022 4:30:00 AM 14.49 58.082 0.131 7.24 2.53 9.17
6/12/2022 4:45:00 AM 14.44 57.992 0.131 7.23 2.48 9.18
6/12/2022 5:00:00 AM 14.4 57.92 0.131 7.23 2.44 9.19
6/12/2022 5:15:00 AM 14.35 57.83 0.131 7.23 2.51 9.2
6/12/2022 5:30:00 AM 14.31 57.758 0.131 7.23 2.42 9.21
6/12/2022 5:45:00 AM 14.27 57.686 0.131 7.23 2.5 9.22
6/12/2022 6:00:00 AM 14.24 57.632 0.131 7.23 2.49 9.24
6/12/2022 6:15:00 AM 14.21 57.578 0.131 7.24 2.58 9.27
6/12/2022 6:30:00 AM 14.19 57.542 0.131 7.24 2.58 9.31
6/12/2022 6:45:00 AM 14.17 57.506 0.131 7.25 2.49 9.34
6/12/2022 7:00:00 AM 14.18 57.524 0.131 7.26 2.38 9.41
6/12/2022 7:15:00 AM 14.19 57.542 0.131 7.28 2.38 9.46
6/12/2022 7:30:00 AM 14.22 57.596 0.131 7.3 2.32 9.51
6/12/2022 7:45:00 AM 14.27 57.686 0.13 7.31 2.3 9.55
6/12/2022 8:00:00 AM 14.32 57.776 0.13 7.32 2.24 9.6
6/12/2022 8:15:00 AM 14.38 57.884 0.13 7.34 2.39 9.61
6/12/2022 8:30:00 AM 14.46 58.028 0.13 7.35 2.24 9.64
6/12/2022 8:45:00 AM 14.57 58.226 0.13 7.37 2.29 9.67
6/12/2022 9:00:00 AM 14.72 58.496 0.13 7.4 2.5 9.69
6/12/2022 9:15:00 AM 14.86 58.748 0.13 7.42 2.35 9.72
6/12/2022 9:30:00 AM 14.95 58.91 0.13 7.43 2.57 9.7
6/12/2022 9:45:00 AM 15.1 59.18 0.13 7.46 2.23 9.71
6/12/2022 10:00:00 AM 15.43 59.774 0.13 7.48 2.31 9.71
6/12/2022 10:15:00 AM 15.63 60.134 0.13 7.49 2.26 9.69
6/12/2022 10:30:00 AM 15.74 60.332 0.13 7.5 2.35 9.66
6/12/2022 10:45:00 AM 15.73 60.314 0.13 7.5 2.43 9.63
6/12/2022 11:00:00 AM 15.99 60.782 0.13 7.51 2.38 9.63
6/12/2022 11:15:00 AM 16.34 61.412 0.13 7.52 2.3 9.59
6/12/2022 11:30:00 AM 16.66 61.988 0.13 7.52 2.31 9.53
6/12/2022 11:45:00 AM 16.88 62.384 0.13 7.53 2.23 9.5
6/12/2022 12:00:00 PM 16.98 62.564 0.13 7.54 2.29 9.48
6/12/2022 12:15:00 PM 17.21 62.978 0.13 7.55 2.33 9.46
6/12/2022 12:30:00 PM 17.5 63.5 0.13 7.56 2.56 9.4
6/12/2022 12:45:00 PM 17.81 64.058 0.13 7.57 2.52 9.35
6/12/2022 1:00:00 PM 17.95 64.31 0.13 7.56 2.31 9.25
6/12/2022 1:15:00 PM 18 64.4 0.13 7.52 2.37 9.1
6/12/2022 1:30:00 PM 18.13 64.634 0.13 7.51 2.3 9.02
6/12/2022 1:45:00 PM 18.17 64.706 0.13 7.5 2.54 8.97
6/12/2022 2:00:00 PM 18.17 64.706 0.13 7.49 2.49 8.98
6/12/2022 2:15:00 PM 18.21 64.778 0.13 7.49 3.03 8.98
6/12/2022 2:30:00 PM 18.31 64.958 0.13 7.51 2.62 9.01
6/12/2022 2:45:00 PM 18.35 65.03 0.13 7.53 2.45 9
6/12/2022 3:00:00 PM 18.39 65.102 0.13 7.51 2.99 8.98
6/12/2022 3:15:00 PM 18.45 65.21 0.13 7.55 2.51 9.01
6/12/2022 3:30:00 PM 18.37 65.066 0.13 7.51 2.61 8.96
6/12/2022 3:45:00 PM 18.27 64.886 0.13 7.47 2.36 8.86
6/12/2022 4:00:00 PM 18.21 64.778 0.13 7.43 2.44 8.77
6/12/2022 4:15:00 PM 18.18 64.724 0.13 7.42 2.44 8.75
6/12/2022 4:30:00 PM 18.19 64.742 0.13 7.42 2.39 8.8
6/12/2022 4:45:00 PM 18.19 64.742 0.13 7.43 2.41 8.82
6/12/2022 5:00:00 PM 18.16 64.688 0.13 7.41 2.49 8.74
6/12/2022 5:15:00 PM 18.14 64.652 0.13 7.38 7.29 8.71
6/12/2022 5:30:00 PM 18.15 64.67 0.13 7.39 2.49 8.69
6/12/2022 5:45:00 PM 18.12 64.616 0.13 7.37 2.53 8.69
6/12/2022 6:00:00 PM 18.15 64.67 0.13 7.39 2.69 8.77
6/12/2022 6:15:00 PM 18.17 64.706 0.129 7.41 2.54 8.83
6/12/2022 6:30:00 PM 18.17 64.706 0.13 7.4 2.41 8.78
6/12/2022 6:45:00 PM 18.19 64.742 0.13 7.39 2.56 8.71
6/12/2022 7:00:00 PM 18.16 64.688 0.13 7.38 2.35 8.72
6/12/2022 7:15:00 PM 18.1 64.58 0.13 7.37 2.53 8.72
6/12/2022 7:30:00 PM 17.98 64.364 0.13 7.35 2.51 8.7
6/12/2022 7:45:00 PM 17.89 64.202 0.13 7.33 2.46 8.68
6/12/2022 8:00:00 PM 17.82 64.076 0.13 7.31 2.48 8.63
6/12/2022 8:15:00 PM 17.77 63.986 0.13 7.29 2.51 8.58
6/12/2022 8:30:00 PM 17.71 63.878 0.131 7.26 2.48 8.54
6/12/2022 8:45:00 PM 17.65 63.77 0.131 7.25 2.66 8.51
6/12/2022 9:00:00 PM 17.57 63.626 0.131 7.23 2.47 8.5
6/12/2022 9:15:00 PM 17.5 63.5 0.131 7.22 2.5 8.5
6/12/2022 9:30:00 PM 17.43 63.374 0.131 7.22 2.5 8.51
6/12/2022 9:45:00 PM 17.35 63.23 0.131 7.21 2.71 8.52
6/12/2022 10:00:00 PM 17.29 63.122 0.131 7.2 2.56 8.53
6/12/2022 10:15:00 PM 17.21 62.978 0.131 7.19 2.48 8.54
6/12/2022 10:30:00 PM 17.14 62.852 0.131 7.18 2.68 8.55
6/12/2022 10:45:00 PM 17.07 62.726 0.131 7.18 2.53 8.57
6/12/2022 11:00:00 PM 17.01 62.618 0.131 7.17 2.62 8.6
6/12/2022 11:15:00 PM 16.95 62.51 0.131 7.17 2.52 8.61
6/12/2022 11:30:00 PM 16.91 62.438 0.131 7.17 2.58 8.62
6/12/2022 11:45:00 PM 16.87 62.366 0.13 7.17 2.43 8.62
6/13/2022 12:00:00 AM 16.83 62.294 0.13 7.17 2.55 8.64
6/13/2022 12:15:00 AM 16.79 62.222 0.13 7.16 2.62 8.65
6/13/2022 12:30:00 AM 16.74 62.132 0.13 7.17 2.53 8.67
6/13/2022 12:45:00 AM 16.7 62.06 0.13 7.17 6.81 8.68
6/13/2022 1:00:00 AM 16.65 61.97 0.13 7.16 2.63 8.69
6/13/2022 1:15:00 AM 16.61 61.898 0.13 7.16 2.69 8.7
6/13/2022 1:30:00 AM 16.57 61.826 0.13 7.16 2.89 8.7
6/13/2022 1:45:00 AM 16.54 61.772 0.13 7.16 2.72 8.72
6/13/2022 2:00:00 AM 16.5 61.7 0.13 7.16 2.79 8.73
6/13/2022 2:15:00 AM 16.47 61.646 0.13 7.17 6.89 8.74
6/13/2022 2:30:00 AM 16.44 61.592 0.13 7.17 2.46 8.75
6/13/2022 2:45:00 AM 16.4 61.52 0.13 7.16 2.63 8.75
6/13/2022 3:00:00 AM 16.37 61.466 0.13 7.16 2.63 8.76
6/13/2022 3:15:00 AM 16.34 61.412 0.13 7.18 2.91 8.76
6/13/2022 3:30:00 AM 16.32 61.376 0.13 7.17 2.59 8.77
6/13/2022 3:45:00 AM 16.29 61.322 0.13 7.17 2.52 8.78
6/13/2022 4:00:00 AM 16.27 61.286 0.13 7.17 2.58 8.79
6/13/2022 4:15:00 AM 16.25 61.25 0.13 7.17 2.62 8.8
6/13/2022 4:30:00 AM 16.23 61.214 0.13 7.18 2.56 8.8
6/13/2022 4:45:00 AM 16.21 61.178 0.13 7.18 2.65 8.79
6/13/2022 5:00:00 AM 16.18 61.124 0.13 7.18 6.86 8.81
6/13/2022 5:15:00 AM 16.16 61.088 0.13 7.18 6.93 8.81
6/13/2022 5:30:00 AM 16.14 61.052 0.13 7.18 2.58 8.82
6/13/2022 5:45:00 AM 16.12 61.016 0.13 7.19 2.52 8.83
6/13/2022 6:00:00 AM 16.1 60.98 0.13 7.2 2.57 8.85
6/13/2022 6:15:00 AM 16.09 60.962 0.13 7.21 6.88 8.88
6/13/2022 6:30:00 AM 16.1 60.98 0.13 7.22 2.56 8.93
6/13/2022 6:45:00 AM 16.1 60.98 0.13 7.24 2.5 8.98
6/13/2022 7:00:00 AM 16.12 61.016 0.13 7.26 6.95 9.03
6/13/2022 7:15:00 AM 16.14 61.052 0.13 7.27 2.48 9.1
6/13/2022 7:30:00 AM 16.17 61.106 0.13 7.29 2.43 9.12
6/13/2022 7:45:00 AM 16.19 61.142 0.13 7.3 2.5 9.15
6/13/2022 8:00:00 AM 16.24 61.232 0.13 7.32 2.39 9.2
6/13/2022 8:15:00 AM 16.32 61.376 0.13 7.34 2.49 9.25
6/13/2022 8:30:00 AM 16.4 61.52 0.13 7.36 6.98 9.29
6/13/2022 8:45:00 AM 16.47 61.646 0.13 7.38 2.45 9.31
6/13/2022 9:00:00 AM 16.56 61.808 0.13 7.39 2.46 9.31
6/13/2022 9:15:00 AM 16.68 62.024 0.13 7.41 2.34 9.33
6/13/2022 9:30:00 AM 16.78 62.204 0.13 7.42 2.42 9.32
6/13/2022 9:45:00 AM 16.89 62.402 0.13 7.43 2.53 9.33
6/13/2022 10:00:00 AM 17.08 62.744 0.13 7.48 2.44 9.33
6/13/2022 10:15:00 AM 17.31 63.158 0.13 7.46 2.42 9.32
6/13/2022 10:30:00 AM 17.56 63.608 0.13 7.48 2.39 9.29
6/13/2022 10:45:00 AM 17.77 63.986 0.13 7.48 2.82 9.25
6/13/2022 11:00:00 AM 18.03 64.454 0.13 7.49 2.55 9.24
6/13/2022 11:15:00 AM 18.22 64.796 0.13 7.5 2.35 9.17
6/13/2022 11:30:00 AM 18.39 65.102 0.13 7.49 6.42 9.13
6/13/2022 11:45:00 AM 18.71 65.67799 0.13 7.5 2.35 9.1
6/13/2022 12:00:00 PM 18.99 66.182 0.13 7.5 2.31 9.03
6/13/2022 12:15:00 PM 19.09 66.362 0.13 7.49 2.35 8.91
6/13/2022 12:30:00 PM 19.29 66.722 0.13 7.5 2.31 8.87
6/13/2022 12:45:00 PM 19.37 66.866 0.13 7.48 2.4 8.81
6/13/2022 1:00:00 PM 19.57 67.226 0.13 7.5 2.39 8.82
6/13/2022 1:15:00 PM 19.72 67.496 0.13 7.48 2.41 8.78
6/13/2022 1:30:00 PM 20.12 68.216 0.13 7.5 2.55 8.77
6/13/2022 1:45:00 PM 20.53 68.954 0.13 7.5 2.36 8.73
6/13/2022 2:00:00 PM 20.99 69.782 0.13 7.51 2.66 8.66
6/13/2022 2:15:00 PM 21.39 70.502 0.13 7.51 2.52 8.58
6/13/2022 2:30:00 PM 21.66 70.988 0.13 7.5 2.36 8.49
6/13/2022 2:45:00 PM 22 71.6 0.13 7.51 2.62 8.44
6/13/2022 3:00:00 PM 22.13 71.834 0.13 7.49 2.43 8.37
6/13/2022 3:15:00 PM 22.36 72.248 0.131 7.5 2.4 8.34
6/13/2022 3:30:00 PM 22.65 72.77 0.13 7.5 2.53 8.3
6/13/2022 3:45:00 PM 22.76 72.968 0.131 7.5 2.44 8.27
6/13/2022 4:00:00 PM 22.79 73.022 0.131 7.5 2.52 8.25
6/13/2022 4:15:00 PM 22.93 73.274 0.131 7.52 2.51 8.25
6/13/2022 4:30:00 PM 23.11 73.598 0.131 7.51 2.78 8.2
6/13/2022 4:45:00 PM 23.15 73.67 0.131 7.51 2.43 8.15
6/13/2022 5:00:00 PM 23.14 73.652 0.131 7.49 2.75 8.11
6/13/2022 5:15:00 PM 23.08 73.544 0.131 7.47 2.72 8.06
6/13/2022 5:30:00 PM 23.03 73.454 0.131 7.46 6.66 8.06
6/13/2022 5:45:00 PM 22.96 73.328 0.131 7.47 2.78 8.05
6/13/2022 6:00:00 PM 22.8 73.04 0.131 7.43 2.55 8.01
6/13/2022 6:15:00 PM 22.6 72.68 0.132 7.41 6.72 7.96
6/13/2022 6:30:00 PM 22.41 72.338 0.132 7.38 2.73 7.91
6/13/2022 6:45:00 PM 22.19 71.942 0.132 7.36 2.62 7.9
6/13/2022 7:00:00 PM 22.02 71.636 0.132 7.37 2.91 7.91
6/13/2022 7:15:00 PM 21.82 71.276 0.132 7.33 2.62 7.89
6/13/2022 7:30:00 PM 21.6 70.88 0.132 7.32 3.13 7.88
6/13/2022 7:45:00 PM 21.38 70.484 0.132 7.3 2.77 7.88
6/13/2022 8:00:00 PM 21.17 70.106 0.132 7.28 2.65 7.87
6/13/2022 8:15:00 PM 20.99 69.782 0.132 7.28 2.61 7.88
6/13/2022 8:30:00 PM 20.81 69.458 0.133 7.27 2.81 7.88
6/13/2022 8:45:00 PM 20.62 69.116 0.133 7.25 2.73 7.88
6/13/2022 9:00:00 PM 20.43 68.774 0.133 7.24 2.64 7.89
6/13/2022 9:15:00 PM 20.24 68.432 0.133 7.23 3.04 7.91
6/13/2022 9:30:00 PM 20.06 68.108 0.133 7.25 3 7.93
6/13/2022 9:45:00 PM 19.89 67.802 0.133 7.23 3.11 7.97
6/13/2022 10:00:00 PM 19.74 67.532 0.133 7.24 2.94 7.99
6/13/2022 10:15:00 PM 19.6 67.28 0.133 7.22 6.96 8.03
6/13/2022 10:30:00 PM 19.45 67.01 0.133 7.22 2.98 8.05
6/13/2022 10:45:00 PM 19.32 66.776 0.133 7.22 2.72 8.08
6/13/2022 11:00:00 PM 19.17 66.506 0.133 7.22 2.88 8.11
6/13/2022 11:15:00 PM 19.03 66.254 0.133 7.22 2.68 8.14
6/13/2022 11:30:00 PM 18.88 65.984 0.133 7.22 2.69 8.17
6/13/2022 11:45:00 PM 18.75 65.75 0.133 7.23 2.7 8.2
6/14/2022 12:00:00 AM 18.62 65.516 0.133 7.22 2.68 8.23
6/14/2022 12:15:00 AM 18.51 65.318 0.133 7.22 2.8 8.26
6/14/2022 12:30:00 AM 18.4 65.12 0.133 7.22 2.75 8.27
6/14/2022 12:45:00 AM 18.29 64.922 0.133 7.23 2.58 8.3
6/14/2022 1:00:00 AM 18.2 64.76 0.133 7.22 2.89 8.33
6/14/2022 1:15:00 AM 18.1 64.58 0.133 7.22 2.75 8.35
6/14/2022 1:30:00 AM 18.01 64.418 0.133 7.22 2.81 8.38
6/14/2022 1:45:00 AM 17.92 64.256 0.133 7.24 2.68 8.39
6/14/2022 2:00:00 AM 17.84 64.112 0.133 7.21 2.9 8.42
6/14/2022 2:15:00 AM 17.76 63.968 0.133 7.22 2.83 8.43
6/14/2022 2:30:00 AM 17.69 63.842 0.133 7.22 2.75 8.46
6/14/2022 2:45:00 AM 17.62 63.716 0.133 7.26 3.01 8.47
6/14/2022 3:00:00 AM 17.55 63.59 0.133 7.24 3.13 8.48
6/14/2022 3:15:00 AM 17.48 63.464 0.133 7.21 3.05 8.5
6/14/2022 3:30:00 AM 17.42 63.356 0.133 7.21 2.78 8.51
6/14/2022 3:45:00 AM 17.36 63.248 0.133 7.23 2.75 8.53
6/14/2022 4:00:00 AM 17.29 63.122 0.133 7.21 2.79 8.53
6/14/2022 4:15:00 AM 17.24 63.032 0.133 7.22 2.85 8.55
6/14/2022 4:30:00 AM 17.18 62.924 0.133 7.21 2.89 8.56
6/14/2022 4:45:00 AM 17.12 62.816 0.133 7.21 2.65 8.56
6/14/2022 5:00:00 AM 17.07 62.726 0.133 7.21 3.18 8.58
6/14/2022 5:15:00 AM 17.02 62.636 0.133 7.21 3.04 8.59
6/14/2022 5:30:00 AM 16.98 62.564 0.133 7.21 2.79 8.6
6/14/2022 5:45:00 AM 16.93 62.474 0.133 7.22 2.77 8.61
6/14/2022 6:00:00 AM 16.89 62.402 0.133 7.21 2.63 8.63
6/14/2022 6:15:00 AM 16.86 62.348 0.133 7.22 2.8 8.65
6/14/2022 6:30:00 AM 16.83 62.294 0.133 7.23 2.86 8.69
6/14/2022 6:45:00 AM 16.81 62.258 0.133 7.23 2.71 8.72
6/14/2022 7:00:00 AM 16.78 62.204 0.133 7.25 2.73 8.74
6/14/2022 7:15:00 AM 16.77 62.186 0.132 7.25 2.58 8.77
6/14/2022 7:30:00 AM 16.76 62.168 0.132 7.27 2.74 8.83
6/14/2022 7:45:00 AM 16.75 62.15 0.132 7.27 2.64 8.84
6/14/2022 8:00:00 AM 16.74 62.132 0.132 7.27 2.67 8.84
6/14/2022 8:15:00 AM 16.74 62.132 0.132 7.29 2.7 8.87
6/14/2022 8:30:00 AM 16.74 62.132 0.132 7.27 2.73 8.88
6/14/2022 8:45:00 AM 16.73 62.114 0.132 7.32 2.75 8.88
6/14/2022 9:00:00 AM 16.75 62.15 0.132 7.29 2.8 8.93
6/14/2022 9:15:00 AM 16.77 62.186 0.132 7.32 2.54 9
6/14/2022 9:30:00 AM 16.82 62.276 0.132 7.33 2.63 9.07
6/14/2022 9:45:00 AM 16.89 62.402 0.132 7.36 2.66 9.14
6/14/2022 10:00:00 AM 16.99 62.582 0.132 7.4 2.6 9.19
6/14/2022 10:15:00 AM 17.23 63.014 0.132 7.42 2.51 9.24
6/14/2022 10:30:00 AM 17.48 63.464 0.132 7.45 2.62 9.26
6/14/2022 10:45:00 AM 17.69 63.842 0.132 7.5 2.52 9.25
6/14/2022 11:00:00 AM 17.84 64.112 0.132 7.47 2.75 9.22
6/14/2022 11:15:00 AM 18.07 64.526 0.132 7.48 2.81 9.2
6/14/2022 11:30:00 AM 18.34 65.012 0.132 7.49 2.55 9.15
6/14/2022 11:45:00 AM 18.58 65.444 0.132 7.49 2.49 9.1
6/14/2022 12:00:00 PM 18.82 65.876 0.132 7.5 2.38 9.06
6/14/2022 12:15:00 PM 19.16 66.488 0.132 7.52 2.56 9.01
6/14/2022 12:30:00 PM 19.54 67.172 0.132 7.5 2.52 8.92
6/14/2022 12:45:00 PM 19.97 67.946 0.132 7.5 2.59 8.82
6/14/2022 1:00:00 PM 20.37 68.666 0.132 7.53 2.64 8.73
6/14/2022 1:15:00 PM 20.77 69.386 0.132 7.48 2.79 8.65
6/14/2022 1:30:00 PM 21.15 70.07 0.132 7.48 2.72 8.57
6/14/2022 1:45:00 PM 21.5 70.7 0.132 7.5 2.9 8.5
6/14/2022 2:00:00 PM 21.87 71.366 0.132 7.49 2.64 8.43
6/14/2022 2:15:00 PM 22.16 71.888 0.132 7.5 2.93 8.37
6/14/2022 2:30:00 PM 22.51 72.518 0.132 7.49 2.67 8.34
6/14/2022 2:45:00 PM 22.78 73.004 0.132 7.5 3.02 8.27
6/14/2022 3:00:00 PM 23.02 73.436 0.132 7.5 2.16 8.21
6/14/2022 3:15:00 PM 23.22 73.796 0.132 7.5 2.03 8.19
6/14/2022 3:30:00 PM 23.43 74.174 0.132 7.49 2.01 8.14
6/14/2022 3:45:00 PM 23.6 74.48 0.132 7.5 1.59 8.11
6/14/2022 4:00:00 PM 23.71 74.67799 0.133 7.49 2.1 8.05
6/14/2022 4:15:00 PM 23.77 74.786 0.133 7.49 1.84 8.04
6/14/2022 4:30:00 PM 23.82 74.876 0.133 7.51 1.86 8.02
6/14/2022 4:45:00 PM 23.82 74.876 0.133 7.48 2.23 8
6/14/2022 5:00:00 PM 23.75 74.75 0.133 7.48 2.94 7.98
6/14/2022 5:15:00 PM 23.7 74.66 0.133 7.48 2.01 7.97
6/14/2022 5:30:00 PM 23.62 74.516 0.133 7.5 1.93 7.95
6/14/2022 5:45:00 PM 23.51 74.318 0.133 7.46 2.01 7.94
6/14/2022 6:00:00 PM 23.25 73.85 0.133 7.44 1.84 7.91
6/14/2022 6:15:00 PM 23.02 73.436 0.133 7.42 1.86 7.88
6/14/2022 6:30:00 PM 22.82 73.076 0.133 7.4 1.86 7.86
6/14/2022 6:45:00 PM 22.58 72.644 0.133 7.37 2.06 7.84
6/14/2022 7:00:00 PM 22.36 72.248 0.133 7.36 1.8 7.81
6/14/2022 7:15:00 PM 22.17 71.906 0.133 7.34 2.1 7.81
6/14/2022 7:30:00 PM 21.95 71.51 0.133 7.35 1.95 7.82
6/14/2022 7:45:00 PM 21.67 71.006 0.134 7.31 6.49 7.8
6/14/2022 8:00:00 PM 21.41 70.538 0.134 7.3 2.32 7.82
6/14/2022 8:15:00 PM 21.2 70.16 0.134 7.31 1.97 7.83
6/14/2022 8:30:00 PM 21.01 69.818 0.134 7.27 1.99 7.84
6/14/2022 8:45:00 PM 20.84 69.512 0.134 7.26 1.98 7.85
6/14/2022 9:00:00 PM 20.67 69.206 0.134 7.26 2.12 7.87
6/14/2022 9:15:00 PM 20.49 68.882 0.134 7.26 2 7.88
6/14/2022 9:30:00 PM 20.32 68.576 0.134 7.24 6.32 7.9
6/14/2022 9:45:00 PM 20.15 68.27 0.134 7.24 2.05 7.92
6/14/2022 10:00:00 PM 19.98 67.964 0.134 7.24 2.35 7.96
6/14/2022 10:15:00 PM 19.83 67.694 0.134 7.23 2.47 7.99
6/14/2022 10:30:00 PM 19.68 67.424 0.134 7.23 2.3 8.02
6/14/2022 10:45:00 PM 19.54 67.172 0.134 7.23 1.94 8.05
6/14/2022 11:00:00 PM 19.41 66.938 0.134 7.24 2.19 8.07
6/14/2022 11:15:00 PM 19.28 66.704 0.134 7.23 2.03 8.11
6/14/2022 11:30:00 PM 19.14 66.452 0.134 7.23 2.08 8.13
6/14/2022 11:45:00 PM 19.02 66.236 0.134 7.24 2.48 8.16
6/15/2022 12:00:00 AM 18.88 65.984 0.134 7.23 2 8.2
6/15/2022 12:15:00 AM 18.76 65.768 0.134 7.23 2.09 8.23
6/15/2022 12:30:00 AM 18.63 65.534 0.134 7.25 2.44 8.25
6/15/2022 12:45:00 AM 18.51 65.318 0.134 7.23 2.08 8.28
6/15/2022 1:00:00 AM 18.39 65.102 0.134 7.23 2.05 8.31
6/15/2022 1:15:00 AM 18.27 64.886 0.134 7.23 2.04 8.33
6/15/2022 1:30:00 AM 18.14 64.652 0.134 7.24 2.23 8.36
6/15/2022 1:45:00 AM 18.02 64.436 0.134 7.23 2.01 8.39
6/15/2022 2:00:00 AM 17.91 64.238 0.134 7.23 6.61 8.41
6/15/2022 2:15:00 AM 17.79 64.022 0.134 7.23 2.19 8.45
6/15/2022 2:30:00 AM 17.68 63.824 0.134 7.23 2.08 8.46
6/15/2022 2:45:00 AM 17.58 63.644 0.134 7.23 2.45 8.49
6/15/2022 3:00:00 AM 17.47 63.446 0.134 7.23 5.97 8.51
6/15/2022 3:15:00 AM 17.37 63.266 0.134 7.24 2.06 8.54
6/15/2022 3:30:00 AM 17.27 63.086 0.134 7.23 6.14 8.56
6/15/2022 3:45:00 AM 17.17 62.906 0.134 7.23 2.06 8.58
6/15/2022 4:00:00 AM 17.08 62.744 0.134 7.23 1.93 8.6
6/15/2022 4:15:00 AM 16.99 62.582 0.134 7.23 2.01 8.62
6/15/2022 4:30:00 AM 16.9 62.42 0.134 7.23 2.59 8.64
6/15/2022 4:45:00 AM 16.82 62.276 0.134 7.23 2.46 8.66
6/15/2022 5:00:00 AM 16.74 62.132 0.134 7.23 2.27 8.68
6/15/2022 5:15:00 AM 16.66 61.988 0.133 7.23 2.25 8.7
6/15/2022 5:30:00 AM 16.58 61.844 0.133 7.23 2.24 8.72
6/15/2022 5:45:00 AM 16.5 61.7 0.133 7.23 1.93 8.75
6/15/2022 6:00:00 AM 16.43 61.574 0.133 7.23 2.08 8.78
6/15/2022 6:15:00 AM 16.36 61.448 0.133 7.27 1.94 8.82
6/15/2022 6:30:00 AM 16.3 61.34 0.133 7.25 2.08 8.86
6/15/2022 6:45:00 AM 16.25 61.25 0.133 7.26 2.33 8.9
6/15/2022 7:00:00 AM 16.22 61.196 0.133 7.27 2 8.95
6/15/2022 7:15:00 AM 16.21 61.178 0.133 7.28 2.01 9
6/15/2022 7:30:00 AM 16.23 61.214 0.133 7.33 2.06 9.07
6/15/2022 7:45:00 AM 16.3 61.34 0.133 7.31 2.03 9.13
6/15/2022 8:00:00 AM 16.38 61.484 0.133 7.33 1.89 9.17
6/15/2022 8:15:00 AM 16.47 61.646 0.133 7.35 2 9.19
6/15/2022 8:30:00 AM 16.57 61.826 0.133 7.37 2.05 9.2
6/15/2022 8:45:00 AM 16.68 62.024 0.133 7.37 1.96 9.21
6/15/2022 9:00:00 AM 16.81 62.258 0.133 7.42 1.98 9.22
6/15/2022 9:15:00 AM 16.96 62.528 0.133 7.38 2.07 9.22
6/15/2022 9:30:00 AM 17.13 62.834 0.133 7.4 1.89 9.22
6/15/2022 9:45:00 AM 17.32 63.176 0.133 7.4 1.87 9.21
6/15/2022 10:00:00 AM 17.52 63.536 0.133 7.42 2.14 9.19
6/15/2022 10:15:00 AM 17.74 63.932 0.133 7.43 2.18 9.17
6/15/2022 10:30:00 AM 17.99 64.382 0.132 7.44 2.11 9.14
6/15/2022 10:45:00 AM 18.26 64.868 0.132 7.45 2 9.1
6/15/2022 11:00:00 AM 18.58 65.444 0.132 7.47 1.89 9.06
6/15/2022 11:15:00 AM 18.93 66.074 0.132 7.48 1.94 9
6/15/2022 11:30:00 AM 19.3 66.74 0.132 7.48 2.1 8.95
6/15/2022 11:45:00 AM 19.67 67.406 0.132 7.49 1.86 8.89
6/15/2022 12:00:00 PM 20.05 68.09 0.132 7.49 2.16 8.84
6/15/2022 12:15:00 PM 20.45 68.81 0.132 7.5 1.91 8.78
6/15/2022 12:30:00 PM 20.89 69.602 0.132 7.54 1.95 8.71
6/15/2022 12:45:00 PM 21.31 70.358 0.132 7.51 2.02 8.64
6/15/2022 1:00:00 PM 21.71 71.078 0.132 7.52 2.05 8.57
6/15/2022 1:15:00 PM 22.05 71.69 0.132 7.53 6.16 8.53
6/15/2022 1:30:00 PM 22.26 72.068 0.132 7.55 1.9 8.51
6/15/2022 1:45:00 PM 22.57 72.626 0.132 7.57 2.03 8.49
6/15/2022 2:00:00 PM 22.88 73.184 0.132 7.61 2.22 8.46
6/15/2022 2:15:00 PM 23.18 73.724 0.132 7.6 2.08 8.42
6/15/2022 2:30:00 PM 23.28 73.904 0.132 7.6 2.08 8.38
6/15/2022 2:45:00 PM 23.49 74.282 0.132 7.61 2.44 8.35
6/15/2022 3:00:00 PM 23.72 74.696 0.132 7.6 2.13 8.31
6/15/2022 3:15:00 PM 23.91 75.038 0.132 7.6 2.17 8.25
6/15/2022 3:30:00 PM 24 75.2 0.132 7.59 2.25 8.21
6/15/2022 3:45:00 PM 24.09 75.362 0.132 7.59 2.24 8.18
6/15/2022 4:00:00 PM 24.23 75.614 0.132 7.59 6.17 8.15
6/15/2022 4:15:00 PM 24.25 75.65 0.132 7.58 2.22 8.12
6/15/2022 4:30:00 PM 24.28 75.704 0.132 7.58 2.29 8.1
6/15/2022 4:45:00 PM 24.34 75.812 0.133 7.61 2.28 8.09
6/15/2022 5:00:00 PM 24.32 75.776 0.133 7.56 6.24 8.05
6/15/2022 5:15:00 PM 24.27 75.686 0.133 7.56 2.31 8.01
6/15/2022 5:30:00 PM 24.26 75.668 0.133 7.52 2.07 7.97
6/15/2022 5:45:00 PM 24.2 75.56 0.133 7.51 1.99 7.93
6/15/2022 6:00:00 PM 24.05 75.29 0.133 7.48 2.1 7.88
6/15/2022 6:15:00 PM 23.88 74.984 0.133 7.47 2 7.83
6/15/2022 6:30:00 PM 23.68 74.624 0.133 7.42 2.02 7.8
6/15/2022 6:45:00 PM 23.45 74.21 0.133 7.4 2.23 7.76
6/15/2022 7:00:00 PM 23.22 73.796 0.133 7.38 1.95 7.74
6/15/2022 7:15:00 PM 23.04 73.472 0.134 7.36 1.96 7.73
6/15/2022 7:30:00 PM 22.87 73.166 0.134 7.35 2.04 7.72
6/15/2022 7:45:00 PM 22.67 72.806 0.134 7.33 2.04 7.71
6/15/2022 8:00:00 PM 22.45 72.41 0.134 7.31 2.08 7.7
6/15/2022 8:15:00 PM 22.29 72.122 0.134 7.3 1.98 7.7
6/15/2022 8:30:00 PM 22.15 71.87 0.134 7.29 1.99 7.69
6/15/2022 8:45:00 PM 22.01 71.618 0.134 7.26 2.02 7.67
6/15/2022 9:00:00 PM 21.89 71.402 0.134 7.28 2.08 7.66
6/15/2022 9:15:00 PM 21.75 71.15 0.134 7.23 2.08 7.66
6/15/2022 9:30:00 PM 21.62 70.916 0.134 7.23 2.17 7.67
6/15/2022 9:45:00 PM 21.49 70.682 0.134 7.24 2.18 7.68
6/15/2022 10:00:00 PM 21.36 70.448 0.134 7.22 2.2 7.71
6/15/2022 10:15:00 PM 21.23 70.214 0.134 7.21 2.34 7.72
6/15/2022 10:30:00 PM 21.12 70.016 0.134 7.21 2.16 7.74
6/15/2022 10:45:00 PM 21.02 69.836 0.134 7.23 2.14 7.77
6/15/2022 11:00:00 PM 20.92 69.656 0.134 7.2 2.06 7.79
6/15/2022 11:15:00 PM 20.82 69.476 0.134 7.2 2.3 7.8
6/15/2022 11:30:00 PM 20.73 69.314 0.134 7.24 2.19 7.83
6/15/2022 11:45:00 PM 20.64 69.152 0.135 7.21 2.15 7.84
6/16/2022 12:00:00 AM 20.56 69.008 0.134 7.21 2.13 7.86
6/16/2022 12:15:00 AM 20.47 68.846 0.135 7.22 1.98 7.88
6/16/2022 12:30:00 AM 20.4 68.72 0.135 7.22 2.19 7.89
6/16/2022 12:45:00 AM 20.32 68.576 0.135 7.22 2.12 7.91
6/16/2022 1:00:00 AM 20.25 68.45 0.135 7.22 6.16 7.92
6/16/2022 1:15:00 AM 20.19 68.342 0.135 7.22 1.92 7.94
6/16/2022 1:30:00 AM 20.13 68.234 0.135 7.23 2.13 7.96
6/16/2022 1:45:00 AM 20.07 68.126 0.135 7.21 6.81 7.97
6/16/2022 2:00:00 AM 20.02 68.036 0.13 7.22 1.93 7.98
6/16/2022 2:15:00 AM 19.97 67.946 0.135 7.21 2.27 7.99
6/16/2022 2:30:00 AM 19.92 67.856 0.135 7.25 2.05 8.01
6/16/2022 2:45:00 AM 19.87 67.766 0.135 7.2 2074.21 8.01
6/16/2022 3:00:00 AM 19.81 67.658 0.135 7.21 2.19 7.88
6/16/2022 3:15:00 AM 19.76 67.568 0.135 7.21 2.2 8.04
6/16/2022 3:30:00 AM 19.71 67.478 0.135 7.22 2 8.05
6/16/2022 3:45:00 AM 19.66 67.388 0.135 7.23 2.06 8.06
6/16/2022 4:00:00 AM 19.62 67.316 0.135 7.22 2.1 8.07
6/16/2022 4:15:00 AM 19.57 67.226 0.134 7.21 2.3 8.08
6/16/2022 4:30:00 AM 19.52 67.136 0.134 7.21 2.33 8.08
6/16/2022 4:45:00 AM 19.47 67.046 0.133 7.22 2.33 8.08
6/16/2022 5:00:00 AM 19.41 66.938 0.133 7.2 2.42 8.07
6/16/2022 5:15:00 AM 19.35 66.83 0.133 7.19 2.52 8.05
6/16/2022 5:30:00 AM 19.29 66.722 0.133 7.19 2.36 8.07
6/16/2022 5:45:00 AM 19.23 66.614 0.129 7.2 3.51 8.17
6/16/2022 6:00:00 AM 19.15 66.47 0.125 7.18 3.56 8.17
6/16/2022 6:15:00 AM 19.07 66.326 0.124 7.16 5.42 8.11
6/16/2022 6:30:00 AM 19 66.2 0.122 7.15 7.65 8.11
6/16/2022 6:45:00 AM 18.93 66.074 0.123 7.15 7.46 8.11
6/16/2022 7:00:00 AM 18.88 65.984 0.124 7.16 7.52 8.14
6/16/2022 7:15:00 AM 18.84 65.912 0.124 7.17 6.04 8.2
6/16/2022 7:30:00 AM 18.82 65.876 0.125 7.21 4.85 8.29
6/16/2022 7:45:00 AM 18.81 65.858 0.126 7.24 3.77 8.36
6/16/2022 8:00:00 AM 18.82 65.876 0.127 7.27 3.38 8.43
6/16/2022 8:15:00 AM 18.83 65.894 0.128 7.25 3.4 8.47
6/16/2022 8:30:00 AM 18.85 65.93 0.129 7.29 4.37 8.55
6/16/2022 8:45:00 AM 18.86 65.948 0.129 7.3 4.63 8.59
6/16/2022 9:00:00 AM 18.86 65.948 0.128 7.31 5.36 8.62
6/16/2022 9:15:00 AM 18.86 65.948 0.127 7.31 5.93 8.65
6/16/2022 9:30:00 AM 18.89 66.002 0.127 7.34 6.05 8.72
6/16/2022 9:45:00 AM 18.92 66.056 0.126 7.35 6.12 8.78
6/16/2022 10:00:00 AM 18.91 66.038 0.124 7.39 8.82 8.83
6/16/2022 10:15:00 AM 18.81 65.858 0.121 7.4 11.88 8.83
6/16/2022 10:30:00 AM 18.75 65.75 0.119 7.35 12.01 8.86
6/16/2022 10:45:00 AM 18.72 65.696 0.12 7.35 12.61 8.88
6/16/2022 11:00:00 AM 18.75 65.75 0.124 7.37 11.94 8.86
6/16/2022 11:15:00 AM 18.75 65.75 0.125 7.37 12.19 8.83
6/16/2022 11:30:00 AM 18.86 65.948 0.127 7.39 11.35 8.89
6/16/2022 11:45:00 AM 19.02 66.236 0.128 7.42 10.6 8.92
6/16/2022 12:00:00 PM 19.07 66.326 0.13 7.43 11.43 8.92
6/16/2022 12:15:00 PM 19.11 66.398 0.131 7.47 11.74 8.93
6/16/2022 12:30:00 PM 19.15 66.47 0.132 7.45 11.35 8.94
6/16/2022 12:45:00 PM 19.12 66.416 0.132 7.45 11.03 8.9
6/16/2022 1:00:00 PM 19.12 66.416 0.131 7.47 9.98 8.93
6/16/2022 1:15:00 PM 19.14 66.452 0.13 7.48 9.66 8.94
6/16/2022 1:30:00 PM 19.14 66.452 0.13 7.48 8.77 8.93
6/16/2022 1:45:00 PM 19.25 66.65 0.13 7.47 8.2 8.96
6/16/2022 2:00:00 PM 19.32 66.776 0.13 7.49 8.03 8.98
6/16/2022 2:15:00 PM 19.42 66.956 0.13 7.5 7.62 8.98
6/16/2022 2:30:00 PM 19.52 67.136 0.13 7.51 7.41 8.97
6/16/2022 2:45:00 PM 19.54 67.172 0.13 7.52 7.16 8.95
6/16/2022 3:00:00 PM 19.55 67.19 0.129 7.49 6.56 8.9
6/16/2022 3:15:00 PM 19.62 67.316 0.128 7.5 6.8 8.91
6/16/2022 3:30:00 PM 19.64 67.352 0.127 7.5 6.06 8.91
6/16/2022 3:45:00 PM 19.73 67.514 0.126 7.5 10.79 8.91
6/16/2022 4:00:00 PM 19.87 67.766 0.126 7.52 5.73 8.9
6/16/2022 4:15:00 PM 19.97 67.946 0.126 7.52 5.54 8.87
6/16/2022 4:30:00 PM 20.15 68.27 0.126 7.53 5.2 8.85
6/16/2022 4:45:00 PM 20.27 68.486 0.126 7.53 4.9 8.83
6/16/2022 5:00:00 PM 20.39 68.702 0.126 7.53 4.4 8.81
6/16/2022 5:15:00 PM 20.4 68.72 0.127 7.5 4.33 8.71
6/16/2022 5:30:00 PM 20.3 68.54 0.128 7.44 4.42 8.58
6/16/2022 5:45:00 PM 20.14 68.252 0.128 7.4 4.04 8.47
6/16/2022 6:00:00 PM 19.98 67.964 0.129 7.36 4.15 8.39
6/16/2022 6:15:00 PM 19.88 67.784 0.129 7.34 4.07 8.33
6/16/2022 6:30:00 PM 19.83 67.694 0.129 7.32 7.77 8.29
6/16/2022 6:45:00 PM 19.77 67.586 0.13 7.3 3.76 8.28
6/16/2022 7:00:00 PM 19.66 67.388 0.13 7.29 3.58 8.27
6/16/2022 7:15:00 PM 19.58 67.244 0.13 7.31 3.56 8.27
6/16/2022 7:30:00 PM 19.52 67.136 0.13 7.33 3.63 8.28
6/16/2022 7:45:00 PM 19.48 67.064 0.13 7.25 3.31 8.32
6/16/2022 8:00:00 PM 19.45 67.01 0.13 7.27 3.24 8.35
6/16/2022 8:15:00 PM 19.41 66.938 0.13 7.26 3.24 8.34
6/16/2022 8:30:00 PM 19.36 66.848 0.13 7.24 3.24 8.33
6/16/2022 8:45:00 PM 19.31 66.758 0.13 7.23 3.31 8.32
6/16/2022 9:00:00 PM 19.26 66.668 0.13 7.22 3.45 8.3
6/16/2022 9:15:00 PM 19.21 66.578 0.129 7.21 3.3 8.3
6/16/2022 9:30:00 PM 19.16 66.488 0.129 7.23 3.77 8.29
6/16/2022 9:45:00 PM 19.11 66.398 0.129 7.23 3.44 8.29
6/16/2022 10:00:00 PM 19.05 66.29 0.129 7.2 3.38 8.3
6/16/2022 10:15:00 PM 18.99 66.182 0.129 7.18 3.52 8.31
6/16/2022 10:30:00 PM 18.93 66.074 0.129 7.17 3.43 8.32
6/16/2022 10:45:00 PM 18.89 66.002 0.128 7.17 3.32 8.32
6/16/2022 11:00:00 PM 18.84 65.912 0.128 7.15 3.38 8.33
6/16/2022 11:15:00 PM 18.8 65.84 0.128 7.15 2.97 8.34
6/16/2022 11:30:00 PM 18.76 65.768 0.128 7.15 3.33 8.35
6/16/2022 11:45:00 PM 18.71 65.67799 0.128 7.15 2.97 8.36
6/17/2022 12:00:00 AM 18.66 65.588 0.128 7.21 3.05 8.37
6/17/2022 12:15:00 AM 18.62 65.516 0.128 7.18 3.15 8.37
6/17/2022 12:30:00 AM 18.59 65.462 0.128 7.14 3.09 8.38
6/17/2022 12:45:00 AM 18.55 65.39 0.129 7.14 3.05 8.39
6/17/2022 1:00:00 AM 18.52 65.336 0.129 7.14 2.93 8.39
6/17/2022 1:15:00 AM 18.49 65.282 0.129 7.14 19.77 8.39
6/17/2022 1:30:00 AM 18.45 65.21 0.129 7.15 2.87 8.4
6/17/2022 1:45:00 AM 18.42 65.156 0.129 7.15 72.44 8.4
6/17/2022 2:00:00 AM 18.4 65.12 0.129 7.14 3.03 8.4
6/17/2022 2:15:00 AM 18.37 65.066 0.129 7.14 2.79 8.41
6/17/2022 2:30:00 AM 18.35 65.03 0.129 7.19 2.59 8.4
6/17/2022 2:45:00 AM 18.32 64.976 0.13 7.12 2.84 8.41
6/17/2022 3:00:00 AM 18.3 64.94 0.13 7.15 5.26 8.42
6/17/2022 3:15:00 AM 18.27 64.886 0.13 7.15 2.65 8.42
6/17/2022 3:30:00 AM 18.25 64.85 0.13 7.14 2.79 8.42
6/17/2022 3:45:00 AM 18.23 64.814 0.13 7.13 2.58 8.43
6/17/2022 4:00:00 AM 18.2 64.76 0.13 7.2 2.48 8.43
6/17/2022 4:15:00 AM 18.18 64.724 0.13 7.12 2.61 8.43
6/17/2022 4:30:00 AM 18.16 64.688 0.131 7.14 2.62 8.44
6/17/2022 4:45:00 AM 18.14 64.652 0.131 7.17 2.37 8.45
6/17/2022 5:00:00 AM 18.13 64.634 0.128 7.2 3.62 8.47
6/17/2022 5:15:00 AM 18.11 64.598 0.128 7.19 7.25 8.42
6/17/2022 5:30:00 AM 18.06 64.508 0.128 7.17 2.88 8.41
6/17/2022 5:45:00 AM 18.02 64.436 0.128 7.2 3.28 8.42
6/17/2022 6:00:00 AM 17.98 64.364 0.129 7.22 4.1 8.44
6/17/2022 6:15:00 AM 17.95 64.31 0.129 7.2 3.14 8.48
6/17/2022 6:30:00 AM 17.93 64.274 0.13 7.19 2.9 8.52
6/17/2022 6:45:00 AM 17.92 64.256 0.13 7.21 2.64 8.57
6/17/2022 7:00:00 AM 17.92 64.256 0.13 7.24 2.53 8.64
6/17/2022 7:15:00 AM 17.92 64.256 0.131 7.26 2.4 8.71
6/17/2022 7:30:00 AM 17.94 64.292 0.131 7.28 2.56 8.78
6/17/2022 7:45:00 AM 17.97 64.346 0.13 7.3 2.24 8.83
6/17/2022 8:00:00 AM 18.06 64.508 0.131 7.32 2.31 8.88
6/17/2022 8:15:00 AM 18.15 64.67 0.131 7.34 2.29 8.92
6/17/2022 8:30:00 AM 18.19 64.742 0.131 7.36 2.23 8.94
6/17/2022 8:45:00 AM 18.28 64.904 0.13 7.38 2.25 8.95
6/17/2022 9:00:00 AM 18.44 65.192 0.13 7.41 2.19 8.96
6/17/2022 9:15:00 AM 18.59 65.462 0.13 7.48 2.29 8.95
6/17/2022 9:30:00 AM 18.72 65.696 0.13 7.42 6.53 8.94
6/17/2022 9:45:00 AM 18.84 65.912 0.13 7.44 2.31 8.95
6/17/2022 10:00:00 AM 19.03 66.254 0.13 7.46 2.14 8.95
6/17/2022 10:15:00 AM 19.21 66.578 0.129 7.47 2.23 8.92
6/17/2022 10:30:00 AM 19.44 66.992 0.129 7.49 2.16 8.91
6/17/2022 10:45:00 AM 19.64 67.352 0.128 7.53 2.13 8.87
6/17/2022 11:00:00 AM 19.9 67.82 0.128 7.49 2.02 8.83
6/17/2022 11:15:00 AM 20.18 68.324 0.128 7.53 1.98 8.8
6/17/2022 11:30:00 AM 20.33 68.594 0.128 7.52 2.21 8.77
6/17/2022 11:45:00 AM 20.45 68.81 0.128 7.53 2.09 8.73
6/17/2022 12:00:00 PM 20.72 69.296 0.128 7.54 2.1 8.72
6/17/2022 12:15:00 PM 20.89 69.602 0.129 7.55 1.92 8.66
6/17/2022 12:30:00 PM 21.09 69.962 0.129 7.55 6.19 8.63
6/17/2022 12:45:00 PM 21.46 70.628 0.129 7.57 2 8.62
6/17/2022 1:00:00 PM 21.76 71.168 0.129 7.58 6.14 8.62
6/17/2022 1:15:00 PM 22.04 71.672 0.13 7.59 2.07 8.57
6/17/2022 1:30:00 PM 22.25 72.05 0.13 7.63 2.01 8.52
6/17/2022 1:45:00 PM 22.35 72.23 0.13 7.58 1.97 8.46
6/17/2022 2:00:00 PM 22.62 72.716 0.13 7.61 2.1 8.47
6/17/2022 2:15:00 PM 22.81 73.058 0.13 7.61 1.96 8.43
6/17/2022 2:30:00 PM 22.99 73.382 0.131 7.62 2.17 8.41
6/17/2022 2:45:00 PM 23.15 73.67 0.131 7.61 2.05 8.33
6/17/2022 3:00:00 PM 23.4 74.12 0.131 7.62 2.07 8.31
6/17/2022 3:15:00 PM 23.58 74.444 0.131 7.62 6.43 8.28
6/17/2022 3:30:00 PM 23.67 74.606 0.131 7.63 2.18 8.26
6/17/2022 3:45:00 PM 23.79 74.82201 0.131 7.64 2.1 8.25
6/17/2022 4:00:00 PM 23.9 75.02 0.131 7.64 6.48 8.23
6/17/2022 4:15:00 PM 23.92 75.056 0.131 7.64 1.95 8.22
6/17/2022 4:30:00 PM 23.76 74.768 0.131 7.61 2.09 8.14
6/17/2022 4:45:00 PM 23.54 74.372 0.132 7.58 2.1 8.13
6/17/2022 5:00:00 PM 23.36 74.048 0.132 7.58 2.07 8.15
6/17/2022 5:15:00 PM 23.21 73.778 0.132 7.58 6.46 8.17
6/17/2022 5:30:00 PM 23.18 73.724 0.132 7.58 2.24 8.19
6/17/2022 5:45:00 PM 23.07 73.526 0.132 7.56 2.09 8.15
6/17/2022 6:00:00 PM 22.87 73.166 0.132 7.54 2.01 8.12
6/17/2022 6:15:00 PM 22.7 72.86 0.132 7.52 2.17 8.11
6/17/2022 6:30:00 PM 22.49 72.482 0.132 7.49 1.99 8.08
6/17/2022 6:45:00 PM 22.24 72.032 0.133 7.46 2.07 8.03
6/17/2022 7:00:00 PM 22.05 71.69 0.133 7.44 2.21 8.01
6/17/2022 7:15:00 PM 21.84 71.312 0.133 7.43 2.18 8
6/17/2022 7:30:00 PM 21.58 70.844 0.133 7.39 2.29 7.97
6/17/2022 7:45:00 PM 21.34 70.412 0.133 7.37 2.52 7.95
6/17/2022 8:00:00 PM 21.17 70.106 0.133 7.38 2.23 7.96
6/17/2022 8:15:00 PM 21.01 69.818 0.134 7.34 2.04 7.96
6/17/2022 8:30:00 PM 20.88 69.584 0.134 7.33 2.11 7.96
6/17/2022 8:45:00 PM 20.73 69.314 0.134 7.33 2.11 7.95
6/17/2022 9:00:00 PM 20.57 69.026 0.134 7.29 2.02 7.95
6/17/2022 9:15:00 PM 20.41 68.738 0.134 7.28 2.03 7.95
6/17/2022 9:30:00 PM 20.28 68.504 0.134 7.28 6.26 7.96
6/17/2022 9:45:00 PM 20.16 68.288 0.134 7.26 2.29 7.98
6/17/2022 10:00:00 PM 20.06 68.108 0.134 7.26 2.31 7.99
6/17/2022 10:15:00 PM 19.95 67.91 0.134 7.25 2.48 8.01
6/17/2022 10:30:00 PM 19.84 67.712 0.134 7.26 6.63 8.03
6/17/2022 10:45:00 PM 19.72 67.496 0.134 7.24 2.25 8.05
6/17/2022 11:00:00 PM 19.6 67.28 0.134 7.25 2.36 8.07
6/17/2022 11:15:00 PM 19.48 67.064 0.135 7.28 2.43 8.09
6/17/2022 11:30:00 PM 19.36 66.848 0.135 7.25 2.17 8.11
6/17/2022 11:45:00 PM 19.24 66.632 0.135 7.25 2.37 8.13
6/18/2022 12:00:00 AM 19.11 66.398 0.135 7.27 2.26 8.16
6/18/2022 12:15:00 AM 19.01 66.218 0.135 7.24 2.33 8.18
6/18/2022 12:30:00 AM 18.9 66.02 0.135 7.25 2.25 8.21
6/18/2022 12:45:00 AM 18.8 65.84 0.135 7.28 2.04 8.22
6/18/2022 1:00:00 AM 18.72 65.696 0.135 7.27 2.49 8.25
6/18/2022 1:15:00 AM 18.63 65.534 0.135 7.24 2.24 8.26
6/18/2022 1:30:00 AM 18.54 65.372 0.135 7.26 1.99 8.28
6/18/2022 1:45:00 AM 18.44 65.192 0.135 7.28 2.35 8.3
6/18/2022 2:00:00 AM 18.34 65.012 0.136 7.26 2.24 8.32
6/18/2022 2:15:00 AM 18.25 64.85 0.136 7.26 2.82 8.34
6/18/2022 2:30:00 AM 18.16 64.688 0.136 7.27 6.61 8.36
6/18/2022 2:45:00 AM 18.05 64.49 0.136 7.26 2.06 8.38
6/18/2022 3:00:00 AM 17.94 64.292 0.136 7.26 2.04 8.4
6/18/2022 3:15:00 AM 17.84 64.112 0.136 7.29 2.16 8.43
6/18/2022 3:30:00 AM 17.77 63.986 0.136 7.27 2.22 8.44
6/18/2022 3:45:00 AM 17.7 63.86 0.136 7.28 2.06 8.46
6/18/2022 4:00:00 AM 17.63 63.734 0.136 7.27 2.03 8.48
6/18/2022 4:15:00 AM 17.57 63.626 0.136 7.28 2.1 8.49
6/18/2022 4:30:00 AM 17.47 63.446 0.136 7.27 2.1 8.51
6/18/2022 4:45:00 AM 17.41 63.338 0.136 7.33 2.04 8.53
6/18/2022 5:00:00 AM 17.33 63.194 0.136 7.26 2 8.54
6/18/2022 5:15:00 AM 17.27 63.086 0.136 7.28 6.68 8.55
6/18/2022 5:30:00 AM 17.21 62.978 0.136 7.27 2.12 8.57
6/18/2022 5:45:00 AM 17.16 62.888 0.136 7.31 2.13 8.58
6/18/2022 6:00:00 AM 17.1 62.78 0.136 7.27 1.92 8.61
6/18/2022 6:15:00 AM 17.03 62.654 0.136 7.28 2.08 8.63
6/18/2022 6:30:00 AM 16.97 62.546 0.136 7.29 1.87 8.67
6/18/2022 6:45:00 AM 16.89 62.402 0.136 7.29 1.84 8.71
6/18/2022 7:00:00 AM 16.83 62.294 0.136 7.31 1.87 8.76
6/18/2022 7:15:00 AM 16.79 62.222 0.136 7.34 1.75 8.84
6/18/2022 7:30:00 AM 16.76 62.168 0.136 7.39 1.79 8.94
6/18/2022 7:45:00 AM 16.73 62.114 0.136 7.36 1.66 8.99
6/18/2022 8:00:00 AM 16.7 62.06 0.136 7.39 5.98 9.02
6/18/2022 8:15:00 AM 16.67 62.006 0.135 7.44 1.92 9.1
6/18/2022 8:30:00 AM 16.63 61.934 0.135 7.41 1.66 9.14
6/18/2022 8:45:00 AM 16.58 61.844 0.135 7.47 1.74 9.15
6/18/2022 9:00:00 AM 16.59 61.862 0.135 7.45 1.66 9.24
6/18/2022 9:15:00 AM 16.61 61.898 0.135 7.47 1.62 9.3
6/18/2022 9:30:00 AM 16.56 61.808 0.135 7.47 1.61 9.28
6/18/2022 9:45:00 AM 16.65 61.97 0.135 7.49 1.69 9.32
6/18/2022 10:00:00 AM 16.6 61.88 0.135 7.51 1.55 9.34
6/18/2022 10:15:00 AM 16.63 61.934 0.135 7.52 1.65 9.38
6/18/2022 10:30:00 AM 16.62 61.916 0.135 7.55 1.55 9.43
6/18/2022 10:45:00 AM 16.63 61.934 0.135 7.57 1.62 9.46
6/18/2022 11:00:00 AM 16.61 61.898 0.135 7.58 1.66 9.47
6/18/2022 11:15:00 AM 16.58 61.844 0.135 7.59 1.56 9.45
6/18/2022 11:30:00 AM 16.54 61.772 0.135 7.57 1.58 9.42
6/18/2022 11:45:00 AM 16.57 61.826 0.135 7.58 1.61 9.47
6/18/2022 12:00:00 PM 16.74 62.132 0.135 7.61 1.49 9.54
6/18/2022 12:15:00 PM 16.81 62.258 0.135 7.63 1.46 9.55
6/18/2022 12:30:00 PM 17.01 62.618 0.135 7.71 1.47 9.58
6/18/2022 12:45:00 PM 17.2 62.96 0.135 7.72 1.48 9.55
6/18/2022 1:00:00 PM 17.42 63.356 0.135 7.68 1.57 9.53
6/18/2022 1:15:00 PM 17.43 63.374 0.135 7.7 1.51 9.51
6/18/2022 1:30:00 PM 17.97 64.346 0.135 7.7 1.61 9.46
6/18/2022 1:45:00 PM 18.16 64.688 0.135 7.7 1.57 9.37
6/18/2022 2:00:00 PM 18.38 65.084 0.135 7.68 1.57 9.3
6/18/2022 2:15:00 PM 18.55 65.39 0.135 7.69 1.55 9.23
6/18/2022 2:30:00 PM 18.94 66.092 0.135 7.67 1.5 9.18
6/18/2022 2:45:00 PM 19.32 66.776 0.135 7.73 1.71 9.13
6/18/2022 3:00:00 PM 19.65 67.37 0.135 7.67 1.57 9.08
6/18/2022 3:15:00 PM 19.88 67.784 0.135 7.68 1.63 9.01
6/18/2022 3:30:00 PM 20.14 68.252 0.135 7.69 1.88 8.97
6/18/2022 3:45:00 PM 20.3 68.54 0.135 7.7 1.63 8.9
6/18/2022 4:00:00 PM 20.51 68.918 0.135 7.67 1.76 8.88
6/18/2022 4:15:00 PM 20.62 69.116 0.135 7.69 1.75 8.86
6/18/2022 4:30:00 PM 20.63 69.134 0.135 7.68 1.58 8.83
6/18/2022 4:45:00 PM 20.68 69.224 0.135 7.68 1.66 8.81
6/18/2022 5:00:00 PM 20.75 69.35 0.135 7.74 1.67 8.78
6/18/2022 5:15:00 PM 20.64 69.152 0.135 7.69 1.57 8.74
6/18/2022 5:30:00 PM 20.55 68.99 0.135 7.69 1.73 8.73
6/18/2022 5:45:00 PM 20.37 68.666 0.135 7.61 6.04 8.71
6/18/2022 6:00:00 PM 20.12 68.216 0.135 7.6 1.77 8.69
6/18/2022 6:15:00 PM 19.87 67.766 0.135 7.56 1.98 8.67
6/18/2022 6:30:00 PM 19.67 67.406 0.135 7.53 1.56 8.63
6/18/2022 6:45:00 PM 19.41 66.938 0.136 7.49 1.83 8.6
6/18/2022 7:00:00 PM 19.15 66.47 0.136 7.52 1.67 8.57
6/18/2022 7:15:00 PM 18.96 66.128 0.136 7.43 1.78 8.57
6/18/2022 7:30:00 PM 18.76 65.768 0.136 7.43 1.83 8.56
6/18/2022 7:45:00 PM 18.53 65.354 0.136 7.41 1.94 8.55
6/18/2022 8:00:00 PM 18.32 64.976 0.136 7.38 1.79 8.54
6/18/2022 8:15:00 PM 18.15 64.67 0.136 7.37 1.78 8.55
6/18/2022 8:30:00 PM 18.01 64.418 0.136 7.35 5.88 8.54
6/18/2022 8:45:00 PM 17.87 64.166 0.136 7.34 1.77 8.54
6/18/2022 9:00:00 PM 17.73 63.914 0.136 7.32 1.76 8.53
6/18/2022 9:15:00 PM 17.59 63.662 0.136 7.31 2.06 8.54
6/18/2022 9:30:00 PM 17.45 63.41 0.136 7.3 5.75 8.55
6/18/2022 9:45:00 PM 17.33 63.194 0.136 7.3 1.92 8.56
6/18/2022 10:00:00 PM 17.22 62.996 0.136 7.29 2.21 8.59
6/18/2022 10:15:00 PM 17.1 62.78 0.136 7.29 1.98 8.61
6/18/2022 10:30:00 PM 16.99 62.582 0.136 7.33 1.99 8.63
6/18/2022 10:45:00 PM 16.87 62.366 0.136 7.27 1.93 8.66
6/18/2022 11:00:00 PM 16.74 62.132 0.136 7.28 1.88 8.68
6/18/2022 11:15:00 PM 16.62 61.916 0.136 7.33 1.89 8.71
6/18/2022 11:30:00 PM 16.49 61.682 0.136 7.27 1.89 8.73
6/18/2022 11:45:00 PM 16.37 61.466 0.136 7.28 2.11 8.76
6/19/2022 12:00:00 AM 16.24 61.232 0.136 7.28 6.53 8.79
6/19/2022 12:15:00 AM 16.12 61.016 0.136 7.28 6.37 8.81
6/19/2022 12:30:00 AM 16 60.8 0.136 7.28 1.88 8.83
6/19/2022 12:45:00 AM 15.87 60.566 0.136 7.28 1.75 8.87
6/19/2022 1:00:00 AM 15.74 60.332 0.136 7.28 1.8 8.9
6/19/2022 1:15:00 AM 15.61 60.098 0.136 7.28 6.13 8.93
6/19/2022 1:30:00 AM 15.51 59.918 0.136 7.28 1.78 8.95
6/19/2022 1:45:00 AM 15.4 59.72 0.136 7.28 1.63 8.97
6/19/2022 2:00:00 AM 15.29 59.522 0.136 7.29 1.92 9
6/19/2022 2:15:00 AM 15.17 59.306 0.136 7.32 1.91 9.03
6/19/2022 2:30:00 AM 15.09 59.162 0.136 7.27 1.83 9.06
6/19/2022 2:45:00 AM 14.99 58.982 0.136 7.28 1.76 9.08
6/19/2022 3:00:00 AM 14.88 58.784 0.136 7.32 1.82 9.11
6/19/2022 3:15:00 AM 14.77 58.586 0.136 7.29 1.79 9.13
6/19/2022 3:30:00 AM 14.65 58.37 0.136 7.27 1.57 9.16
6/19/2022 3:45:00 AM 14.52 58.136 0.136 7.32 1.63 9.2
6/19/2022 4:00:00 AM 14.4 57.92 0.136 7.27 5.83 9.23
6/19/2022 4:15:00 AM 14.27 57.686 0.136 7.31 1.66 9.27
6/19/2022 4:30:00 AM 14.13 57.434 0.136 7.28 1.74 9.3
6/19/2022 4:45:00 AM 14.01 57.218 0.136 7.3 1.97 9.34
6/19/2022 5:00:00 AM 13.92 57.056 0.136 7.27 6.07 9.36
6/19/2022 5:15:00 AM 13.82 56.876 0.136 7.29 2.03 9.39
6/19/2022 5:30:00 AM 13.74 56.732 0.136 7.27 1.86 9.41
6/19/2022 5:45:00 AM 13.65 56.57 0.136 7.28 1.75 9.44
6/19/2022 6:00:00 AM 13.57 56.426 0.136 7.28 1.54 9.49
6/19/2022 6:15:00 AM 13.48 56.264 0.136 7.29 1.51 9.55
6/19/2022 6:30:00 AM 13.42 56.156 0.136 7.33 1.48 9.59
6/19/2022 6:45:00 AM 13.36 56.048 0.136 7.31 1.48 9.66
6/19/2022 7:00:00 AM 13.32 55.976 0.135 7.33 1.61 9.71
6/19/2022 7:15:00 AM 13.3 55.94 0.135 7.34 1.5 9.78
6/19/2022 7:30:00 AM 13.33 55.994 0.135 7.36 1.48 9.85
6/19/2022 7:45:00 AM 13.41 56.138 0.135 7.39 1.47 9.92
6/19/2022 8:00:00 AM 13.52 56.336 0.135 7.42 1.48 9.97
6/19/2022 8:15:00 AM 13.6 56.48 0.135 7.47 1.48 9.99
6/19/2022 8:30:00 AM 13.71 56.678 0.135 7.45 1.4 10.01
6/19/2022 8:45:00 AM 13.83 56.894 0.135 7.46 1.4 10.01
6/19/2022 9:00:00 AM 13.96 57.128 0.135 7.5 1.39 10.01
6/19/2022 9:15:00 AM 14.1 57.38 0.134 7.49 1.59 10.02
6/19/2022 9:30:00 AM 14.28 57.704 0.134 7.5 1.4 10.01
6/19/2022 9:45:00 AM 14.45 58.01 0.134 7.51 1.55 10
6/19/2022 10:00:00 AM 14.63 58.334 0.134 7.52 1.39 9.98
6/19/2022 10:15:00 AM 14.83 58.694 0.134 7.53 1.38 9.95
6/19/2022 10:30:00 AM 15.07 59.126 0.134 7.58 1.38 9.92
6/19/2022 10:45:00 AM 15.33 59.594 0.134 7.59 1.36 9.88
6/19/2022 11:00:00 AM 15.63 60.134 0.134 7.55 5.59 9.84
6/19/2022 11:15:00 AM 15.95 60.71 0.134 7.61 1.46 9.78
6/19/2022 11:30:00 AM 16.31 61.358 0.134 7.58 1.44 9.73
6/19/2022 11:45:00 AM 16.68 62.024 0.134 7.62 1.55 9.67
6/19/2022 12:00:00 PM 17.06 62.708 0.134 7.59 1.59 9.59
6/19/2022 12:15:00 PM 17.49 63.482 0.134 7.6 1.46 9.53
6/19/2022 12:30:00 PM 17.91 64.238 0.134 7.64 1.31 9.44
6/19/2022 12:45:00 PM 18.29 64.922 0.134 7.61 1.55 9.37
6/19/2022 1:00:00 PM 18.68 65.624 0.134 7.63 1.5 9.31
6/19/2022 1:15:00 PM 19.04 66.272 0.134 7.69 1.51 9.25
6/19/2022 1:30:00 PM 19.38 66.884 0.134 7.64 1.48 9.2
6/19/2022 1:45:00 PM 19.7 67.46 0.134 7.67 1.56 9.15
6/19/2022 2:00:00 PM 20.04 68.07201 0.134 7.68 1.38 9.09
6/19/2022 2:15:00 PM 20.33 68.594 0.134 7.71 1.59 9.03
6/19/2022 2:30:00 PM 20.59 69.062 0.134 7.75 1.53 8.99
6/19/2022 2:45:00 PM 20.78 69.404 0.134 7.72 1.53 8.96
6/19/2022 3:00:00 PM 21.07 69.926 0.134 7.71 1.5 8.91
6/19/2022 3:15:00 PM 21.26 70.268 0.134 7.73 1.71 8.89
6/19/2022 3:30:00 PM 21.39 70.502 0.134 7.77 1.55 8.86
6/19/2022 3:45:00 PM 21.41 70.538 0.134 7.74 1.57 8.84
6/19/2022 4:00:00 PM 21.55 70.79 0.134 7.76 1.63 8.82
6/19/2022 4:15:00 PM 21.61 70.898 0.134 7.75 1.67 8.79
6/19/2022 4:30:00 PM 21.68 71.024 0.134 7.8 1.59 8.79
6/19/2022 4:45:00 PM 21.63 70.934 0.134 7.77 5.66 8.76
6/19/2022 5:00:00 PM 21.48 70.664 0.134 7.76 1.66 8.76
6/19/2022 5:15:00 PM 21.39 70.502 0.134 7.79 1.89 8.76
6/19/2022 5:30:00 PM 21.21 70.17799 0.134 7.78 1.65 8.78
6/19/2022 5:45:00 PM 20.95 69.71 0.134 7.75 1.73 8.76
6/19/2022 6:00:00 PM 20.7 69.26 0.134 7.66 1.69 8.71
6/19/2022 6:15:00 PM 20.5 68.9 0.135 7.69 1.64 8.67
6/19/2022 6:30:00 PM 20.25 68.45 0.135 7.61 1.62 8.62
6/19/2022 6:45:00 PM 20 68 0.135 7.55 1.67 8.58
6/19/2022 7:00:00 PM 19.79 67.622 0.135 7.5 1.62 8.53
6/19/2022 7:15:00 PM 19.63 67.334 0.135 7.5 1.9 8.51
6/19/2022 7:30:00 PM 19.44 66.992 0.135 7.45 1.84 8.49
6/19/2022 7:45:00 PM 19.21 66.578 0.135 7.42 1.78 8.47
6/19/2022 8:00:00 PM 18.97 66.146 0.136 7.44 1.95 8.45
6/19/2022 8:15:00 PM 18.75 65.75 0.136 7.37 1.68 8.45
6/19/2022 8:30:00 PM 18.57 65.426 0.136 7.35 1.67 8.44
6/19/2022 8:45:00 PM 18.41 65.138 0.136 7.39 1.66 8.44
6/19/2022 9:00:00 PM 18.25 64.85 0.136 7.32 1.6 8.43
6/19/2022 9:15:00 PM 18.07 64.526 0.136 7.3 1.74 8.44
6/19/2022 9:30:00 PM 17.89 64.202 0.136 7.3 2 8.46
6/19/2022 9:45:00 PM 17.71 63.878 0.136 7.29 1.69 8.48
6/19/2022 10:00:00 PM 17.52 63.536 0.136 7.29 6.48 8.52
6/19/2022 10:15:00 PM 17.33 63.194 0.136 7.28 2.83 8.57
6/19/2022 10:30:00 PM 17.16 62.888 0.136 7.33 1.9 8.57
6/19/2022 10:45:00 PM 17 62.6 0.136 7.32 1.73 8.62
6/19/2022 11:00:00 PM 16.86 62.348 0.135 7.26 2.91 8.65
6/19/2022 11:15:00 PM 16.72 62.096 0.135 7.27 1.87 8.68
6/19/2022 11:30:00 PM 16.58 61.844 0.135 7.3 1.78 8.72
6/19/2022 11:45:00 PM 16.45 61.61 0.135 7.27 5.78 8.75
6/20/2022 12:00:00 AM 16.31 61.358 0.135 7.28 1.85 8.77
6/20/2022 12:15:00 AM 16.17 61.106 0.135 7.33 1.55 8.8
6/20/2022 12:30:00 AM 16.03 60.854 0.135 7.26 5.82 8.85
6/20/2022 12:45:00 AM 15.9 60.62 0.135 7.33 1.68 8.88
6/20/2022 1:00:00 AM 15.76 60.368 0.135 7.27 1.69 8.9
6/20/2022 1:15:00 AM 15.63 60.134 0.135 7.27 1.66 8.93
6/20/2022 1:30:00 AM 15.5 59.9 0.135 7.3 1.67 8.96
6/20/2022 1:45:00 AM 15.35 59.63 0.135 7.26 1.98 8.99
6/20/2022 2:00:00 AM 15.21 59.378 0.135 7.27 1.71 9.04
6/20/2022 2:15:00 AM 15.07 59.126 0.135 7.27 1.9 9.06
6/20/2022 2:30:00 AM 14.93 58.874 0.135 7.31 1.65 9.1
6/20/2022 2:45:00 AM 14.78 58.604 0.135 7.29 1.65 9.15
6/20/2022 3:00:00 AM 14.64 58.352 0.135 7.28 1.66 9.18
6/20/2022 3:15:00 AM 14.49 58.082 0.135 7.26 1.57 9.22
6/20/2022 3:30:00 AM 14.35 57.83 0.135 7.29 1.59 9.26
6/20/2022 3:45:00 AM 14.21 57.578 0.135 7.29 1.57 9.3
6/20/2022 4:00:00 AM 14.07 57.326 0.136 7.26 2.65 9.34
6/20/2022 4:15:00 AM 13.99 57.182 0.135 7.28 1.52 9.37
6/20/2022 4:30:00 AM 13.92 57.056 0.135 7.27 1.64 9.39
6/20/2022 4:45:00 AM 13.86 56.948 0.135 7.33 1.69 9.41
6/20/2022 5:00:00 AM 13.81 56.858 0.135 7.28 1.59 9.42
6/20/2022 5:15:00 AM 13.75 56.75 0.135 7.26 1.56 9.44
6/20/2022 5:30:00 AM 13.69 56.642 0.135 7.31 1.61 9.45
6/20/2022 5:45:00 AM 13.65 56.57 0.135 7.25 1.66 9.48
6/20/2022 6:00:00 AM 13.6 56.48 0.135 7.27 1.62 9.52
6/20/2022 6:15:00 AM 13.57 56.426 0.135 7.28 1.56 9.56
6/20/2022 6:30:00 AM 13.56 56.408 0.135 7.35 1.54 9.64
6/20/2022 6:45:00 AM 13.56 56.408 0.135 7.31 1.41 9.73
6/20/2022 7:00:00 AM 13.57 56.426 0.135 7.34 1.44 9.82
6/20/2022 7:15:00 AM 13.6 56.48 0.135 7.37 1.4 9.91
6/20/2022 7:30:00 AM 13.62 56.516 0.134 7.4 1.61 9.98
6/20/2022 7:45:00 AM 13.69 56.642 0.134 7.42 1.53 10.03
6/20/2022 8:00:00 AM 13.81 56.858 0.134 7.5 1.44 10.06
6/20/2022 8:15:00 AM 13.95 57.11 0.134 7.46 1.39 10.07
6/20/2022 8:30:00 AM 14.08 57.344 0.134 7.5 1.37 10.07
6/20/2022 8:45:00 AM 14.17 57.506 0.134 7.5 1.42 10.07
6/20/2022 9:00:00 AM 14.38 57.884 0.134 7.55 1.29 10.14
6/20/2022 9:15:00 AM 14.56 58.208 0.134 7.59 1.4 10.14
6/20/2022 9:30:00 AM 14.81 58.658 0.134 7.57 1.47 10.11
6/20/2022 9:45:00 AM 15.09 59.162 0.134 7.63 1.43 10.05
6/20/2022 10:00:00 AM 15.32 59.576 0.134 7.58 1.37 9.99
6/20/2022 10:15:00 AM 15.53 59.954 0.134 7.58 1.23 9.95
6/20/2022 10:30:00 AM 15.76 60.368 0.134 7.63 1.35 9.91
6/20/2022 10:45:00 AM 16.02 60.836 0.134 7.58 1.48 9.86
6/20/2022 11:00:00 AM 16.34 61.412 0.133 7.65 1.4 9.81
6/20/2022 11:15:00 AM 16.68 62.024 0.133 7.61 1.37 9.74
6/20/2022 11:30:00 AM 17.04 62.672 0.133 7.65 1.26 9.69
6/20/2022 11:45:00 AM 17.43 63.374 0.133 7.63 1.43 9.64
6/20/2022 12:00:00 PM 17.83 64.094 0.133 7.64 1.41 9.56
6/20/2022 12:15:00 PM 18.25 64.85 0.133 7.66 1.37 9.48
6/20/2022 12:30:00 PM 18.65 65.57 0.133 7.7 1.37 9.41
6/20/2022 12:45:00 PM 19.05 66.29 0.133 7.67 1.35 9.34
6/20/2022 1:00:00 PM 19.46 67.028 0.133 7.74 1.54 9.27
6/20/2022 1:15:00 PM 19.8 67.64 0.133 7.68 1.56 9.22
6/20/2022 1:30:00 PM 20.16 68.288 0.133 7.72 1.54 9.16
6/20/2022 1:45:00 PM 20.51 68.918 0.133 7.72 1.41 9.09
6/20/2022 2:00:00 PM 20.83 69.494 0.133 7.75 1.52 9.04
6/20/2022 2:15:00 PM 21.13 70.034 0.133 7.78 1.41 9
6/20/2022 2:30:00 PM 21.38 70.484 0.133 7.8 1.7 8.96
6/20/2022 2:45:00 PM 21.63 70.934 0.133 7.83 1.48 8.92
6/20/2022 3:00:00 PM 21.85 71.33 0.133 7.79 1.68 8.88
6/20/2022 3:15:00 PM 22.06 71.708 0.133 7.82 1.34 8.87
6/20/2022 3:30:00 PM 22.19 71.942 0.133 7.87 1.59 8.85
6/20/2022 3:45:00 PM 22.21 71.978 0.133 7.87 1.6 8.83
6/20/2022 4:00:00 PM 22.18 71.924 0.133 7.88 1.67 8.84
6/20/2022 4:15:00 PM 22.16 71.888 0.133 7.91 1.8 8.85
6/20/2022 4:30:00 PM 22.13 71.834 0.133 7.91 1.74 8.85
6/20/2022 4:45:00 PM 22.09 71.762 0.133 7.92 1.62 8.85
6/20/2022 5:00:00 PM 21.99 71.582 0.133 7.9 1.74 8.82
6/20/2022 5:15:00 PM 21.82 71.276 0.133 7.86 2 8.79
6/20/2022 5:30:00 PM 21.67 71.006 0.133 7.86 1.77 8.74
6/20/2022 5:45:00 PM 21.56 70.808 0.133 7.79 1.58 8.74
6/20/2022 6:00:00 PM 21.41 70.538 0.133 7.79 1.78 8.68
6/20/2022 6:15:00 PM 21.27 70.286 0.134 7.73 1.81 8.64
6/20/2022 6:30:00 PM 21.09 69.962 0.134 7.64 1.71 8.59
6/20/2022 6:45:00 PM 20.92 69.656 0.134 7.6 1.63 8.53
6/20/2022 7:00:00 PM 20.77 69.386 0.134 7.55 1.68 8.47
6/20/2022 7:15:00 PM 20.63 69.134 0.135 7.56 1.66 8.41
6/20/2022 7:30:00 PM 20.48 68.864 0.135 7.47 1.61 8.37
6/20/2022 7:45:00 PM 20.26 68.468 0.135 7.49 1.66 8.33
6/20/2022 8:00:00 PM 20.04 68.07201 0.135 7.45 1.72 8.31
6/20/2022 8:15:00 PM 19.85 67.73 0.135 7.38 1.65 8.28
6/20/2022 8:30:00 PM 19.67 67.406 0.135 7.35 1.81 8.26
6/20/2022 8:45:00 PM 19.5 67.1 0.135 7.34 1.85 8.24
6/20/2022 9:00:00 PM 19.36 66.848 0.135 7.32 6.05 8.22
6/20/2022 9:15:00 PM 19.21 66.578 0.135 7.29 1.75 8.21
6/20/2022 9:30:00 PM 19.06 66.308 0.136 7.31 1.87 8.23
6/20/2022 9:45:00 PM 18.9 66.02 0.136 7.28 1.9 8.25
6/20/2022 10:00:00 PM 18.74 65.732 0.136 7.28 2.05 8.27
6/20/2022 10:15:00 PM 18.59 65.462 0.136 7.3 1.85 8.3
6/20/2022 10:30:00 PM 18.44 65.192 0.136 7.3 2.02 8.33
6/20/2022 10:45:00 PM 18.3 64.94 0.136 7.25 1.98 8.36
6/20/2022 11:00:00 PM 18.17 64.706 0.136 7.3 1.79 8.39
6/20/2022 11:15:00 PM 18.05 64.49 0.136 7.26 1.88 8.42
6/20/2022 11:30:00 PM 17.94 64.292 0.136 7.25 1.74 8.44
6/20/2022 11:45:00 PM 17.83 64.094 0.136 7.26 6.44 8.47
6/21/2022 12:00:00 AM 17.72 63.896 0.135 7.26 1.99 8.5
6/21/2022 12:15:00 AM 17.63 63.734 0.135 7.25 5.98 8.52
6/21/2022 12:30:00 AM 17.52 63.536 0.135 7.27 1.83 8.54
6/21/2022 12:45:00 AM 17.43 63.374 0.135 7.26 5.91 8.57
6/21/2022 1:00:00 AM 17.35 63.23 0.135 7.25 1.92 8.58
6/21/2022 1:15:00 AM 17.27 63.086 0.135 7.27 2.11 8.6
6/21/2022 1:30:00 AM 17.2 62.96 0.135 7.29 1.89 8.61
6/21/2022 1:45:00 AM 17.14 62.852 0.135 7.24 2.08 8.63
6/21/2022 2:00:00 AM 17.07 62.726 0.135 7.25 1.96 8.65
6/21/2022 2:15:00 AM 17.01 62.618 0.135 7.25 1.83 8.66
6/21/2022 2:30:00 AM 16.95 62.51 0.135 7.25 1.88 8.67
6/21/2022 2:45:00 AM 16.9 62.42 0.136 7.25 1.94 8.69
6/21/2022 3:00:00 AM 16.84 62.312 0.136 7.26 1.84 8.7
6/21/2022 3:15:00 AM 16.79 62.222 0.136 7.25 1.91 8.71
6/21/2022 3:30:00 AM 16.74 62.132 0.136 7.25 1.83 8.72
6/21/2022 3:45:00 AM 16.7 62.06 0.135 7.25 1.74 8.73
6/21/2022 4:00:00 AM 16.66 61.988 0.135 7.28 1.92 8.74
6/21/2022 4:15:00 AM 16.61 61.898 0.135 7.24 1.79 8.75
6/21/2022 4:30:00 AM 16.58 61.844 0.135 7.3 1.87 8.76
6/21/2022 4:45:00 AM 16.54 61.772 0.135 7.25 1.88 8.77
6/21/2022 5:00:00 AM 16.5 61.7 0.135 7.25 2.08 8.78
6/21/2022 5:15:00 AM 16.47 61.646 0.135 7.24 2.81 8.79
6/21/2022 5:30:00 AM 16.43 61.574 0.135 7.25 2.1 8.79
6/21/2022 5:45:00 AM 16.4 61.52 0.135 7.24 1.89 8.81
6/21/2022 6:00:00 AM 16.36 61.448 0.135 7.25 1.97 8.84
6/21/2022 6:15:00 AM 16.33 61.394 0.135 7.27 1.83 8.9
6/21/2022 6:30:00 AM 16.31 61.358 0.135 7.27 5.86 8.94
6/21/2022 6:45:00 AM 16.29 61.322 0.135 7.28 1.89 9.02
6/21/2022 7:00:00 AM 16.28 61.304 0.135 7.3 1.75 9.07
6/21/2022 7:15:00 AM 16.28 61.304 0.135 7.34 1.87 9.1
6/21/2022 7:30:00 AM 16.27 61.286 0.134 7.31 1.63 9.12
6/21/2022 7:45:00 AM 16.27 61.286 0.134 7.33 5.62 9.14
6/21/2022 8:00:00 AM 16.29 61.322 0.134 7.35 2.05 9.22
6/21/2022 8:15:00 AM 16.3 61.34 0.134 7.41 1.83 9.27
6/21/2022 8:30:00 AM 16.32 61.376 0.134 7.37 1.71 9.3
6/21/2022 8:45:00 AM 16.32 61.376 0.134 7.41 1.65 9.29
6/21/2022 9:00:00 AM 16.35 61.43 0.134 7.4 1.62 9.36
6/21/2022 9:15:00 AM 16.41 61.538 0.134 7.45 1.72 9.46
6/21/2022 9:30:00 AM 16.52 61.736 0.134 7.48 1.72 9.58
6/21/2022 9:45:00 AM 16.65 61.97 0.133 7.58 2.16 9.67
6/21/2022 10:00:00 AM 16.77 62.186 0.133 7.61 1.69 9.71
6/21/2022 10:15:00 AM 16.89 62.402 0.133 7.64 1.61 9.75
6/21/2022 10:30:00 AM 17.15 62.87 0.133 7.74 1.72 9.8
6/21/2022 10:45:00 AM 17.41 63.338 0.133 7.72 1.65 9.81
6/21/2022 11:00:00 AM 17.73 63.914 0.133 7.77 1.59 9.79
6/21/2022 11:15:00 AM 17.76 63.968 0.133 7.79 1.74 9.72
6/21/2022 11:30:00 AM 17.88 64.184 0.133 7.82 1.88 9.71
6/21/2022 11:45:00 AM 18.03 64.454 0.133 7.84 1.71 9.73
6/21/2022 12:00:00 PM 18.29 64.922 0.133 7.89 1.63 9.72
6/21/2022 12:15:00 PM 18.79 65.82201 0.132 7.94 1.68 9.7
6/21/2022 12:30:00 PM 18.92 66.056 0.132 7.98 1.66 9.64
6/21/2022 12:45:00 PM 19.44 66.992 0.133 7.98 1.63 9.58
6/21/2022 1:00:00 PM 19.56 67.208 0.132 7.99 1.62 9.5
6/21/2022 1:15:00 PM 19.99 67.982 0.132 8.02 1.6 9.46
6/21/2022 1:30:00 PM 20.4 68.72 0.133 8.02 1.65 9.38
6/21/2022 1:45:00 PM 20.81 69.458 0.133 7.99 1.64 9.26
6/21/2022 2:00:00 PM 21.21 70.17799 0.133 7.96 1.67 9.14
6/21/2022 2:15:00 PM 21.57 70.826 0.133 7.94 1.7 9.07
6/21/2022 2:30:00 PM 21.98 71.564 0.133 7.96 1.86 8.99
6/21/2022 2:45:00 PM 22.39 72.302 0.133 7.93 1.83 8.9
6/21/2022 3:00:00 PM 22.77 72.986 0.133 7.94 1.8 8.82
6/21/2022 3:15:00 PM 23.11 73.598 0.133 7.94 1.79 8.76
6/21/2022 3:30:00 PM 23.43 74.174 0.133 7.95 1.82 8.69
6/21/2022 3:45:00 PM 23.69 74.642 0.133 7.95 1.75 8.64
6/21/2022 4:00:00 PM 23.9 75.02 0.133 7.95 1.75 8.59
6/21/2022 4:15:00 PM 24.06 75.308 0.133 7.97 1.69 8.55
6/21/2022 4:30:00 PM 24.19 75.542 0.133 7.99 1.84 8.5
6/21/2022 4:45:00 PM 24.26 75.668 0.133 7.93 1.85 8.46
6/21/2022 5:00:00 PM 24.26 75.668 0.133 7.91 1.85 8.41
6/21/2022 5:15:00 PM 24.24 75.632 0.133 7.88 1.9 8.38
6/21/2022 5:30:00 PM 24.19 75.542 0.134 7.85 1.85 8.34
6/21/2022 5:45:00 PM 24.08 75.344 0.134 7.81 1.84 8.29
6/21/2022 6:00:00 PM 23.91 75.038 0.134 7.74 1.75 8.23
6/21/2022 6:15:00 PM 23.7 74.66 0.134 7.68 1.91 8.16
6/21/2022 6:30:00 PM 23.49 74.282 0.134 7.64 1.91 8.11
6/21/2022 6:45:00 PM 23.27 73.886 0.135 7.56 1.82 8.04
6/21/2022 7:00:00 PM 23.05 73.49 0.135 7.52 2.04 7.98
6/21/2022 7:15:00 PM 22.89 73.202 0.135 7.52 1.88 7.95
6/21/2022 7:30:00 PM 22.72 72.896 0.135 7.44 2.06 7.93
6/21/2022 7:45:00 PM 22.51 72.518 0.135 7.45 1.77 7.87
6/21/2022 8:00:00 PM 22.24 72.032 0.135 7.38 1.94 7.84
6/21/2022 8:15:00 PM 22.02 71.636 0.135 7.36 1.95 7.81
6/21/2022 8:30:00 PM 21.84 71.312 0.135 7.33 1.91 7.79
6/21/2022 8:45:00 PM 21.68 71.024 0.135 7.31 6.01 7.78
6/21/2022 9:00:00 PM 21.53 70.754 0.135 7.29 5.82 7.76
6/21/2022 9:15:00 PM 21.37 70.466 0.136 7.27 2.02 7.76
6/21/2022 9:30:00 PM 21.22 70.196 0.136 7.31 1.99 7.76
6/21/2022 9:45:00 PM 21.08 69.944 0.136 7.28 2.55 7.78
6/21/2022 10:00:00 PM 20.93 69.674 0.136 7.29 3.26 7.78
6/21/2022 10:15:00 PM 20.8 69.44 0.136 7.24 2.09 7.81
6/21/2022 10:30:00 PM 20.68 69.224 0.136 7.26 2.06 7.84
6/21/2022 10:45:00 PM 20.56 69.008 0.136 7.28 1.96 7.86
6/21/2022 11:00:00 PM 20.44 68.792 0.136 7.23 1.79 7.88
6/21/2022 11:15:00 PM 20.35 68.63 0.136 7.27 1.95 7.91
6/21/2022 11:30:00 PM 20.26 68.468 0.136 7.26 2.14 7.92
6/21/2022 11:45:00 PM 20.16 68.288 0.136 7.23 1.98 7.94
6/22/2022 12:00:00 AM 20.07 68.126 0.136 7.23 1.84 7.96
6/22/2022 12:15:00 AM 19.98 67.964 0.136 7.23 1.91 7.98
6/22/2022 12:30:00 AM 19.88 67.784 0.136 7.22 1.81 8
6/22/2022 12:45:00 AM 19.79 67.622 0.136 7.24 1.77 8.01
6/22/2022 1:00:00 AM 19.69 67.442 0.136 7.23 1.75 8.04
6/22/2022 1:15:00 AM 19.6 67.28 0.136 7.22 2.01 8.05
6/22/2022 1:30:00 AM 19.51 67.118 0.136 7.22 1.88 8.07
6/22/2022 1:45:00 AM 19.42 66.956 0.136 7.23 1.99 8.09
6/22/2022 2:00:00 AM 19.32 66.776 0.136 7.22 2 8.11
6/22/2022 2:15:00 AM 19.24 66.632 0.136 7.22 2.65 8.13
6/22/2022 2:30:00 AM 19.15 66.47 0.136 7.25 1.96 8.14
6/22/2022 2:45:00 AM 19.07 66.326 0.136 7.24 2.03 8.17
6/22/2022 3:00:00 AM 18.99 66.182 0.136 7.22 2.1 8.18
6/22/2022 3:15:00 AM 18.92 66.056 0.136 7.23 2.16 8.2
6/22/2022 3:30:00 AM 18.84 65.912 0.136 7.22 2.45 8.22
6/22/2022 3:45:00 AM 18.78 65.804 0.136 7.22 2.08 8.23
6/22/2022 4:00:00 AM 18.71 65.67799 0.136 7.22 6.04 8.25
6/22/2022 4:15:00 AM 18.64 65.552 0.136 7.22 1.97 8.26
6/22/2022 4:30:00 AM 18.57 65.426 0.136 7.21 2.25 8.27
6/22/2022 4:45:00 AM 18.51 65.318 0.136 7.21 2.08 8.29
6/22/2022 5:00:00 AM 18.45 65.21 0.136 7.21 2.25 8.3
6/22/2022 5:15:00 AM 18.4 65.12 0.136 7.23 2.02 8.31
6/22/2022 5:30:00 AM 18.35 65.03 0.136 7.22 2.08 8.33
6/22/2022 5:45:00 AM 18.3 64.94 0.136 7.21 2.14 8.35
6/22/2022 6:00:00 AM 18.26 64.868 0.136 7.22 2.14 8.4
6/22/2022 6:15:00 AM 18.22 64.796 0.136 7.23 1.93 8.46
6/22/2022 6:30:00 AM 18.19 64.742 0.136 7.26 2.1 8.53
6/22/2022 6:45:00 AM 18.17 64.706 0.136 7.27 1.98 8.61
6/22/2022 7:00:00 AM 18.16 64.688 0.136 7.31 1.85 8.7
6/22/2022 7:15:00 AM 18.15 64.67 0.136 7.35 1.96 8.77
6/22/2022 7:30:00 AM 18.16 64.688 0.136 7.32 2.1 8.83
6/22/2022 7:45:00 AM 18.16 64.688 0.135 7.36 1.85 8.89
6/22/2022 8:00:00 AM 18.18 64.724 0.135 7.37 1.71 8.95
6/22/2022 8:15:00 AM 18.21 64.778 0.135 7.39 1.82 9.02
6/22/2022 8:30:00 AM 18.3 64.94 0.135 7.45 2 9.14
6/22/2022 8:45:00 AM 18.41 65.138 0.135 7.51 2.12 9.25
6/22/2022 9:00:00 AM 18.59 65.462 0.134 7.57 1.95 9.33
6/22/2022 9:15:00 AM 18.67 65.606 0.134 7.61 1.71 9.36
6/22/2022 9:30:00 AM 18.84 65.912 0.134 7.66 1.66 9.41
6/22/2022 9:45:00 AM 19 66.2 0.134 7.7 1.83 9.43
6/22/2022 10:00:00 AM 19.4 66.92 0.134 7.75 1.72 9.42
6/22/2022 10:15:00 AM 19.69 67.442 0.134 7.78 1.72 9.41
6/22/2022 10:30:00 AM 19.86 67.748 0.134 7.82 1.65 9.36
6/22/2022 10:45:00 AM 20.12 68.216 0.134 7.84 1.72 9.35
6/22/2022 11:00:00 AM 20.13 68.234 0.134 7.86 1.8 9.34
6/22/2022 11:15:00 AM 20.19 68.342 0.133 7.87 1.8 9.31
6/22/2022 11:30:00 AM 20.34 68.612 0.133 7.94 1.73 9.35
6/22/2022 11:45:00 AM 20.49 68.882 0.133 7.95 1.76 9.27
6/22/2022 12:00:00 PM 20.69 69.242 0.133 7.97 1.84 9.23
6/22/2022 12:15:00 PM 20.91 69.638 0.133 7.99 1.78 9.21
6/22/2022 12:30:00 PM 21.37 70.466 0.133 8.05 1.82 9.23
6/22/2022 12:45:00 PM 21.53 70.754 0.133 8.06 1.73 9.17
6/22/2022 1:00:00 PM 21.84 71.312 0.133 8.11 1.95 9.15
6/22/2022 1:15:00 PM 21.99 71.582 0.133 8.14 1.63 9.13
6/22/2022 1:30:00 PM 22.02 71.636 0.133 8.14 1.66 9.03
6/22/2022 1:45:00 PM 22.34 72.212 0.133 8.19 1.77 9.06
6/22/2022 2:00:00 PM 22.53 72.554 0.133 8.21 1.74 9.05
6/22/2022 2:15:00 PM 22.82 73.076 0.133 8.21 1.73 9.02
6/22/2022 2:30:00 PM 23.11 73.598 0.133 8.23 1.8 8.97
6/22/2022 2:45:00 PM 23.38 74.084 0.133 8.23 1.8 8.89
6/22/2022 3:00:00 PM 23.66 74.588 0.133 8.28 1.81 8.83
6/22/2022 3:15:00 PM 23.95 75.11 0.133 8.22 5.41 8.79
6/22/2022 3:30:00 PM 24.15 75.47 0.133 8.23 1.84 8.71
6/22/2022 3:45:00 PM 24.3 75.74 0.133 8.25 1.76 8.68
6/22/2022 4:00:00 PM 24.26 75.668 0.133 8.14 6.07 8.49
6/22/2022 4:15:00 PM 24.18 75.524 0.132 7.97 2.22 8.23
6/22/2022 4:30:00 PM 24.06 75.308 0.13 7.76 2.52 8.06
6/22/2022 4:45:00 PM 23.8 74.84 0.127 7.6 3.38 7.95
6/22/2022 5:00:00 PM 23.54 74.372 0.127 7.5 3.39 7.83
6/22/2022 5:15:00 PM 23.43 74.174 0.127 7.54 2.97 8.05
6/22/2022 5:30:00 PM 23.34 74.012 0.128 7.59 3.13 8.18
6/22/2022 5:45:00 PM 23.19 73.742 0.128 7.56 3.09 8.02
6/22/2022 6:00:00 PM 23.06 73.508 0.128 7.45 2.76 7.89
6/22/2022 6:15:00 PM 22.93 73.274 0.127 7.44 2.66 7.83
6/22/2022 6:30:00 PM 22.72 72.896 0.128 7.37 2.8 7.77
6/22/2022 6:45:00 PM 22.5 72.5 0.128 7.37 2.72 7.77
6/22/2022 7:00:00 PM 22.33 72.194 0.129 7.37 3.05 7.83
6/22/2022 7:15:00 PM 22.19 71.942 0.129 7.34 2.74 7.81
6/22/2022 7:30:00 PM 22.07 71.726 0.129 7.32 2.57 7.77
6/22/2022 7:45:00 PM 21.95 71.51 0.129 7.3 2.93 7.73
6/22/2022 8:00:00 PM 21.81 71.258 0.129 7.32 3.37 7.7
6/22/2022 8:15:00 PM 21.52 70.736 0.122 7.27 9.65 7.86
6/22/2022 8:30:00 PM 21.22 70.196 0.116 7.21 19.11 7.86
6/22/2022 8:45:00 PM 20.97 69.746 0.112 7.22 21.59 7.88
6/22/2022 9:00:00 PM 20.78 69.404 0.111 7.13 31.25 7.84
6/22/2022 9:15:00 PM 20.63 69.134 0.113 7.13 20.6 7.83
6/22/2022 9:30:00 PM 20.54 68.972 0.115 7.14 14.69 7.86
6/22/2022 9:45:00 PM 20.45 68.81 0.116 7.12 11.75 7.86
6/22/2022 10:00:00 PM 20.39 68.702 0.117 7.13 13.71 7.88
6/22/2022 10:15:00 PM 20.31 68.558 0.119 7.13 11.41 7.89
6/22/2022 10:30:00 PM 20.24 68.432 0.121 7.14 12.65 7.92
6/22/2022 10:45:00 PM 20.15 68.27 0.12 7.18 12.11 7.94
6/22/2022 11:00:00 PM 20.05 68.09 0.119 7.14 10.7 7.97
6/22/2022 11:15:00 PM 19.94 67.892 0.119 7.16 10.2 8
6/22/2022 11:30:00 PM 19.85 67.73 0.119 7.15 9.84 8.03
6/22/2022 11:45:00 PM 19.74 67.532 0.119 7.18 9.21 8.06
6/23/2022 12:00:00 AM 19.64 67.352 0.119 7.16 12.71 8.1
6/23/2022 12:15:00 AM 19.52 67.136 0.118 7.2 8.63 8.12
6/23/2022 12:30:00 AM 19.42 66.956 0.118 7.16 8.41 8.15
6/23/2022 12:45:00 AM 19.33 66.794 0.117 7.23 7.97 8.18
6/23/2022 1:00:00 AM 19.23 66.614 0.117 7.16 7.67 8.19
6/23/2022 1:15:00 AM 19.15 66.47 0.117 7.17 7.27 8.21
6/23/2022 1:30:00 AM 19.07 66.326 0.117 7.17 7.74 8.23
6/23/2022 1:45:00 AM 19 66.2 0.117 7.18 7.81 8.26
6/23/2022 2:00:00 AM 18.94 66.092 0.117 7.18 7.25 8.27
6/23/2022 2:15:00 AM 18.87 65.966 0.118 7.17 7.03 8.27
6/23/2022 2:30:00 AM 18.82 65.876 0.118 7.18 7 8.29
6/23/2022 2:45:00 AM 18.77 65.786 0.119 7.19 6.59 8.31
6/23/2022 3:00:00 AM 18.72 65.696 0.119 7.18 6.01 8.32
6/23/2022 3:15:00 AM 18.67 65.606 0.12 7.19 5.53 8.33
6/23/2022 3:30:00 AM 18.63 65.534 0.12 7.25 5.13 8.34
6/23/2022 3:45:00 AM 18.58 65.444 0.121 7.18 5.17 8.35
6/23/2022 4:00:00 AM 18.54 65.372 0.121 7.2 4.57 8.37
6/23/2022 4:15:00 AM 18.5 65.3 0.122 7.2 4.63 8.39
6/23/2022 4:30:00 AM 18.46 65.228 0.122 7.24 4.67 8.41
6/23/2022 4:45:00 AM 18.42 65.156 0.123 7.21 4.61 8.42
6/23/2022 5:00:00 AM 18.38 65.084 0.123 7.24 4.76 8.44
6/23/2022 5:15:00 AM 18.35 65.03 0.124 7.23 4.57 8.45
6/23/2022 5:30:00 AM 18.32 64.976 0.125 7.24 4.88 8.46
6/23/2022 5:45:00 AM 18.3 64.94 0.126 7.22 4.72 8.47
6/23/2022 6:00:00 AM 18.28 64.904 0.127 7.24 4.45 8.49
6/23/2022 6:15:00 AM 18.26 64.868 0.128 7.24 4.09 8.51
6/23/2022 6:30:00 AM 18.25 64.85 0.128 7.26 3.88 8.55
6/23/2022 6:45:00 AM 18.23 64.814 0.129 7.27 3.78 8.59
6/23/2022 7:00:00 AM 18.22 64.796 0.13 7.3 3.84 8.64
6/23/2022 7:15:00 AM 18.21 64.778 0.13 7.29 3.64 8.65
6/23/2022 7:30:00 AM 18.19 64.742 0.131 7.29 3.28 8.64
6/23/2022 7:45:00 AM 18.17 64.706 0.131 7.3 3.45 8.66
6/23/2022 8:00:00 AM 18.16 64.688 0.132 7.32 3.03 8.72
6/23/2022 8:15:00 AM 18.16 64.688 0.132 7.34 3.07 8.8
6/23/2022 8:30:00 AM 18.17 64.706 0.132 7.4 2.78 8.88
6/23/2022 8:45:00 AM 18.18 64.724 0.132 7.38 6.86 8.95
6/23/2022 9:00:00 AM 18.19 64.742 0.132 7.43 2.81 9.01
6/23/2022 9:15:00 AM 18.22 64.796 0.132 7.45 2.72 9.09
6/23/2022 9:30:00 AM 18.23 64.814 0.133 7.47 2.69 9.1
6/23/2022 9:45:00 AM 18.25 64.85 0.133 7.49 2.5 9.15
6/23/2022 10:00:00 AM 18.3 64.94 0.133 7.52 2.55 9.22
6/23/2022 10:15:00 AM 18.39 65.102 0.133 7.58 2.54 9.33
6/23/2022 10:30:00 AM 18.46 65.228 0.133 7.62 2.53 9.36
6/23/2022 10:45:00 AM 18.53 65.354 0.133 7.64 2.36 9.38
6/23/2022 11:00:00 AM 18.52 65.336 0.133 7.62 2.41 9.28
6/23/2022 11:15:00 AM 18.6 65.48 0.133 7.64 2.23 9.34
6/23/2022 11:30:00 AM 18.74 65.732 0.133 7.7 2.22 9.43
6/23/2022 11:45:00 AM 18.91 66.038 0.133 7.73 2.2 9.44
6/23/2022 12:00:00 PM 19.1 66.38 0.134 7.8 2.17 9.45
6/23/2022 12:15:00 PM 19.38 66.884 0.134 7.78 2.16 9.43
6/23/2022 12:30:00 PM 19.71 67.478 0.134 7.87 2.11 9.44
6/23/2022 12:45:00 PM 19.95 67.91 0.134 7.82 2.19 9.36
6/23/2022 1:00:00 PM 20.24 68.432 0.134 7.83 2.07 9.32
6/23/2022 1:15:00 PM 20.59 69.062 0.134 7.84 2.12 9.28
6/23/2022 1:30:00 PM 20.89 69.602 0.135 7.91 2.03 9.23
6/23/2022 1:45:00 PM 21.13 70.034 0.135 7.89 2.04 9.21
6/23/2022 2:00:00 PM 21.4 70.52 0.135 7.96 6.17 9.21
6/23/2022 2:15:00 PM 21.72 71.096 0.135 7.94 2.02 9.11
6/23/2022 2:30:00 PM 22.01 71.618 0.135 7.94 1.96 9.05
6/23/2022 2:45:00 PM 22.27 72.086 0.136 7.94 2.29 8.98
6/23/2022 3:00:00 PM 22.5 72.5 0.136 7.94 2.16 8.93
6/23/2022 3:15:00 PM 22.65 72.77 0.136 7.96 2.3 8.93
6/23/2022 3:30:00 PM 22.79 73.022 0.136 7.97 2.42 8.92
6/23/2022 3:45:00 PM 22.87 73.166 0.136 7.99 2.09 8.87
6/23/2022 4:00:00 PM 22.92 73.256 0.137 8.03 2.27 8.86
6/23/2022 4:15:00 PM 22.87 73.166 0.137 7.99 6.35 8.85
6/23/2022 4:30:00 PM 22.6 72.68 0.137 7.94 2.23 8.81
6/23/2022 4:45:00 PM 22.44 72.392 0.137 7.93 2.13 8.81
6/23/2022 5:00:00 PM 22.42 72.356 0.137 7.91 2.18 8.79
6/23/2022 5:15:00 PM 22.43 72.374 0.137 7.88 2.07 8.74
6/23/2022 5:30:00 PM 22.39 72.302 0.137 7.84 2.19 8.69
6/23/2022 5:45:00 PM 22.21 71.978 0.137 7.78 2.32 8.61
6/23/2022 6:00:00 PM 22.05 71.69 0.138 7.74 2.13 8.58
6/23/2022 6:15:00 PM 21.9 71.42 0.138 7.7 2.13 8.5
6/23/2022 6:30:00 PM 21.7 71.06 0.138 7.62 2.17 8.43
6/23/2022 6:45:00 PM 21.54 70.772 0.138 7.64 2.32 8.43
6/23/2022 7:00:00 PM 21.43 70.574 0.138 7.6 2.05 8.4
6/23/2022 7:15:00 PM 21.28 70.304 0.138 7.55 2.16 8.39
6/23/2022 7:30:00 PM 21.14 70.052 0.138 7.51 2.11 8.32
6/23/2022 7:45:00 PM 21 69.8 0.138 7.49 2.12 8.33
6/23/2022 8:00:00 PM 20.87 69.566 0.138 7.46 2.08 8.26
6/23/2022 8:15:00 PM 20.74 69.332 0.138 7.43 2.04 8.22
6/23/2022 8:30:00 PM 20.61 69.098 0.138 7.43 2.09 8.18
6/23/2022 8:45:00 PM 20.48 68.864 0.138 7.37 2.09 8.13
6/23/2022 9:00:00 PM 20.35 68.63 0.138 7.35 2.13 8.11
6/23/2022 9:15:00 PM 20.23 68.414 0.138 7.34 2.29 8.09
6/23/2022 9:30:00 PM 20.11 68.198 0.138 7.32 2.72 8.09
6/23/2022 9:45:00 PM 19.99 67.982 0.138 7.32 2.5 8.1
6/23/2022 10:00:00 PM 19.88 67.784 0.138 7.3 2.31 8.11
6/23/2022 10:15:00 PM 19.77 67.586 0.138 7.29 2.45 8.13
6/23/2022 10:30:00 PM 19.67 67.406 0.138 7.32 2.34 8.14
6/23/2022 10:45:00 PM 19.58 67.244 0.138 7.28 2.44 8.16
6/23/2022 11:00:00 PM 19.49 67.082 0.138 7.28 2.35 8.18
6/23/2022 11:15:00 PM 19.41 66.938 0.138 7.28 2.48 8.19
6/23/2022 11:30:00 PM 19.32 66.776 0.138 7.28 2.23 8.21
6/23/2022 11:45:00 PM 19.25 66.65 0.138 7.28 2.47 8.23
6/24/2022 12:00:00 AM 19.17 66.506 0.138 7.27 7.01 8.25
6/24/2022 12:15:00 AM 19.1 66.38 0.138 7.27 2.2 8.26
6/24/2022 12:30:00 AM 19.03 66.254 0.138 7.33 2.32 8.28
6/24/2022 12:45:00 AM 18.97 66.146 0.138 7.26 2.45 8.3
6/24/2022 1:00:00 AM 18.91 66.038 0.138 7.28 2.13 8.31
6/24/2022 1:15:00 AM 18.84 65.912 0.138 7.28 2.16 8.31
6/24/2022 1:30:00 AM 18.77 65.786 0.138 7.28 2.18 8.33
6/24/2022 1:45:00 AM 18.71 65.67799 0.138 7.27 1.99 8.34
6/24/2022 2:00:00 AM 18.65 65.57 0.139 7.27 2.14 8.35
6/24/2022 2:15:00 AM 18.6 65.48 0.139 7.27 2.67 8.37
6/24/2022 2:30:00 AM 18.55 65.39 0.139 7.27 2.17 8.37
6/24/2022 2:45:00 AM 18.51 65.318 0.139 7.27 2.25 8.38
6/24/2022 3:00:00 AM 18.46 65.228 0.139 7.28 2.43 8.4
6/24/2022 3:15:00 AM 18.42 65.156 0.139 7.31 2.22 8.4
6/24/2022 3:30:00 AM 18.38 65.084 0.139 7.26 2 8.41
6/24/2022 3:45:00 AM 18.33 64.994 0.139 7.26 2.08 8.42
6/24/2022 4:00:00 AM 18.29 64.922 0.139 7.27 2.08 8.43
6/24/2022 4:15:00 AM 18.26 64.868 0.139 7.26 2.15 8.43
6/24/2022 4:30:00 AM 18.22 64.796 0.139 7.26 2.09 8.45
6/24/2022 4:45:00 AM 18.19 64.742 0.139 7.29 2.18 8.45
6/24/2022 5:00:00 AM 18.16 64.688 0.139 7.26 2.18 8.46
6/24/2022 5:15:00 AM 18.13 64.634 0.139 7.27 2.14 8.46
6/24/2022 5:30:00 AM 18.11 64.598 0.139 7.26 6.22 8.47
6/24/2022 5:45:00 AM 18.08 64.544 0.139 7.26 2.23 8.48
6/24/2022 6:00:00 AM 18.06 64.508 0.139 7.31 2.24 8.52
6/24/2022 6:15:00 AM 18.03 64.454 0.139 7.29 2.22 8.55
6/24/2022 6:30:00 AM 18.01 64.418 0.139 7.33 2.24 8.6
6/24/2022 6:45:00 AM 18 64.4 0.139 7.3 2 8.64
6/24/2022 7:00:00 AM 17.99 64.382 0.139 7.33 1.97 8.71
6/24/2022 7:15:00 AM 17.99 64.382 0.139 7.35 1.99 8.78
6/24/2022 7:30:00 AM 17.99 64.382 0.138 7.37 1.9 8.85
6/24/2022 7:45:00 AM 18 64.4 0.138 7.39 1.92 8.91
6/24/2022 8:00:00 AM 18.01 64.418 0.138 7.4 1.85 8.96
6/24/2022 8:15:00 AM 18.03 64.454 0.138 7.43 1.93 9.03
6/24/2022 8:30:00 AM 18.06 64.508 0.138 7.47 1.92 9.1
6/24/2022 8:45:00 AM 18.1 64.58 0.138 7.48 5.78 9.17
6/24/2022 9:00:00 AM 18.14 64.652 0.138 7.52 5.72 9.21
6/24/2022 9:15:00 AM 18.18 64.724 0.138 7.56 1.8 9.28
6/24/2022 9:30:00 AM 18.24 64.832 0.138 7.57 1.77 9.34
6/24/2022 9:45:00 AM 18.3 64.94 0.137 7.64 1.7 9.4
6/24/2022 10:00:00 AM 18.39 65.102 0.137 7.68 1.8 9.46
6/24/2022 10:15:00 AM 18.51 65.318 0.137 7.75 1.78 9.55
6/24/2022 10:30:00 AM 18.68 65.624 0.137 7.86 1.59 9.63
6/24/2022 10:45:00 AM 19.08 66.344 0.137 7.88 1.74 9.67
6/24/2022 11:00:00 AM 19.37 66.866 0.137 7.9 1.62 9.59
6/24/2022 11:15:00 AM 19.7 67.46 0.137 7.88 1.87 9.48
6/24/2022 11:30:00 AM 19.94 67.892 0.137 7.86 5.66 9.4
6/24/2022 11:45:00 AM 20.2 68.36 0.137 7.86 1.66 9.35
6/24/2022 12:00:00 PM 20.53 68.954 0.137 7.86 1.61 9.32
6/24/2022 12:15:00 PM 20.83 69.494 0.137 7.89 1.72 9.27
6/24/2022 12:30:00 PM 21.29 70.32201 0.137 7.94 1.54 9.26
6/24/2022 12:45:00 PM 21.63 70.934 0.137 7.95 1.58 9.15
6/24/2022 1:00:00 PM 21.99 71.582 0.137 7.96 1.65 9.11
6/24/2022 1:15:00 PM 22.01 71.618 0.137 7.93 5.81 8.96
6/24/2022 1:30:00 PM 22.45 72.41 0.137 7.97 1.51 8.96
6/24/2022 1:45:00 PM 22.79 73.022 0.137 7.99 1.62 8.96
6/24/2022 2:00:00 PM 23.17 73.706 0.137 8.02 1.58 8.91
6/24/2022 2:15:00 PM 23.24 73.832 0.137 7.95 1.68 8.75
6/24/2022 2:30:00 PM 23.72 74.696 0.137 8.01 5.76 8.77
6/24/2022 2:45:00 PM 23.8 74.84 0.137 7.98 1.57 8.64
6/24/2022 3:00:00 PM 23.91 75.038 0.137 7.96 1.87 8.57
6/24/2022 3:15:00 PM 24.2 75.56 0.137 8.02 1.66 8.64
6/24/2022 3:30:00 PM 24.5 76.1 0.137 8.07 1.53 8.66
6/24/2022 3:45:00 PM 24.71 76.478 0.137 8.14 1.8 8.67
6/24/2022 4:00:00 PM 24.82 76.676 0.137 8.12 1.53 8.62
6/24/2022 4:15:00 PM 24.9 76.82 0.137 8.1 1.65 8.54
6/24/2022 4:30:00 PM 24.81 76.658 0.137 8.02 1.62 8.37
6/24/2022 4:45:00 PM 24.87 76.766 0.137 8 1.7 8.41
6/24/2022 5:00:00 PM 24.9 76.82 0.137 8 1.69 8.43
6/24/2022 5:15:00 PM 24.78 76.604 0.137 7.92 1.72 8.3
6/24/2022 5:30:00 PM 24.73 76.514 0.137 7.9 1.7 8.32
6/24/2022 5:45:00 PM 24.65 76.37 0.137 7.89 1.73 8.32
6/24/2022 6:00:00 PM 24.45 76.01 0.138 7.82 1.7 8.25
6/24/2022 6:15:00 PM 24.2 75.56 0.138 7.73 1.79 8.18
6/24/2022 6:30:00 PM 23.98 75.164 0.138 7.67 1.79 8.11
6/24/2022 6:45:00 PM 23.75 74.75 0.138 7.6 5.69 8.03
6/24/2022 7:00:00 PM 23.56 74.408 0.138 7.55 1.67 7.96
6/24/2022 7:15:00 PM 23.37 74.066 0.138 7.51 1.92 7.92
6/24/2022 7:30:00 PM 23.18 73.724 0.139 7.48 1.85 7.9
6/24/2022 7:45:00 PM 22.91 73.238 0.139 7.44 2.03 7.83
6/24/2022 8:00:00 PM 22.66 72.788 0.139 7.41 5.91 7.8
6/24/2022 8:15:00 PM 22.44 72.392 0.139 7.38 1.9 7.79
6/24/2022 8:30:00 PM 22.26 72.068 0.139 7.36 1.92 7.79
6/24/2022 8:45:00 PM 22.08 71.744 0.14 7.34 1.92 7.77
6/24/2022 9:00:00 PM 21.91 71.438 0.14 7.32 1.94 7.76
6/24/2022 9:15:00 PM 21.74 71.132 0.14 7.3 1.99 7.75
6/24/2022 9:30:00 PM 21.55 70.79 0.14 7.29 2.15 7.75
6/24/2022 9:45:00 PM 21.37 70.466 0.14 7.28 2.22 7.77
6/24/2022 10:00:00 PM 21.2 70.16 0.14 7.27 1.93 7.8
6/24/2022 10:15:00 PM 21.02 69.836 0.14 7.27 6.21 7.83
6/24/2022 10:30:00 PM 20.87 69.566 0.14 7.31 2.09 7.86
6/24/2022 10:45:00 PM 20.72 69.296 0.14 7.25 2.15 7.88
6/24/2022 11:00:00 PM 20.58 69.044 0.14 7.26 2 7.91
6/24/2022 11:15:00 PM 20.44 68.792 0.14 7.26 2.13 7.93
6/24/2022 11:30:00 PM 20.32 68.576 0.14 7.25 1.99 7.96
6/24/2022 11:45:00 PM 20.19 68.342 0.14 7.26 1.99 7.99
6/25/2022 12:00:00 AM 20.07 68.126 0.14 7.29 2.41 8.01
6/25/2022 12:15:00 AM 19.94 67.892 0.14 7.29 2.2 8.04
6/25/2022 12:30:00 AM 19.83 67.694 0.14 7.29 2.11 8.06
6/25/2022 12:45:00 AM 19.71 67.478 0.14 7.24 2.06 8.09
6/25/2022 1:00:00 AM 19.6 67.28 0.14 7.24 2.11 8.11
6/25/2022 1:15:00 AM 19.48 67.064 0.14 7.24 2.18 8.14
6/25/2022 1:30:00 AM 19.37 66.866 0.14 7.25 2.17 8.16
6/25/2022 1:45:00 AM 19.26 66.668 0.14 7.24 3.46 8.18
6/25/2022 2:00:00 AM 19.15 66.47 0.14 7.26 2.14 8.2
6/25/2022 2:15:00 AM 19.04 66.272 0.14 7.26 2.13 8.23
6/25/2022 2:30:00 AM 18.94 66.092 0.14 7.24 2.05 8.24
6/25/2022 2:45:00 AM 18.83 65.894 0.14 7.24 2 8.27
6/25/2022 3:00:00 AM 18.73 65.714 0.14 7.23 1.92 8.3
6/25/2022 3:15:00 AM 18.64 65.552 0.14 7.24 6.05 8.32
6/25/2022 3:30:00 AM 18.54 65.372 0.14 7.23 2.23 8.34
6/25/2022 3:45:00 AM 18.44 65.192 0.14 7.23 6.18 8.36
6/25/2022 4:00:00 AM 18.35 65.03 0.14 7.27 2.59 8.38
6/25/2022 4:15:00 AM 18.26 64.868 0.14 7.22 6.39 8.4
6/25/2022 4:30:00 AM 18.18 64.724 0.14 7.23 6.28 8.42
6/25/2022 4:45:00 AM 18.09 64.562 0.14 7.23 2.14 8.43
6/25/2022 5:00:00 AM 18.02 64.436 0.14 7.23 6.1 8.46
6/25/2022 5:15:00 AM 17.94 64.292 0.14 7.23 2.13 8.47
6/25/2022 5:30:00 AM 17.88 64.184 0.14 7.23 6.11 8.49
6/25/2022 5:45:00 AM 17.82 64.076 0.14 7.23 2.1 8.51
6/25/2022 6:00:00 AM 17.77 63.986 0.139 7.24 6.33 8.56
6/25/2022 6:15:00 AM 17.73 63.914 0.139 7.25 2.01 8.62
6/25/2022 6:30:00 AM 17.7 63.86 0.139 7.27 1.93 8.72
6/25/2022 6:45:00 AM 17.67 63.806 0.139 7.29 1.99 8.81
6/25/2022 7:00:00 AM 17.67 63.806 0.139 7.32 1.82 8.94
6/25/2022 7:15:00 AM 17.66 63.788 0.139 7.34 2.11 9.02
6/25/2022 7:30:00 AM 17.64 63.752 0.138 7.36 1.76 9.07
6/25/2022 7:45:00 AM 17.69 63.842 0.138 7.4 1.84 9.18
6/25/2022 8:00:00 AM 17.76 63.968 0.138 7.43 1.73 9.27
6/25/2022 8:15:00 AM 17.85 64.13 0.138 7.46 5.66 9.32
6/25/2022 8:30:00 AM 17.94 64.292 0.138 7.53 1.82 9.35
6/25/2022 8:45:00 AM 18.06 64.508 0.138 7.52 1.82 9.38
6/25/2022 9:00:00 AM 18.19 64.742 0.138 7.57 1.77 9.4
6/25/2022 9:15:00 AM 18.35 65.03 0.138 7.56 1.76 9.42
6/25/2022 9:30:00 AM 18.52 65.336 0.138 7.61 1.76 9.43
6/25/2022 9:45:00 AM 18.71 65.67799 0.138 7.64 1.69 9.43
6/25/2022 10:00:00 AM 18.92 66.056 0.137 7.63 1.59 9.43
6/25/2022 10:15:00 AM 19.15 66.47 0.137 7.66 1.7 9.41
6/25/2022 10:30:00 AM 19.4 66.92 0.137 7.68 1.77 9.39
6/25/2022 10:45:00 AM 19.68 67.424 0.137 7.7 1.77 9.37
6/25/2022 11:00:00 AM 20.02 68.036 0.137 7.74 1.72 9.36
6/25/2022 11:15:00 AM 20.36 68.648 0.137 7.77 1.69 9.34
6/25/2022 11:30:00 AM 20.77 69.386 0.137 7.82 1.67 9.31
6/25/2022 11:45:00 AM 21.15 70.07 0.137 7.84 1.68 9.26
6/25/2022 12:00:00 PM 21.13 70.034 0.137 7.8 1.76 9.08
6/25/2022 12:15:00 PM 21.42 70.556 0.137 7.82 1.74 9.09
6/25/2022 12:30:00 PM 21.66 70.988 0.137 7.85 1.73 9.07
6/25/2022 12:45:00 PM 22.25 72.05 0.136 7.92 1.87 9.1
6/25/2022 1:00:00 PM 22.63 72.734 0.136 7.97 1.76 9.05
6/25/2022 1:15:00 PM 22.9 73.22 0.136 8.02 1.95 8.96
6/25/2022 1:30:00 PM 23.38 74.084 0.136 8.06 1.87 9.01
6/25/2022 1:45:00 PM 23.81 74.858 0.136 8.15 1.82 8.96
6/25/2022 2:00:00 PM 24.18 75.524 0.136 8.15 1.71 8.9
6/25/2022 2:15:00 PM 24.48 76.064 0.136 8.19 1.75 8.85
6/25/2022 2:30:00 PM 24.72 76.496 0.136 8.22 1.66 8.81
6/25/2022 2:45:00 PM 24.87 76.766 0.136 8.18 1.66 8.7
6/25/2022 3:00:00 PM 25.12 77.216 0.136 8.25 1.87 8.74
6/25/2022 3:15:00 PM 25.23 77.414 0.136 8.23 1.84 8.67
6/25/2022 3:30:00 PM 25.29 77.522 0.137 8.21 1.88 8.61
6/25/2022 3:45:00 PM 25.39 77.702 0.137 8.23 1.86 8.56
6/25/2022 4:00:00 PM 25.48 77.864 0.137 8.17 1.88 8.53
6/25/2022 4:15:00 PM 25.62 78.116 0.137 8.2 1.71 8.5
6/25/2022 4:30:00 PM 25.73 78.314 0.137 8.18 1.74 8.44
6/25/2022 4:45:00 PM 25.78 78.404 0.137 8.2 1.65 8.4
6/25/2022 5:00:00 PM 25.78 78.404 0.137 8.17 2.17 8.37
6/25/2022 5:15:00 PM 25.71 78.278 0.137 8.09 1.88 8.32
6/25/2022 5:30:00 PM 25.63 78.134 0.137 8.05 1.89 8.28
6/25/2022 5:45:00 PM 25.49 77.882 0.137 7.99 1.87 8.24
6/25/2022 6:00:00 PM 25.31 77.558 0.138 7.9 1.85 8.16
6/25/2022 6:15:00 PM 25.08 77.144 0.138 7.8 1.93 8.07
6/25/2022 6:30:00 PM 24.85 76.73 0.138 7.72 1.78 8
6/25/2022 6:45:00 PM 24.6 76.28 0.138 7.64 1.93 7.91
6/25/2022 7:00:00 PM 24.37 75.866 0.139 7.62 1.93 7.85
6/25/2022 7:15:00 PM 24.16 75.488 0.139 7.52 2.08 7.8
6/25/2022 7:30:00 PM 23.97 75.146 0.139 7.51 1.81 7.76
6/25/2022 7:45:00 PM 23.72 74.696 0.139 7.44 1.91 7.71
6/25/2022 8:00:00 PM 23.45 74.21 0.139 7.41 1.88 7.65
6/25/2022 8:15:00 PM 23.22 73.796 0.139 7.37 1.84 7.61
6/25/2022 8:30:00 PM 23.02 73.436 0.139 7.34 1.85 7.58
6/25/2022 8:45:00 PM 22.85 73.13 0.14 7.33 1.89 7.55
6/25/2022 9:00:00 PM 22.69 72.842 0.14 7.31 1.83 7.53
6/25/2022 9:15:00 PM 22.53 72.554 0.14 7.29 1.95 7.54
6/25/2022 9:30:00 PM 22.36 72.248 0.14 7.26 3.76 7.51
6/25/2022 9:45:00 PM 22.18 71.924 0.14 7.27 2 7.54
6/25/2022 10:00:00 PM 22.02 71.636 0.14 7.25 1.96 7.59
6/25/2022 10:15:00 PM 21.85 71.33 0.14 7.29 2.06 7.62
6/25/2022 10:30:00 PM 21.7 71.06 0.14 7.3 1.87 7.65
6/25/2022 10:45:00 PM 21.55 70.79 0.14 7.23 1.9 7.68
6/25/2022 11:00:00 PM 21.41 70.538 0.14 7.27 1.9 7.69
6/25/2022 11:15:00 PM 21.28 70.304 0.14 7.23 10.29 7.72
6/25/2022 11:30:00 PM 21.15 70.07 0.14 7.23 2.05 7.76
6/25/2022 11:45:00 PM 21.02 69.836 0.14 7.25 1.79 7.78
6/26/2022 12:00:00 AM 20.9 69.62 0.14 7.23 1.78 7.8
6/26/2022 12:15:00 AM 20.78 69.404 0.14 7.23 1.74 7.81
6/26/2022 12:30:00 AM 20.67 69.206 0.14 7.23 6.1 7.84
6/26/2022 12:45:00 AM 20.55 68.99 0.14 7.23 1.81 7.86
6/26/2022 1:00:00 AM 20.44 68.792 0.139 7.23 6.13 7.9
6/26/2022 1:15:00 AM 20.33 68.594 0.14 7.27 1.96 7.92
6/26/2022 1:30:00 AM 20.22 68.396 0.14 7.24 1.96 7.94
6/26/2022 1:45:00 AM 20.11 68.198 0.14 7.23 1.81 7.96
6/26/2022 2:00:00 AM 20 68 0.14 7.23 1.99 7.99
6/26/2022 2:15:00 AM 19.89 67.802 0.14 7.23 2.12 8
6/26/2022 2:30:00 AM 19.78 67.604 0.14 7.28 2.01 8.02
6/26/2022 2:45:00 AM 19.67 67.406 0.14 7.25 1.92 8.05
6/26/2022 3:00:00 AM 19.56 67.208 0.14 7.22 1.72 8.08
6/26/2022 3:15:00 AM 19.46 67.028 0.14 7.23 6.28 8.1
6/26/2022 3:30:00 AM 19.36 66.848 0.14 7.23 1.9 8.12
6/26/2022 3:45:00 AM 19.25 66.65 0.14 7.23 2.03 8.14
6/26/2022 4:00:00 AM 19.16 66.488 0.14 7.23 1.88 8.15
6/26/2022 4:15:00 AM 19.06 66.308 0.14 7.22 2.08 8.18
6/26/2022 4:30:00 AM 18.96 66.128 0.14 7.23 1.96 8.19
6/26/2022 4:45:00 AM 18.88 65.984 0.14 7.25 1.99 8.2
6/26/2022 5:00:00 AM 18.78 65.804 0.139 7.22 1.88 8.24
6/26/2022 5:15:00 AM 18.7 65.66 0.139 7.28 1.93 8.26
6/26/2022 5:30:00 AM 18.62 65.516 0.139 7.21 2.04 8.27
6/26/2022 5:45:00 AM 18.55 65.39 0.139 7.23 5.88 8.31
6/26/2022 6:00:00 AM 18.48 65.264 0.139 7.27 1.9 8.35
6/26/2022 6:15:00 AM 18.42 65.156 0.139 7.24 1.89 8.41
6/26/2022 6:30:00 AM 18.38 65.084 0.139 7.28 1.85 8.51
6/26/2022 6:45:00 AM 18.34 65.012 0.139 7.28 1.68 8.61
6/26/2022 7:00:00 AM 18.32 64.976 0.139 7.31 1.81 8.7
6/26/2022 7:15:00 AM 18.33 64.994 0.138 7.37 1.96 8.84
6/26/2022 7:30:00 AM 18.34 65.012 0.138 7.35 1.81 8.92
6/26/2022 7:45:00 AM 18.41 65.138 0.138 7.41 1.72 9.04
6/26/2022 8:00:00 AM 18.51 65.318 0.138 7.44 1.92 9.16
6/26/2022 8:15:00 AM 18.63 65.534 0.138 7.53 1.67 9.22
6/26/2022 8:30:00 AM 18.75 65.75 0.138 7.52 1.72 9.27
6/26/2022 8:45:00 AM 18.87 65.966 0.138 7.56 1.62 9.29
6/26/2022 9:00:00 AM 19.04 66.272 0.137 7.59 2 9.33
6/26/2022 9:15:00 AM 19.22 66.596 0.137 7.67 1.74 9.35
6/26/2022 9:30:00 AM 19.45 67.01 0.137 7.66 5.76 9.38
6/26/2022 9:45:00 AM 19.7 67.46 0.137 7.72 1.67 9.4
6/26/2022 10:00:00 AM 19.93 67.874 0.137 7.77 1.62 9.42
6/26/2022 10:15:00 AM 20.17 68.306 0.137 7.82 1.61 9.42
6/26/2022 10:30:00 AM 20.38 68.684 0.137 7.89 1.63 9.42
6/26/2022 10:45:00 AM 20.63 69.134 0.136 7.9 1.58 9.42
6/26/2022 11:00:00 AM 20.87 69.566 0.136 7.95 1.66 9.42
6/26/2022 11:15:00 AM 21.06 69.908 0.136 8 1.5 9.38
6/26/2022 11:30:00 AM 21.23 70.214 0.136 8.05 1.63 9.32
6/26/2022 11:45:00 AM 21.69 71.042 0.136 8.07 1.58 9.33
6/26/2022 12:00:00 PM 22.04 71.672 0.136 8.13 1.63 9.27
6/26/2022 12:15:00 PM 22.16 71.888 0.136 8.13 1.53 9.16
6/26/2022 12:30:00 PM 22.54 72.57201 0.136 8.21 1.72 9.17
6/26/2022 12:45:00 PM 22.78 73.004 0.135 8.22 1.66 9.08
6/26/2022 1:00:00 PM 23.11 73.598 0.135 8.22 1.61 8.97
6/26/2022 1:15:00 PM 23.44 74.192 0.135 8.24 1.73 8.92
6/26/2022 1:30:00 PM 23.93 75.074 0.135 8.31 1.86 9.01
6/26/2022 1:45:00 PM 24.29 75.722 0.135 8.37 1.53 8.96
6/26/2022 2:00:00 PM 24.24 75.632 0.135 8.3 1.89 8.77
6/26/2022 2:15:00 PM 24.39 75.902 0.135 8.33 1.57 8.74
6/26/2022 2:30:00 PM 24.7 76.46 0.135 8.43 1.66 8.81
6/26/2022 2:45:00 PM 24.83 76.694 0.135 8.42 1.61 8.74
6/26/2022 3:00:00 PM 24.8 76.64 0.136 8.35 1.69 8.67
6/26/2022 3:15:00 PM 24.97 76.946 0.136 8.43 1.68 8.74
6/26/2022 3:30:00 PM 24.98 76.964 0.136 8.4 1.67 8.67
6/26/2022 3:45:00 PM 24.81 76.658 0.136 8.21 1.69 8.26
6/26/2022 4:00:00 PM 24.69 76.442 0.136 7.99 1.61 8.06
6/26/2022 4:15:00 PM 24.61 76.298 0.136 7.9 1.58 8.05
6/26/2022 4:30:00 PM 24.51 76.118 0.137 7.84 1.8 8.07
6/26/2022 4:45:00 PM 24.5 76.1 0.137 7.93 1.62 8.32
6/26/2022 5:00:00 PM 24.36 75.848 0.137 7.96 1.69 8.45
6/26/2022 5:15:00 PM 24.19 75.542 0.136 7.92 1.78 8.35
6/26/2022 5:30:00 PM 24.15 75.47 0.136 8 1.81 8.47
6/26/2022 5:45:00 PM 24.09 75.362 0.136 7.96 1.75 8.44
6/26/2022 6:00:00 PM 23.99 75.182 0.136 7.9 5.69 8.35
6/26/2022 6:15:00 PM 23.93 75.074 0.136 7.89 1.67 8.37
6/26/2022 6:30:00 PM 23.82 74.876 0.136 7.9 1.74 8.41
6/26/2022 6:45:00 PM 23.67 74.606 0.137 7.8 1.64 8.26
6/26/2022 7:00:00 PM 23.51 74.318 0.137 7.72 1.81 8.17
6/26/2022 7:15:00 PM 23.36 74.048 0.136 7.64 1.77 8.07
6/26/2022 7:30:00 PM 23.23 73.814 0.136 7.56 1.57 7.94
6/26/2022 7:45:00 PM 23.11 73.598 0.137 7.49 1.85 7.79
6/26/2022 8:00:00 PM 22.98 73.364 0.137 7.44 1.72 7.68
6/26/2022 8:15:00 PM 22.85 73.13 0.138 7.39 1.75 7.62
6/26/2022 8:30:00 PM 22.74 72.932 0.138 7.36 2.02 7.56
6/26/2022 8:45:00 PM 22.62 72.716 0.139 7.33 1.76 7.51
6/26/2022 9:00:00 PM 22.51 72.518 0.139 7.32 1.86 7.51
6/26/2022 9:15:00 PM 22.4 72.32 0.138 7.3 1.77 7.49
6/26/2022 9:30:00 PM 22.29 72.122 0.139 7.29 6.07 7.51
6/26/2022 9:45:00 PM 22.19 71.942 0.139 7.28 1.81 7.5
6/26/2022 10:00:00 PM 22.1 71.78 0.139 7.28 1.83 7.52
6/26/2022 10:15:00 PM 22.01 71.618 0.139 7.25 6.22 7.53
6/26/2022 10:30:00 PM 21.92 71.456 0.139 7.25 1.93 7.55
6/26/2022 10:45:00 PM 21.84 71.312 0.139 7.24 1.84 7.56
6/26/2022 11:00:00 PM 21.75 71.15 0.139 7.24 6.09 7.57
6/26/2022 11:15:00 PM 21.67 71.006 0.139 7.23 1.79 7.6
6/26/2022 11:30:00 PM 21.59 70.862 0.139 7.28 1.71 7.59
6/26/2022 11:45:00 PM 21.51 70.718 0.139 7.23 1.77 7.62
6/27/2022 12:00:00 AM 21.44 70.592 0.139 7.24 1.81 7.63
6/27/2022 12:15:00 AM 21.37 70.466 0.139 7.24 1.77 7.66
6/27/2022 12:30:00 AM 21.3 70.34 0.139 7.27 1.77 7.65
6/27/2022 12:45:00 AM 21.24 70.232 0.139 7.24 1.89 7.69
6/27/2022 1:00:00 AM 21.18 70.124 0.139 7.25 1.84 7.71
6/27/2022 1:15:00 AM 21.12 70.016 0.139 7.24 2.16 7.7
6/27/2022 1:30:00 AM 21.07 69.926 0.139 7.23 1.78 7.72
6/27/2022 1:45:00 AM 21.02 69.836 0.139 7.26 1.76 7.72
6/27/2022 2:00:00 AM 20.96 69.728 0.139 7.25 1.89 7.74
6/27/2022 2:15:00 AM 20.92 69.656 0.139 7.26 2.19 7.76
6/27/2022 2:30:00 AM 20.86 69.548 0.139 7.26 1.78 7.76
6/27/2022 2:45:00 AM 20.81 69.458 0.139 7.25 1.85 7.78
6/27/2022 3:00:00 AM 20.76 69.368 0.14 7.26 1.82 7.79
6/27/2022 3:15:00 AM 20.71 69.278 0.14 7.22 1.86 7.81
6/27/2022 3:30:00 AM 20.66 69.188 0.14 7.23 2.22 7.83
6/27/2022 3:45:00 AM 20.61 69.098 0.14 7.26 2.12 7.84
6/27/2022 4:00:00 AM 20.57 69.026 0.14 7.24 1.95 7.84
6/27/2022 4:15:00 AM 20.53 68.954 0.14 7.24 1.93 7.85
6/27/2022 4:30:00 AM 20.48 68.864 0.14 7.25 2 7.87
6/27/2022 4:45:00 AM 20.44 68.792 0.14 7.21 6.14 7.88
6/27/2022 5:00:00 AM 20.4 68.72 0.14 7.21 1.98 7.89
6/27/2022 5:15:00 AM 20.34 68.612 0.14 7.22 2.29 7.92
6/27/2022 5:30:00 AM 20.29 68.522 0.14 7.22 2.7 7.94
6/27/2022 5:45:00 AM 20.24 68.432 0.14 7.24 2.46 7.97
6/27/2022 6:00:00 AM 20.2 68.36 0.14 7.24 2.32 8
6/27/2022 6:15:00 AM 20.15 68.27 0.14 7.23 2.53 8.04
6/27/2022 6:30:00 AM 20.12 68.216 0.14 7.27 2.21 8.08
6/27/2022 6:45:00 AM 20.1 68.18 0.14 7.26 2.4 8.12
6/27/2022 7:00:00 AM 20.08 68.144 0.14 7.29 7.84 8.2
6/27/2022 7:15:00 AM 20.07 68.126 0.14 7.31 2.19 8.34
6/27/2022 7:30:00 AM 20.05 68.09 0.141 7.39 2.1 8.44
6/27/2022 7:45:00 AM 20.06 68.108 0.14 7.4 2.11 8.61
6/27/2022 8:00:00 AM 20.06 68.108 0.141 7.49 1.97 8.76
6/27/2022 8:15:00 AM 20.04 68.07201 0.141 7.47 6.26 8.73
6/27/2022 8:30:00 AM 20.06 68.108 0.141 7.56 2.09 8.83
6/27/2022 8:45:00 AM 20.17 68.306 0.14 7.59 5.92 9.02
6/27/2022 9:00:00 AM 20.18 68.324 0.14 7.65 1.91 9.08
6/27/2022 9:15:00 AM 20.33 68.594 0.14 7.73 5.83 9.19
6/27/2022 9:30:00 AM 20.35 68.63 0.14 7.82 1.82 9.24
6/27/2022 9:45:00 AM 20.54 68.972 0.14 7.87 2.03 9.26
6/27/2022 10:00:00 AM 20.67 69.206 0.14 7.85 1.83 9.22
6/27/2022 10:15:00 AM 20.85 69.53 0.14 7.85 1.99 9.17
6/27/2022 10:30:00 AM 20.99 69.782 0.14 7.87 1.83 9.17
6/27/2022 10:45:00 AM 21.03 69.854 0.14 7.86 1.8 9.14